Provisional Data: Catatonk Creek near Spencer, NY


Please select a monitoring station.
Please select start date.
Please select start date.

Toggle Unit: C/F Toggle Unit: C/F
Sample Time Temperature (C) Temperature (F) Specific Conductivity (mS/cm) pH   Turbidity (NTU+) DO (mg/L)
12/11/2021 12:00:00 AM 4.38 39.884 0.335 7.7 2.87 11.21
12/11/2021 12:15:00 AM 4.36 39.848 0.33 7.71 2.71 11.2
12/11/2021 12:30:00 AM 4.36 39.848 0.358 7.7 2.59 11.2
12/11/2021 12:45:00 AM 4.37 39.866 0.334 7.69 2.62 11.18
12/11/2021 1:00:00 AM 4.36 39.848 0.349 7.7 2.5 11.18
12/11/2021 1:15:00 AM 4.38 39.884 0.36 7.69 2.68 11.16
12/11/2021 1:30:00 AM 4.36 39.848 0.34 7.68 2.76 11.17
12/11/2021 1:45:00 AM 4.37 39.866 0.353 7.68 3.14 11.16
12/11/2021 2:00:00 AM 4.37 39.866 0.35 7.67 3.14 11.16
12/11/2021 2:15:00 AM 4.38 39.884 0.346 7.68 2.76 11.16
12/11/2021 2:30:00 AM 4.38 39.884 0.345 7.64 3.85 11.17
12/11/2021 2:45:00 AM 4.38 39.884 0.349 7.67 2.74 11.16
12/11/2021 3:00:00 AM 4.38 39.884 0.336 7.67 3.22 11.16
12/11/2021 3:15:00 AM 4.39 39.902 0.361 7.66 4.45 11.15
12/11/2021 3:30:00 AM 4.4 39.92 0.351 7.67 3.06 11.15
12/11/2021 3:45:00 AM 4.41 39.938 0.35 7.68 3.74 11.14
12/11/2021 4:00:00 AM 4.41 39.938 0.348 7.66 4.67 11.14
12/11/2021 4:15:00 AM 4.43 39.974 0.352 7.66 3.51 11.15
12/11/2021 4:30:00 AM 4.44 39.992 0.356 7.55 3.56 11.13
12/11/2021 4:45:00 AM 4.45 40.01 0.357 7.66 3.3 11.12
12/11/2021 5:00:00 AM 4.47 40.046 0.357 7.65 3.11 11.12
12/11/2021 5:15:00 AM 4.48 40.064 0.346 7.67 2.82 11.14
12/11/2021 5:30:00 AM 4.5 40.1 0.347 7.66 3.19 11.13
12/11/2021 5:45:00 AM 4.52 40.136 0.345 7.66 2.79 11.12
12/11/2021 6:00:00 AM 4.54 40.172 0.337 7.67 2.84 11.13
12/11/2021 6:15:00 AM 4.55 40.19 0.324 7.67 2.94 11.12
12/11/2021 6:30:00 AM 4.57 40.226 0.322 7.67 3.1 11.11
12/11/2021 6:45:00 AM 4.6 40.28 0.323 7.67 4.12 11.14
12/11/2021 7:00:00 AM 4.61 40.298 0.33 7.59 4.18 11.13
12/11/2021 7:15:00 AM 4.63 40.334 0.33 7.66 3.76 11.13
12/11/2021 7:30:00 AM 4.66 40.388 0.348 7.66 3.97 11.1
12/11/2021 7:45:00 AM 4.69 40.442 0.374 7.65 4.86 11.07
12/11/2021 8:00:00 AM 4.7 40.46 0.388 7.64 5.46 11.07
12/11/2021 8:15:00 AM 4.73 40.514 0.399 7.65 5.84 11.06
12/11/2021 8:30:00 AM 4.74 40.532 0.399 7.64 5.62 11.04
12/11/2021 8:45:00 AM 4.77 40.586 0.397 7.64 4.87 11.05
12/11/2021 9:00:00 AM 4.8 40.64 0.404 7.64 6.26 11.07
12/11/2021 9:15:00 AM 4.83 40.694 0.385 7.66 5.93 11.09
12/11/2021 9:30:00 AM 4.86 40.748 0.373 7.65 6.33 11.13
12/11/2021 9:45:00 AM 4.89 40.802 0.363 7.66 5.63 11.18
12/11/2021 10:00:00 AM 4.93 40.874 0.373 7.66 5.26 11.21
12/11/2021 10:15:00 AM 4.96 40.928 0.367 7.67 4.86 11.28
12/11/2021 10:30:00 AM 5.01 41.018 0.358 7.68 4.21 11.36
12/11/2021 10:45:00 AM 5.05 41.09 0.362 7.69 4.86 11.41
12/11/2021 11:00:00 AM 5.09 41.162 0.357 7.69 4.37 11.47
12/11/2021 11:15:00 AM 5.14 41.252 0.348 7.71 3.65 11.55
12/11/2021 11:30:00 AM 5.18 41.324 0.345 7.71 3.43 11.64
12/11/2021 11:45:00 AM 5.21 41.378 0.347 7.72 3.45 11.65
12/11/2021 12:00:00 PM 5.24 41.432 0.349 7.72 3.39 11.67
12/11/2021 12:15:00 PM 5.29 41.522 0.345 7.73 3.56 11.69
12/11/2021 12:30:00 PM 5.32 41.576 0.346 7.75 3.86 11.74
12/11/2021 12:45:00 PM 5.34 41.612 0.346 7.74 4.43 11.75
12/11/2021 1:00:00 PM 5.37 41.666 0.343 7.74 4.44 11.77
12/11/2021 1:15:00 PM 5.4 41.72 0.345 7.73 4.76 11.83
12/11/2021 1:30:00 PM 5.42 41.756 0.34 7.75 6.06 11.88
12/11/2021 1:45:00 PM 5.44 41.792 0.331 7.75 5.19 11.89
12/11/2021 2:00:00 PM 5.48 41.864 0.322 7.74 5.89 11.88
12/11/2021 2:15:00 PM 5.51 41.918 0.319 7.75 6.28 11.91
12/11/2021 2:30:00 PM 5.54 41.972 0.315 7.74 6.44 11.91
12/11/2021 2:45:00 PM 5.57 42.026 0.301 7.73 7.88 11.9
12/11/2021 3:00:00 PM 5.59 42.062 0.306 7.74 7.02 11.89
12/11/2021 3:15:00 PM 5.61 42.098 0.288 7.74 7.97 11.88
12/11/2021 3:30:00 PM 5.64 42.152 0.299 7.74 7.86 11.85
12/11/2021 3:45:00 PM 5.66 42.188 0.296 7.74 8.03 11.81
12/11/2021 4:00:00 PM 5.68 42.224 0.292 7.71 7.79 11.75
12/11/2021 4:15:00 PM 5.7 42.26 0.286 7.73 7.63 11.72
12/11/2021 4:30:00 PM 5.72 42.296 0.287 7.71 8.11 11.67
12/11/2021 4:45:00 PM 5.75 42.35 0.281 7.72 12.05 11.61
12/11/2021 5:00:00 PM 5.79 42.422 0.281 7.7 10.62 11.54
12/11/2021 5:15:00 PM 5.83 42.494 0.278 7.7 9.51 11.48
12/11/2021 5:30:00 PM 5.86 42.548 0.277 7.68 10.21 11.42
12/11/2021 5:45:00 PM 5.9 42.62 0.275 7.66 11.06 11.35
12/11/2021 6:00:00 PM 5.94 42.692 0.276 7.66 10.23 11.29
12/11/2021 6:15:00 PM 6 42.8 0.274 7.58 10.41 11.24
12/11/2021 6:30:00 PM 6.05 42.89 0.275 7.63 9.93 11.19
12/11/2021 6:45:00 PM 6.11 42.998 0.281 7.64 10.36 11.13
12/11/2021 7:00:00 PM 6.16 43.088 0.274 7.65 8.98 11.09
12/11/2021 7:15:00 PM 6.2 43.16 0.273 7.64 10.64 11.04
12/11/2021 7:30:00 PM 6.23 43.214 0.266 7.61 9.7 11.01
12/11/2021 7:45:00 PM 6.24 43.232 0.27 7.62 10.68 10.96
12/11/2021 8:00:00 PM 6.23 43.214 0.269 7.56 9.91 10.93
12/11/2021 8:15:00 PM 6.21 43.178 0.267 7.61 9.66 10.91
12/11/2021 8:30:00 PM 6.19 43.142 0.267 7.6 9.17 10.87
12/11/2021 8:45:00 PM 6.16 43.088 0.267 7.61 9.14 10.87
12/11/2021 9:00:00 PM 6.13 43.034 0.264 7.6 8.22 10.85
12/11/2021 9:15:00 PM 6.1 42.98 0.262 7.59 9.55 10.85
12/11/2021 9:30:00 PM 6.06 42.908 0.261 7.59 8.18 10.83
12/11/2021 9:45:00 PM 6.03 42.854 0.26 7.59 7.61 10.84
12/11/2021 10:00:00 PM 5.98 42.764 0.261 7.59 7.77 10.84
12/11/2021 10:15:00 PM 5.94 42.692 0.257 7.58 7.42 10.82
12/11/2021 10:30:00 PM 5.89 42.602 0.25 7.56 8.22 10.83
12/11/2021 10:45:00 PM 5.85 42.53 0.255 7.58 6.72 10.83
12/11/2021 11:00:00 PM 5.79 42.422 0.254 7.58 6.73 10.84
12/11/2021 11:15:00 PM 5.74 42.332 0.254 7.58 6.93 10.84
12/11/2021 11:30:00 PM 5.69 42.242 0.257 7.58 6.31 10.86
12/11/2021 11:45:00 PM 5.64 42.152 0.249 7.58 6.22 10.87
12/12/2021 12:00:00 AM 5.59 42.062 0.258 7.59 6.21 10.88
12/12/2021 12:15:00 AM 5.55 41.99 0.261 7.58 6.26 10.9
12/12/2021 12:30:00 AM 5.51 41.918 0.268 7.59 5.91 10.91
12/12/2021 12:45:00 AM 5.47 41.846 0.265 7.59 5.97 10.91
12/12/2021 1:00:00 AM 5.43 41.774 0.264 7.6 8.08 10.93
12/12/2021 1:15:00 AM 5.4 41.72 0.256 7.6 5.87 10.92
12/12/2021 1:30:00 AM 5.37 41.666 0.254 7.6 6.21 10.94
12/12/2021 1:45:00 AM 5.33 41.594 0.284 7.59 5.92 10.94
12/12/2021 2:00:00 AM 5.3 41.54 0.28 7.59 7.61 10.96
12/12/2021 2:15:00 AM 5.28 41.504 0.275 7.57 6.71 10.97
12/12/2021 2:30:00 AM 5.26 41.468 0.265 7.6 5.75 10.96
12/12/2021 2:45:00 AM 5.23 41.414 0.242 7.52 6.6 10.96
12/12/2021 3:00:00 AM 5.2 41.36 0.258 7.56 6.69 10.98
12/12/2021 3:15:00 AM 5.17 41.306 0.249 7.55 7.2 11
12/12/2021 3:30:00 AM 5.15 41.27 0.243 7.55 6.95 10.98
12/12/2021 3:45:00 AM 5.13 41.234 0.244 7.54 6.58 10.98
12/12/2021 4:00:00 AM 5.1 41.18 0.244 7.54 7.27 10.99
12/12/2021 4:15:00 AM 5.06 41.108 0.214 7.53 7.44 11.01
12/12/2021 4:30:00 AM 5.03 41.054 0.249 7.54 7.41 11.01
12/12/2021 4:45:00 AM 4.98 40.964 0.252 7.54 6.72 11.03
12/12/2021 5:00:00 AM 4.94 40.892 0.264 7.54 7.62 11.04
12/12/2021 5:15:00 AM 4.89 40.802 0.262 7.55 36.26 11.03
12/12/2021 5:30:00 AM 4.83 40.694 0.254 7.56 7.07 11.07
12/12/2021 5:45:00 AM 4.79 40.622 0.253 7.44 6.35 11.08
12/12/2021 6:00:00 AM 4.75 40.55 0.258 7.53 6.51 11.08
12/12/2021 6:15:00 AM 4.69 40.442 0.258 7.56 6.88 11.09
12/12/2021 6:30:00 AM 4.64 40.352 0.265 7.56 11.23 11.12
12/12/2021 6:45:00 AM 4.6 40.28 0.261 7.53 7.11 11.12
12/12/2021 7:00:00 AM 4.56 40.208 0.258 7.56 6.87 11.13
12/12/2021 7:15:00 AM 4.52 40.136 0.252 7.56 6.53 11.15
12/12/2021 7:30:00 AM 4.47 40.046 0.252 7.56 6.36 11.16
12/12/2021 7:45:00 AM 4.43 39.974 0.254 7.56 6.36 11.18
12/12/2021 8:00:00 AM 4.4 39.92 0.254 7.57 6.1 11.22
12/12/2021 8:15:00 AM 4.35 39.83 0.254 7.57 6.81 11.25
12/12/2021 8:30:00 AM 4.33 39.794 0.254 7.56 6.62 11.3
12/12/2021 8:45:00 AM 4.31 39.758 0.256 7.58 6.37 11.36
12/12/2021 9:00:00 AM 4.31 39.758 0.255 7.59 6.24 11.4
12/12/2021 9:15:00 AM 4.29 39.722 0.257 7.59 6.5 11.48
12/12/2021 9:30:00 AM 4.31 39.758 0.258 7.61 6.8 11.54
12/12/2021 9:45:00 AM 4.31 39.758 0.258 7.61 6.13 11.63
12/12/2021 10:00:00 AM 4.33 39.794 0.255 7.62 6.21 11.7
12/12/2021 10:15:00 AM 4.35 39.83 0.258 7.61 6.33 11.79
12/12/2021 10:30:00 AM 4.38 39.884 0.264 7.61 7.56 11.86
12/12/2021 10:45:00 AM 4.41 39.938 0.26 7.64 6.45 11.94
12/12/2021 11:00:00 AM 4.45 40.01 0.26 7.66 5.94 12.03
12/12/2021 11:15:00 AM 4.5 40.1 0.261 7.66 7.8 12.12
12/12/2021 11:30:00 AM 4.55 40.19 0.265 7.67 7.74 12.2
12/12/2021 11:45:00 AM 4.61 40.298 0.262 7.69 6.42 12.28
12/12/2021 12:00:00 PM 4.67 40.406 0.168 7.7 5.68 12.37
12/12/2021 12:15:00 PM 4.74 40.532 0.276 7.72 6.63 12.43
12/12/2021 12:30:00 PM 4.8 40.64 0.275 7.73 5.61 12.49
12/12/2021 12:45:00 PM 4.86 40.748 0.28 7.75 5.41 12.56
12/12/2021 1:00:00 PM 4.94 40.892 0.28 7.76 5.3 12.6
12/12/2021 1:15:00 PM 5.01 41.018 0.28 7.77 5.42 12.64
12/12/2021 1:30:00 PM 5.05 41.09 0.28 7.78 5.24 12.69
12/12/2021 1:45:00 PM 5.1 41.18 0.28 7.79 5.18 12.71
12/12/2021 2:00:00 PM 5.15 41.27 0.286 7.8 5.29 12.71
12/12/2021 2:15:00 PM 5.17 41.306 0.286 7.81 5.15 12.72
12/12/2021 2:30:00 PM 5.2 41.36 0.286 7.8 4.99 12.7
12/12/2021 2:45:00 PM 5.21 41.378 0.283 7.82 5.07 12.71
12/12/2021 3:00:00 PM 5.21 41.378 0.286 7.82 4.9 12.69
12/12/2021 3:15:00 PM 5.21 41.378 0.286 7.82 4.98 12.66
12/12/2021 3:30:00 PM 5.2 41.36 0.288 7.81 4.87 12.63
12/12/2021 3:45:00 PM 5.18 41.324 0.287 7.81 4.57 12.58
12/12/2021 4:00:00 PM 5.15 41.27 0.288 7.81 4.47 12.55
12/12/2021 4:15:00 PM 5.13 41.234 0.288 7.81 4.58 12.48
12/12/2021 4:30:00 PM 5.1 41.18 0.287 7.81 4.56 12.42
12/12/2021 4:45:00 PM 5.07 41.126 0.285 7.8 4.37 12.35
12/12/2021 5:00:00 PM 5.04 41.072 0.284 7.79 4.6 12.25
12/12/2021 5:15:00 PM 5.01 41.018 0.282 7.77 4.46 12.19
12/12/2021 5:30:00 PM 4.97 40.946 0.275 7.76 4.49 12.12
12/12/2021 5:45:00 PM 4.95 40.91 0.274 7.75 4.58 12.04
12/12/2021 6:00:00 PM 4.92 40.856 0.271 7.74 4.51 11.97
12/12/2021 6:15:00 PM 4.88 40.784 0.295 7.72 4.48 11.91
12/12/2021 6:30:00 PM 4.85 40.73 0.275 7.72 6.5 11.83
12/12/2021 6:45:00 PM 4.82 40.676 0.291 7.7 4.49 11.79
12/12/2021 7:00:00 PM 4.79 40.622 0.283 7.7 4.5 11.74
12/12/2021 7:15:00 PM 4.75 40.55 0.285 7.54 4.48 11.69
12/12/2021 7:30:00 PM 4.7 40.46 0.286 7.69 4.54 11.66
12/12/2021 7:45:00 PM 4.65 40.37 0.286 7.69 4.36 11.62
12/12/2021 8:00:00 PM 4.61 40.298 0.29 7.68 4.22 11.6
12/12/2021 8:15:00 PM 4.55 40.19 0.299 7.68 4.32 11.56
12/12/2021 8:30:00 PM 4.51 40.118 0.29 7.66 4.45 11.52
12/12/2021 8:45:00 PM 4.45 40.01 0.291 7.67 4.32 11.5
12/12/2021 9:00:00 PM 4.41 39.938 0.291 7.65 4.31 11.46
12/12/2021 9:15:00 PM 4.35 39.83 0.303 7.64 5.26 11.44
12/12/2021 9:30:00 PM 4.32 39.776 0.291 7.64 4.12 11.43
12/12/2021 9:45:00 PM 4.27 39.686 0.306 7.62 4.73 11.41
12/12/2021 10:00:00 PM 4.24 39.632 0.306 7.61 4.31 11.39
12/12/2021 10:15:00 PM 4.2 39.56 0.304 7.62 4.32 11.39
12/12/2021 10:30:00 PM 4.17 39.506 0.296 7.63 3.99 11.39
12/12/2021 10:45:00 PM 4.13 39.434 0.3 7.63 4.28 11.39
12/12/2021 11:00:00 PM 4.09 39.362 0.296 7.63 4.69 11.4
12/12/2021 11:15:00 PM 4.06 39.308 0.305 7.63 4.3 11.39
12/12/2021 11:30:00 PM 4.02 39.236 0.303 7.63 4.32 11.4
12/12/2021 11:45:00 PM 3.99 39.182 0.312 7.62 4.21 11.41
12/13/2021 12:00:00 AM 3.96 39.128 0.309 7.63 4.84 11.42
12/13/2021 12:15:00 AM 3.93 39.074 0.309 7.62 4.74 11.42
12/13/2021 12:30:00 AM 3.89 39.002 0.217 7.62 4.18 11.44
12/13/2021 12:45:00 AM 3.86 38.948 0.293 7.63 4.04 11.44
12/13/2021 1:00:00 AM 3.83 38.894 0.294 7.63 4.19 11.45
12/13/2021 1:15:00 AM 3.8 38.84 0.296 7.63 3.82 11.47
12/13/2021 1:30:00 AM 3.79 38.822 0.297 7.63 3.78 11.46
12/13/2021 1:45:00 AM 3.76 38.768 0.32 7.63 3.92 11.48
12/13/2021 2:00:00 AM 3.75 38.75 0.316 7.63 3.8 11.48
12/13/2021 2:15:00 AM 3.74 38.732 0.315 7.64 3.98 11.49
12/13/2021 2:30:00 AM 3.73 38.714 0.314 7.64 4.17 11.49
12/13/2021 2:45:00 AM 3.71 38.678 0.314 7.64 3.95 11.5
12/13/2021 3:00:00 AM 3.71 38.678 0.318 7.57 5.21 11.5
12/13/2021 3:15:00 AM 3.71 38.678 0.311 7.64 3.77 11.51
12/13/2021 3:30:00 AM 3.69 38.642 0.309 7.63 3.57 11.51
12/13/2021 3:45:00 AM 3.69 38.642 0.301 7.63 3.91 11.52
12/13/2021 4:00:00 AM 3.69 38.642 0.303 7.64 3.93 11.52
12/13/2021 4:15:00 AM 3.7 38.66 0.317 7.64 3.73 11.52
12/13/2021 4:30:00 AM 3.7 38.66 0.313 7.64 3.67 11.52
12/13/2021 4:45:00 AM 3.69 38.642 0.328 7.64 3.6 11.52
12/13/2021 5:00:00 AM 3.7 38.66 0.32 7.64 3.62 11.51
12/13/2021 5:15:00 AM 3.7 38.66 0.32 7.65 3.62 11.51
12/13/2021 5:30:00 AM 3.71 38.678 0.325 7.64 3.57 11.51
12/13/2021 5:45:00 AM 3.71 38.678 0.329 7.63 5.1 11.51
12/13/2021 6:00:00 AM 3.71 38.678 0.321 7.65 3.72 11.52
12/13/2021 6:15:00 AM 3.72 38.696 0.319 7.64 3.5 11.51
12/13/2021 6:30:00 AM 3.73 38.714 0.321 7.64 3.57 11.52
12/13/2021 6:45:00 AM 3.73 38.714 0.324 7.64 3.81 11.52
12/13/2021 7:00:00 AM 3.73 38.714 0.317 7.63 3.47 11.51
12/13/2021 7:15:00 AM 3.76 38.768 0.316 7.64 3.4 11.51
12/13/2021 7:30:00 AM 3.75 38.75 0.314 7.63 3.26 11.51
12/13/2021 7:45:00 AM 3.76 38.768 0.313 7.59 3.53 11.52
12/13/2021 8:00:00 AM 3.76 38.768 0.317 7.62 3.79 11.53
12/13/2021 8:15:00 AM 3.78 38.804 0.319 7.61 4.68 11.55
12/13/2021 8:30:00 AM 3.8 38.84 0.314 7.59 3.92 11.6
12/13/2021 8:45:00 AM 3.82 38.876 0.306 7.62 4.1 11.65
12/13/2021 9:00:00 AM 3.85 38.93 0.314 7.63 3.99 11.71
12/13/2021 9:15:00 AM 3.87 38.966 0.31 7.63 5.33 11.78
12/13/2021 9:30:00 AM 3.88 38.984 0.307 7.64 3.3 11.82
12/13/2021 9:45:00 AM 3.92 39.056 0.313 7.65 3.38 11.88
12/13/2021 10:00:00 AM 3.96 39.128 0.312 7.67 3.11 11.95
12/13/2021 10:15:00 AM 4 39.2 0.313 7.68 3.09 12.03
12/13/2021 10:30:00 AM 4.05 39.29 0.321 7.67 3.19 12.1
12/13/2021 10:45:00 AM 4.12 39.416 0.315 7.7 3.08 12.16
12/13/2021 11:00:00 AM 4.19 39.542 0.325 7.71 3.03 12.23
12/13/2021 11:15:00 AM 4.28 39.704 0.318 7.73 3.09 12.29
12/13/2021 11:30:00 AM 4.36 39.848 0.321 7.74 2.97 12.36
12/13/2021 11:45:00 AM 4.46 40.028 0.32 7.76 2.91 12.42
12/13/2021 12:00:00 PM 4.55 40.19 0.329 7.76 2.87 12.49
12/13/2021 12:15:00 PM 4.65 40.37 0.322 7.78 2.96 12.54
12/13/2021 12:30:00 PM 4.73 40.514 0.319 7.79 3.01 12.58
12/13/2021 12:45:00 PM 4.82 40.676 0.33 7.81 3.05 12.62
12/13/2021 1:00:00 PM 4.9 40.82 0.331 7.8 3.66 12.68
12/13/2021 1:15:00 PM 4.98 40.964 0.326 7.82 2.92 12.71
12/13/2021 1:30:00 PM 5.06 41.108 0.305 7.81 3.94 12.74
12/13/2021 1:45:00 PM 5.14 41.252 0.328 7.84 2.87 12.75
12/13/2021 2:00:00 PM 5.2 41.36 0.32 7.85 2.95 12.74
12/13/2021 2:15:00 PM 5.26 41.468 0.32 7.85 2.82 12.76
12/13/2021 2:30:00 PM 5.31 41.558 0.317 7.85 2.91 12.74
12/13/2021 2:45:00 PM 5.35 41.63 0.323 7.85 2.91 12.73
12/13/2021 3:00:00 PM 5.38 41.684 0.315 7.85 2.99 12.69
12/13/2021 3:15:00 PM 5.39 41.702 0.3 7.86 2.79 12.66
12/13/2021 3:30:00 PM 5.41 41.738 0.323 7.85 2.86 12.61
12/13/2021 3:45:00 PM 5.4 41.72 0.311 7.85 4.67 12.57
12/13/2021 4:00:00 PM 5.4 41.72 0.301 7.85 2.66 12.51
12/13/2021 4:15:00 PM 5.38 41.684 0.302 7.85 2.76 12.45
12/13/2021 4:30:00 PM 5.37 41.666 0.317 7.85 2.75 12.39
12/13/2021 4:45:00 PM 5.35 41.63 0.298 7.83 3.46 12.3
12/13/2021 5:00:00 PM 5.32 41.576 0.314 7.82 2.77 12.2
12/13/2021 5:15:00 PM 5.3 41.54 0.312 7.82 2.84 12.12
12/13/2021 5:30:00 PM 5.27 41.486 0.191 7.79 3.62 12.05
12/13/2021 5:45:00 PM 5.25 41.45 0.308 7.79 3.75 11.98
12/13/2021 6:00:00 PM 5.21 41.378 0.304 7.77 2.93 11.91
12/13/2021 6:15:00 PM 5.18 41.324 0.308 7.75 2.99 11.83
12/13/2021 6:30:00 PM 5.14 41.252 0.3 7.75 2.97 11.78
12/13/2021 6:45:00 PM 5.11 41.198 0.305 7.74 3.05 11.73
12/13/2021 7:00:00 PM 5.07 41.126 0.305 7.73 4.54 11.68
12/13/2021 7:15:00 PM 5.03 41.054 0.307 7.73 3.07 11.63
12/13/2021 7:30:00 PM 4.99 40.982 0.309 7.71 3.4 11.6
12/13/2021 7:45:00 PM 4.95 40.91 0.229 7.71 4.12 11.55
12/13/2021 8:00:00 PM 4.92 40.856 0.307 7.71 3.64 11.5
12/13/2021 8:15:00 PM 4.87 40.766 0.317 7.71 3.9 11.46
12/13/2021 8:30:00 PM 4.84 40.712 0.317 7.71 4.37 11.43
12/13/2021 8:45:00 PM 4.8 40.64 0.317 7.71 4.39 11.4
12/13/2021 9:00:00 PM 4.77 40.586 0.322 7.7 4.56 11.36
12/13/2021 9:15:00 PM 4.72 40.496 0.327 7.7 4.36 11.34
12/13/2021 9:30:00 PM 4.69 40.442 0.326 7.7 3.71 11.31
12/13/2021 9:45:00 PM 4.66 40.388 0.327 7.69 3.8 11.29
12/13/2021 10:00:00 PM 4.63 40.334 0.327 7.7 3.5 11.28
12/13/2021 10:15:00 PM 4.6 40.28 0.312 7.67 4.14 11.27
12/13/2021 10:30:00 PM 4.57 40.226 0.314 7.69 3.15 11.26
12/13/2021 10:45:00 PM 4.54 40.172 0.313 7.68 2.94 11.26
12/13/2021 11:00:00 PM 4.51 40.118 0.293 7.68 4.09 11.25
12/13/2021 11:15:00 PM 4.48 40.064 0.313 7.67 4.85 11.24
12/13/2021 11:30:00 PM 4.45 40.01 0.309 7.67 2.87 11.25
12/13/2021 11:45:00 PM 4.41 39.938 0.313 7.67 2.81 11.26
12/14/2021 12:00:00 AM 4.38 39.884 0.33 7.66 3.76 11.25
12/14/2021 12:15:00 AM 4.34 39.812 0.177 7.63 75.37 11.27
12/14/2021 12:30:00 AM 4.3 39.74 0.334 7.66 4.75 11.27
12/14/2021 12:45:00 AM 4.26 39.668 0.325 7.67 3.08 11.29
12/14/2021 1:00:00 AM 4.21 39.578 0.21 7.65 4.7 11.29
12/14/2021 1:15:00 AM 4.17 39.506 0.325 7.67 3.38 11.3
12/14/2021 1:30:00 AM 4.12 39.416 0.331 7.6 5.21 11.33
12/14/2021 1:45:00 AM 4.06 39.308 0.332 7.66 3.83 11.34
12/14/2021 2:00:00 AM 4.01 39.218 0.331 7.63 3.54 11.37
12/14/2021 2:15:00 AM 3.96 39.128 0.325 7.67 2.8 11.38
12/14/2021 2:30:00 AM 3.91 39.038 0.326 7.64 2.82 11.39
12/14/2021 2:45:00 AM 3.86 38.948 0.332 7.64 3.56 11.4
12/14/2021 3:00:00 AM 3.82 38.876 0.343 7.65 2.94 11.41
12/14/2021 3:15:00 AM 3.77 38.786 0.329 7.65 3.01 11.42
12/14/2021 3:30:00 AM 3.73 38.714 0.336 7.64 3.55 11.44
12/14/2021 3:45:00 AM 3.69 38.642 0.341 7.65 2.82 11.46
12/14/2021 4:00:00 AM 3.65 38.57 0.335 7.62 4.24 11.47
12/14/2021 4:15:00 AM 3.62 38.516 0.332 7.65 3.74 11.49
12/14/2021 4:30:00 AM 3.59 38.462 0.331 7.65 3.79 11.48
12/14/2021 4:45:00 AM 3.55 38.39 0.337 7.65 3.3 11.5
12/14/2021 5:00:00 AM 3.52 38.336 0.346 7.64 3.06 11.52
12/14/2021 5:15:00 AM 3.49 38.282 0.327 7.64 3.13 11.53
12/14/2021 5:30:00 AM 3.45 38.21 0.331 7.64 3.69 11.55
12/14/2021 5:45:00 AM 3.42 38.156 0.322 7.62 3.21 11.55
12/14/2021 6:00:00 AM 3.38 38.084 0.32 7.62 3.39 11.57
12/14/2021 6:15:00 AM 3.35 38.03 0.312 7.61 3.39 11.59
12/14/2021 6:30:00 AM 3.3 37.94 0.303 7.61 3.69 11.59
12/14/2021 6:45:00 AM 3.29 37.922 0.304 7.62 5.2 11.61
12/14/2021 7:00:00 AM 3.28 37.904 0.306 7.61 4.45 11.63
12/14/2021 7:15:00 AM 3.28 37.904 0.334 7.61 3.77 11.62
12/14/2021 7:30:00 AM 3.27 37.886 0.31 7.63 3.03 11.65
12/14/2021 7:45:00 AM 3.27 37.886 0.312 7.63 3.6 11.67
12/14/2021 8:00:00 AM 3.29 37.922 0.321 7.62 3.93 11.7
12/14/2021 8:15:00 AM 3.31 37.958 0.332 7.61 3.17 11.73
12/14/2021 8:30:00 AM 3.32 37.976 0.333 7.63 3.6 11.8
12/14/2021 8:45:00 AM 3.35 38.03 0.335 7.63 3.38 11.84
12/14/2021 9:00:00 AM 3.38 38.084 0.316 7.64 4.21 11.92
12/14/2021 9:15:00 AM 3.42 38.156 0.329 7.66 2.66 11.96
12/14/2021 9:30:00 AM 3.46 38.228 0.343 7.67 2.71 12.06
12/14/2021 9:45:00 AM 3.51 38.318 0.33 7.68 2.71 12.12
12/14/2021 10:00:00 AM 3.58 38.444 0.331 7.7 2.68 12.21
12/14/2021 10:15:00 AM 3.63 38.534 0.333 7.71 2.77 12.27
12/14/2021 10:30:00 AM 3.69 38.642 0.34 7.72 2.72 12.34
12/14/2021 10:45:00 AM 3.75 38.75 0.339 7.73 2.73 12.43
12/14/2021 11:00:00 AM 3.79 38.822 0.331 7.74 2.81 12.47
12/14/2021 11:15:00 AM 3.86 38.948 0.323 7.75 2.64 12.52
12/14/2021 11:30:00 AM 3.96 39.128 0.32 7.75 2.71 12.59
12/14/2021 11:45:00 AM 4.04 39.272 0.336 7.76 2.64 12.63
12/14/2021 12:00:00 PM 4.14 39.452 0.332 7.77 2.67 12.7
12/14/2021 12:15:00 PM 4.25 39.65 0.326 7.77 3.41 12.76
12/14/2021 12:30:00 PM 4.36 39.848 0.329 7.79 2.65 12.8
12/14/2021 12:45:00 PM 4.46 40.028 0.318 7.8 2.74 12.85
12/14/2021 1:00:00 PM 4.56 40.208 0.336 7.82 2.72 12.86
12/14/2021 1:15:00 PM 4.65 40.37 0.339 7.82 3.65 12.9
12/14/2021 1:30:00 PM 4.73 40.514 0.338 7.83 2.64 12.91
12/14/2021 1:45:00 PM 4.81 40.658 0.338 7.83 3.38 12.94
12/14/2021 2:00:00 PM 4.87 40.766 0.313 7.84 3.36 12.96
12/14/2021 2:15:00 PM 4.93 40.874 0.29 7.77 3.6 12.95
12/14/2021 2:30:00 PM 4.98 40.964 0.331 7.86 2.59 12.93
12/14/2021 2:45:00 PM 5.01 41.018 0.347 7.85 3.29 12.93
12/14/2021 3:00:00 PM 5.03 41.054 0.257 7.85 3.44 12.9
12/14/2021 3:15:00 PM 5.05 41.09 0.332 7.87 2.55 12.88
12/14/2021 3:30:00 PM 5.07 41.126 0.339 7.86 2.54 12.82
12/14/2021 3:45:00 PM 5.09 41.162 0.339 7.86 2.52 12.78
12/14/2021 4:00:00 PM 5.09 41.162 0.331 7.86 2.64 12.72
12/14/2021 4:15:00 PM 5.09 41.162 0.332 7.86 2.6 12.63
12/14/2021 4:30:00 PM 5.08 41.144 0.33 7.85 2.61 12.55
12/14/2021 4:45:00 PM 5.07 41.126 0.313 7.84 2.63 12.48
12/14/2021 5:00:00 PM 5.04 41.072 0.313 7.84 2.58 12.39
12/14/2021 5:15:00 PM 5.02 41.036 0.312 7.83 2.64 12.3
12/14/2021 5:30:00 PM 4.98 40.964 0.312 7.82 2.83 12.22
12/14/2021 5:45:00 PM 4.95 40.91 0.298 7.81 4.1 12.17
12/14/2021 6:00:00 PM 4.92 40.856 0.333 7.8 2.7 12.1
12/14/2021 6:15:00 PM 4.87 40.766 0.328 7.79 2.78 12.04
12/14/2021 6:30:00 PM 4.83 40.694 0.308 7.79 2.77 11.97
12/14/2021 6:45:00 PM 4.79 40.622 0.335 7.76 3.03 11.93
12/14/2021 7:00:00 PM 4.75 40.55 0.326 7.76 2.68 11.88
12/14/2021 7:15:00 PM 4.71 40.478 0.326 7.75 2.8 11.83
12/14/2021 7:30:00 PM 4.68 40.424 0.308 7.74 2.86 11.79
12/14/2021 7:45:00 PM 4.63 40.334 0.31 7.74 3.25 11.74
12/14/2021 8:00:00 PM 4.59 40.262 0.32 7.72 4.5 11.71
12/14/2021 8:15:00 PM 4.57 40.226 0.313 7.73 4.37 11.67
12/14/2021 8:30:00 PM 4.54 40.172 0.332 7.72 4.46 11.62
12/14/2021 8:45:00 PM 4.49 40.082 0.334 7.72 4.21 11.6
12/14/2021 9:00:00 PM 4.45 40.01 0.332 7.72 3.9 11.56
12/14/2021 9:15:00 PM 4.41 39.938 0.332 7.71 3.59 11.55
12/14/2021 9:30:00 PM 4.37 39.866 0.315 7.7 3.34 11.53
12/14/2021 9:45:00 PM 4.35 39.83 0.336 7.7 3.01 11.51
12/14/2021 10:00:00 PM 4.31 39.758 0.348 7.68 2.98 11.5
12/14/2021 10:15:00 PM 4.27 39.686 0.331 7.69 3.07 11.48
12/14/2021 10:30:00 PM 4.25 39.65 0.321 7.68 3.24 11.46
12/14/2021 10:45:00 PM 4.22 39.596 0.328 7.68 3.01 11.46
12/14/2021 11:00:00 PM 4.19 39.542 0.337 7.67 3.24 11.44
12/14/2021 11:15:00 PM 4.16 39.488 0.329 7.66 3.1 11.45
12/14/2021 11:30:00 PM 4.13 39.434 0.326 7.66 2.98 11.43
12/14/2021 11:45:00 PM 4.1 39.38 0.336 7.64 3.68 11.44
12/15/2021 12:00:00 AM 4.19 39.542 0.337 7.64 3.01 11.36
12/15/2021 12:15:00 AM 4.05 39.29 0.189 7.57 2.71 11.41
12/15/2021 12:30:00 AM 4.1 39.38 0.331 7.63 3.31 11.34
12/15/2021 12:45:00 AM 4.02 39.236 0.329 7.64 2.85 11.41
12/15/2021 1:00:00 AM 3.95 39.11 0.344 7.63 3.32 11.42
12/15/2021 1:15:00 AM 3.97 39.146 0.333 7.62 3.1 11.4
12/15/2021 1:30:00 AM 3.96 39.128 0.317 7.62 2.97 11.38
12/15/2021 1:45:00 AM 3.93 39.074 0.341 7.63 3.32 11.42
12/15/2021 2:00:00 AM 3.82 38.876 0.333 7.63 2.98 11.45
12/15/2021 2:15:00 AM 3.77 38.786 0.334 7.64 3.36 11.47
12/15/2021 2:30:00 AM 3.75 38.75 0.338 7.62 4.01 11.48
12/15/2021 2:45:00 AM 3.7 38.66 0.327 7.64 2.95 11.49
12/15/2021 3:00:00 AM 3.65 38.57 0.343 7.61 4.12 11.52
12/15/2021 3:15:00 AM 3.61 38.498 0.335 7.63 2.93 11.53
12/15/2021 3:30:00 AM 3.58 38.444 0.34 7.63 3.49 11.54
12/15/2021 3:45:00 AM 3.54 38.372 0.349 7.63 3.7 11.57
12/15/2021 4:00:00 AM 3.5 38.3 0.338 7.64 3.12 11.57
12/15/2021 4:15:00 AM 3.48 38.264 0.345 7.64 3.52 11.59
12/15/2021 4:30:00 AM 3.45 38.21 0.343 7.65 2.91 11.6
12/15/2021 4:45:00 AM 3.44 38.192 0.345 7.63 3.67 11.59
12/15/2021 5:00:00 AM 3.4 38.12 0.356 7.63 3.82 11.6
12/15/2021 5:15:00 AM 3.37 38.066 0.354 7.63 3.98 11.62
12/15/2021 5:30:00 AM 3.34 38.012 0.349 7.63 5.31 11.65
12/15/2021 5:45:00 AM 3.32 37.976 0.349 7.63 5.34 11.64
12/15/2021 6:00:00 AM 3.3 37.94 0.354 7.64 3.09 11.65
12/15/2021 6:15:00 AM 3.28 37.904 0.354 7.63 3.74 11.67
12/15/2021 6:30:00 AM 3.27 37.886 0.351 7.63 3.5 11.65
12/15/2021 6:45:00 AM 3.26 37.868 0.35 7.65 2.76 11.67
12/15/2021 7:00:00 AM 3.25 37.85 0.35 7.63 3.73 11.69
12/15/2021 7:15:00 AM 3.23 37.814 0.364 7.63 4.08 11.69
12/15/2021 7:30:00 AM 3.23 37.814 0.343 7.65 3.57 11.7
12/15/2021 7:45:00 AM 3.22 37.796 0.349 7.64 3.78 11.73
12/15/2021 8:00:00 AM 3.22 37.796 0.361 7.63 3.42 11.75
12/15/2021 8:15:00 AM 3.22 37.796 0.352 7.65 3.22 11.77
12/15/2021 8:30:00 AM 3.22 37.796 0.359 7.65 3.6 11.83
12/15/2021 8:45:00 AM 3.23 37.814 0.349 7.66 3.57 11.88
12/15/2021 9:00:00 AM 3.24 37.832 0.352 7.66 3.39 11.95
12/15/2021 9:15:00 AM 3.27 37.886 0.239 7.66 2.68 12.03
12/15/2021 9:30:00 AM 3.33 37.994 0.343 7.68 2.69 12.08
12/15/2021 9:45:00 AM 3.35 38.03 0.352 7.69 4.11 12.16
12/15/2021 10:00:00 AM 3.4 38.12 0.337 7.69 4.14 12.2
12/15/2021 10:15:00 AM 3.43 38.174 0.342 7.7 2.67 12.25
12/15/2021 10:30:00 AM 3.51 38.318 0.272 7.71 3.27 12.36
12/15/2021 10:45:00 AM 3.57 38.426 0.348 7.71 3.68 12.42
12/15/2021 11:00:00 AM 3.62 38.516 0.347 7.72 3.1 12.42
12/15/2021 11:15:00 AM 3.68 38.624 0.347 7.73 2.67 12.41
12/15/2021 11:30:00 AM 3.72 38.696 0.342 7.74 3.49 12.51
12/15/2021 11:45:00 AM 3.78 38.804 0.342 7.73 3.37 12.58
12/15/2021 12:00:00 PM 3.84 38.912 0.337 7.74 3.35 12.5
12/15/2021 12:15:00 PM 3.91 39.038 0.337 7.74 2.74 12.5
12/15/2021 12:30:00 PM 3.88 38.984 0.345 7.72 3.94 12.54
12/15/2021 12:45:00 PM 3.92 39.056 0.343 7.76 2.86 12.55
12/15/2021 1:00:00 PM 3.95 39.11 0.344 7.74 5.2 12.54
12/15/2021 1:15:00 PM 3.97 39.146 0.34 7.74 3.39 12.56
12/15/2021 1:30:00 PM 4.01 39.218 0.219 7.75 4.2 12.52
12/15/2021 1:45:00 PM 4.06 39.308 0.224 7.77 2.91 12.51
12/15/2021 2:00:00 PM 4.09 39.362 0.331 7.76 2.77 12.47
12/15/2021 2:15:00 PM 4.11 39.398 0.331 7.77 3.08 12.41
12/15/2021 2:30:00 PM 4.13 39.434 0.327 7.77 2.83 12.43
12/15/2021 2:45:00 PM 4.17 39.506 0.335 7.76 3 12.38
12/15/2021 3:00:00 PM 4.22 39.596 0.329 7.77 3.07 12.33
12/15/2021 3:15:00 PM 4.28 39.704 0.289 7.74 3.07 12.28
12/15/2021 3:30:00 PM 4.29 39.722 0.342 7.75 2.88 12.22
12/15/2021 3:45:00 PM 4.33 39.794 0.349 7.75 3.16 12.18
12/15/2021 4:00:00 PM 4.31 39.758 0.348 7.75 3.19 12.13
12/15/2021 4:15:00 PM 4.33 39.794 0.203 7.73 4.73 12.1
12/15/2021 4:30:00 PM 4.37 39.866 0.349 7.74 3.75 12.03
12/15/2021 4:45:00 PM 4.37 39.866 0.349 7.74 3.87 12.01
12/15/2021 5:00:00 PM 4.41 39.938 0.349 7.73 4.42 11.92
12/15/2021 5:15:00 PM 4.42 39.956 0.349 7.68 4.98 11.88
12/15/2021 5:30:00 PM 4.46 40.028 0.357 7.7 5.93 11.8
12/15/2021 5:45:00 PM 4.46 40.028 0.346 7.71 4.74 11.76
12/15/2021 6:00:00 PM 4.48 40.064 0.345 7.7 5.8 11.73
12/15/2021 6:15:00 PM 4.5 40.1 0.35 7.7 4.5 11.69
12/15/2021 6:30:00 PM 4.53 40.154 0.34 7.69 4.26 11.66
12/15/2021 6:45:00 PM 4.56 40.208 0.349 7.69 5.35 11.61
12/15/2021 7:00:00 PM 4.58 40.244 0.338 7.69 3.81 11.59
12/15/2021 7:15:00 PM 4.61 40.298 0.351 7.69 3.5 11.55
12/15/2021 7:30:00 PM 4.63 40.334 0.332 7.69 3.54 11.54
12/15/2021 7:45:00 PM 4.66 40.388 0.345 7.69 3.29 11.51
12/15/2021 8:00:00 PM 4.68 40.424 0.34 7.69 4.28 11.48
12/15/2021 8:15:00 PM 4.71 40.478 0.336 7.68 3.71 11.46
12/15/2021 8:30:00 PM 4.74 40.532 0.351 7.67 3.69 11.44
12/15/2021 8:45:00 PM 4.75 40.55 0.352 7.66 4.45 11.41
12/15/2021 9:00:00 PM 4.77 40.586 0.346 7.7 3.28 11.4
12/15/2021 9:15:00 PM 4.78 40.604 0.338 7.69 3.3 11.39
12/15/2021 9:30:00 PM 4.8 40.64 0.344 7.68 3.71 11.38
12/15/2021 9:45:00 PM 4.8 40.64 0.343 7.68 3.38 11.38
12/15/2021 10:00:00 PM 4.81 40.658 0.337 7.68 3.52 11.36
12/15/2021 10:15:00 PM 4.8 40.64 0.352 7.67 5.11 11.36
12/15/2021 10:30:00 PM 4.8 40.64 0.348 7.68 3.69 11.36
12/15/2021 10:45:00 PM 4.79 40.622 0.347 7.67 3.64 11.36
12/15/2021 11:00:00 PM 4.76 40.568 0.335 7.62 4.31 11.37
12/15/2021 11:15:00 PM 4.76 40.568 0.339 7.66 3.73 11.37
12/15/2021 11:30:00 PM 4.74 40.532 0.333 7.65 4.59 11.37
12/15/2021 11:45:00 PM 4.72 40.496 0.324 7.65 3.84 11.4
12/16/2021 12:00:00 AM 4.71 40.478 0.32 7.63 5.26 11.38
12/16/2021 12:15:00 AM 4.7 40.46 0.312 7.63 3.87 11.38
12/16/2021 12:30:00 AM 4.68 40.424 0.319 7.63 4.74 11.38
12/16/2021 12:45:00 AM 4.69 40.442 0.311 7.63 5.38 11.38
12/16/2021 1:00:00 AM 4.67 40.406 0.305 7.63 5.32 11.38
12/16/2021 1:15:00 AM 4.66 40.388 0.307 7.63 4.64 11.38
12/16/2021 1:30:00 AM 4.65 40.37 0.301 7.62 4.29 11.39
12/16/2021 1:45:00 AM 4.65 40.37 0.298 7.62 4.24 11.39
12/16/2021 2:00:00 AM 4.64 40.352 0.296 7.62 4.49 11.38
12/16/2021 2:15:00 AM 4.65 40.37 0.297 7.62 4.84 11.37
12/16/2021 2:30:00 AM 4.64 40.352 0.307 7.61 6.02 11.38
12/16/2021 2:45:00 AM 4.66 40.388 0.298 7.61 4.87 11.37
12/16/2021 3:00:00 AM 4.66 40.388 0.29 7.6 5.03 11.38
12/16/2021 3:15:00 AM 4.66 40.388 0.301 7.61 4.95 11.38
12/16/2021 3:30:00 AM 4.66 40.388 0.291 7.61 5.36 11.37
12/16/2021 3:45:00 AM 4.68 40.424 0.292 7.61 5.08 11.36
12/16/2021 4:00:00 AM 4.69 40.442 0.298 7.6 5.77 11.35
12/16/2021 4:15:00 AM 4.71 40.478 0.288 7.6 5.43 11.33
12/16/2021 4:30:00 AM 4.72 40.496 0.29 7.59 5.84 11.33
12/16/2021 4:45:00 AM 4.76 40.568 0.293 7.6 5.36 11.32
12/16/2021 5:00:00 AM 4.75 40.55 0.3 7.6 9.83 11.32
12/16/2021 5:15:00 AM 4.76 40.568 0.298 7.6 5.34 11.31
12/16/2021 5:30:00 AM 4.78 40.604 0.291 7.6 5.53 11.3
12/16/2021 5:45:00 AM 4.79 40.622 0.302 7.58 5.63 11.29
12/16/2021 6:00:00 AM 4.8 40.64 0.292 7.59 6.04 11.28
12/16/2021 6:15:00 AM 4.81 40.658 0.294 7.59 5.23 11.27
12/16/2021 6:30:00 AM 4.82 40.676 0.287 7.59 5.25 11.27
12/16/2021 6:45:00 AM 4.84 40.712 0.285 7.6 5.35 11.25
12/16/2021 7:00:00 AM 4.86 40.748 0.289 7.58 5.83 11.25
12/16/2021 7:15:00 AM 4.87 40.766 0.286 7.59 6.05 11.25
12/16/2021 7:30:00 AM 4.88 40.784 0.287 7.59 5.4 11.24
12/16/2021 7:45:00 AM 4.89 40.802 0.284 7.59 5.06 11.23
12/16/2021 8:00:00 AM 4.9 40.82 0.287 7.58 4.69 11.24
12/16/2021 8:15:00 AM 4.92 40.856 0.29 7.6 5.43 11.26
12/16/2021 8:30:00 AM 4.93 40.874 0.293 7.59 5.3 11.3
12/16/2021 8:45:00 AM 4.95 40.91 0.288 7.6 4.31 11.32
12/16/2021 9:00:00 AM 4.97 40.946 0.287 7.6 3.98 11.35
12/16/2021 9:15:00 AM 4.99 40.982 0.283 7.61 4.04 11.41
12/16/2021 9:30:00 AM 5.04 41.072 0.283 7.62 4.11 11.48
12/16/2021 9:45:00 AM 5.09 41.162 0.282 7.63 3.92 11.56
12/16/2021 10:00:00 AM 5.16 41.288 0.282 7.64 4.11 11.63
12/16/2021 10:15:00 AM 5.23 41.414 0.289 7.64 4.12 11.73
12/16/2021 10:30:00 AM 5.31 41.558 0.284 7.66 3.82 11.79
12/16/2021 10:45:00 AM 5.39 41.702 0.286 7.67 3.73 11.88
12/16/2021 11:00:00 AM 5.48 41.864 0.286 7.68 3.68 11.95
12/16/2021 11:15:00 AM 5.56 42.008 0.286 7.7 3.66 12
12/16/2021 11:30:00 AM 5.65 42.17 0.292 7.71 3.52 12.08
12/16/2021 11:45:00 AM 5.76 42.368 0.289 7.72 3.59 12.16
12/16/2021 12:00:00 PM 5.87 42.566 0.3 7.7 4.85 12.23
12/16/2021 12:15:00 PM 5.98 42.764 0.297 7.74 4.57 12.3
12/16/2021 12:30:00 PM 6.1 42.98 0.29 7.66 3.55 12.36
12/16/2021 12:45:00 PM 6.22 43.196 0.235 7.76 5 12.44
12/16/2021 1:00:00 PM 6.35 43.43 0.293 7.8 5 12.47
12/16/2021 1:15:00 PM 6.47 43.646 0.291 7.81 4.99 12.5
12/16/2021 1:30:00 PM 6.58 43.844 0.29 7.8 4.64 12.51
12/16/2021 1:45:00 PM 6.68 44.024 0.289 7.81 5.2 12.5
12/16/2021 2:00:00 PM 6.77 44.186 0.294 7.83 4.09 12.49
12/16/2021 2:15:00 PM 6.85 44.33 0.291 7.84 4.25 12.46
12/16/2021 2:30:00 PM 6.92 44.456 0.288 7.84 4.8 12.44
12/16/2021 2:45:00 PM 6.97 44.546 0.294 7.85 4.29 12.38
12/16/2021 3:00:00 PM 7.03 44.654 0.299 7.85 4.64 12.34
12/16/2021 3:15:00 PM 7.09 44.762 0.295 7.85 4.35 12.33
12/16/2021 3:30:00 PM 7.14 44.852 0.302 7.84 6.8 12.27
12/16/2021 3:45:00 PM 7.17 44.906 0.296 7.85 4.11 12.19
12/16/2021 4:00:00 PM 7.2 44.96 0.294 7.83 3.71 12.09
12/16/2021 4:15:00 PM 7.22 44.996 0.292 7.82 4.66 12.02
12/16/2021 4:30:00 PM 7.24 45.032 0.298 7.82 5.44 11.92
12/16/2021 4:45:00 PM 7.26 45.068 0.295 7.8 3.84 11.81
12/16/2021 5:00:00 PM 7.26 45.068 0.293 7.8 4.31 11.72
12/16/2021 5:15:00 PM 7.28 45.104 0.298 7.79 5.13 11.61
12/16/2021 5:30:00 PM 7.29 45.122 0.306 7.77 4.35 11.51
12/16/2021 5:45:00 PM 7.32 45.176 0.311 7.77 4.35 11.42
12/16/2021 6:00:00 PM 7.35 45.23 0.302 7.77 3.68 11.32
12/16/2021 6:15:00 PM 7.37 45.266 0.304 7.76 3.89 11.24
12/16/2021 6:30:00 PM 7.38 45.284 0.31 7.75 3.97 11.16
12/16/2021 6:45:00 PM 7.41 45.338 0.305 7.74 4.02 11.05
12/16/2021 7:00:00 PM 7.43 45.374 0.305 7.72 3.99 10.98
12/16/2021 7:15:00 PM 7.43 45.374 0.315 7.71 5.31 10.93
12/16/2021 7:30:00 PM 7.45 45.41 0.313 7.71 6.4 10.85
12/16/2021 7:45:00 PM 7.46 45.428 0.309 7.7 3.85 10.78
12/16/2021 8:00:00 PM 7.46 45.428 0.312 7.67 4.18 10.73
12/16/2021 8:15:00 PM 7.47 45.446 0.311 7.68 4.39 10.66
12/16/2021 8:30:00 PM 7.48 45.464 0.311 7.67 3.71 10.61
12/16/2021 8:45:00 PM 7.49 45.482 0.307 7.67 3.65 10.57
12/16/2021 9:00:00 PM 7.51 45.518 0.303 7.66 3.71 10.51
12/16/2021 9:15:00 PM 7.52 45.536 0.303 7.66 3.6 10.47
12/16/2021 9:30:00 PM 7.54 45.572 0.311 7.64 3.77 10.45
12/16/2021 9:45:00 PM 7.56 45.608 0.305 7.64 3.62 10.4
12/16/2021 10:00:00 PM 7.58 45.644 0.316 7.64 3.61 10.39
12/16/2021 10:15:00 PM 7.6 45.68 0.308 7.63 3.68 10.35
12/16/2021 10:30:00 PM 7.62 45.716 0.315 7.64 3.61 10.34
12/16/2021 10:45:00 PM 7.64 45.752 0.315 7.63 3.57 10.32
12/16/2021 11:00:00 PM 7.65 45.77 0.318 7.62 4.06 10.3
12/16/2021 11:15:00 PM 7.68 45.824 0.311 7.62 3.71 10.26
12/16/2021 11:30:00 PM 7.69 45.842 0.32 7.63 4.01 10.26
12/16/2021 11:45:00 PM 7.7 45.86 0.321 7.63 5.16 10.25
12/17/2021 12:00:00 AM 7.69 45.842 0.319 7.61 5.08 10.24
12/17/2021 12:15:00 AM 7.67 45.806 0.296 7.61 4.81 10.23
12/17/2021 12:30:00 AM 7.65 45.77 0.32 7.62 5.69 10.24
12/17/2021 12:45:00 AM 7.62 45.716 0.312 7.62 3.48 10.22
12/17/2021 1:00:00 AM 7.59 45.662 0.322 7.6 4.26 10.23
12/17/2021 1:15:00 AM 7.55 45.59 0.317 7.62 3.4 10.23
12/17/2021 1:30:00 AM 7.51 45.518 0.319 7.6 4.27 10.23
12/17/2021 1:45:00 AM 7.47 45.446 0.312 7.61 4.4 10.22
12/17/2021 2:00:00 AM 7.43 45.374 0.32 7.61 4.05 10.21
12/17/2021 2:15:00 AM 7.39 45.302 0.314 7.6 3.48 10.23
12/17/2021 2:30:00 AM 7.35 45.23 0.216 7.59 4.43 10.24
12/17/2021 2:45:00 AM 7.31 45.158 0.31 7.61 3.62 10.24
12/17/2021 3:00:00 AM 7.26 45.068 0.31 7.61 3.67 10.23
12/17/2021 3:15:00 AM 7.21 44.978 0.311 7.59 3.81 10.24
12/17/2021 3:30:00 AM 7.16 44.888 0.317 7.59 4.49 10.25
12/17/2021 3:45:00 AM 7.11 44.798 0.316 7.59 4.49 10.27
12/17/2021 4:00:00 AM 7.04 44.672 0.31 7.61 3.79 10.27
12/17/2021 4:15:00 AM 6.98 44.564 0.199 7.55 3.75 10.29
12/17/2021 4:30:00 AM 6.91 44.438 0.195 7.55 3.76 10.31
12/17/2021 4:45:00 AM 6.85 44.33 0.311 7.6 4.02 10.32
12/17/2021 5:00:00 AM 6.77 44.186 0.18 7.6 4.41 10.34
12/17/2021 5:15:00 AM 6.71 44.078 0.317 7.6 5.29 10.36
12/17/2021 5:30:00 AM 6.64 43.952 0.311 7.6 3.92 10.37
12/17/2021 5:45:00 AM 6.57 43.826 0.311 7.6 4.23 10.39
12/17/2021 6:00:00 AM 6.51 43.718 0.315 7.59 4.65 10.41
12/17/2021 6:15:00 AM 6.44 43.592 0.312 7.6 4.97 10.42
12/17/2021 6:30:00 AM 6.37 43.466 0.308 7.6 3.6 10.43
12/17/2021 6:45:00 AM 6.32 43.376 0.313 7.58 4.45 10.45
12/17/2021 7:00:00 AM 6.27 43.286 0.307 7.6 4.06 10.47
12/17/2021 7:15:00 AM 6.22 43.196 0.305 7.6 4.22 10.47
12/17/2021 7:30:00 AM 6.17 43.106 0.309 7.58 5.37 10.5
12/17/2021 7:45:00 AM 6.12 43.016 0.302 7.6 3.87 10.51
12/17/2021 8:00:00 AM 6.09 42.962 0.3 7.59 3.99 10.53
12/17/2021 8:15:00 AM 6.06 42.908 0.304 7.58 5.34 10.56
12/17/2021 8:30:00 AM 6.03 42.854 0.291 7.59 3.9 10.58
12/17/2021 8:45:00 AM 6.02 42.836 0.29 7.59 3.94 10.64
12/17/2021 9:00:00 AM 6.01 42.818 0.289 7.59 3.72 10.68
12/17/2021 9:15:00 AM 6 42.8 0.298 7.57 4.76 10.76
12/17/2021 9:30:00 AM 6 42.8 0.296 7.6 3.44 10.83
12/17/2021 9:45:00 AM 6 42.8 0.297 7.61 3.65 10.92
12/17/2021 10:00:00 AM 6.01 42.818 0.296 7.62 3.43 11
12/17/2021 10:15:00 AM 6.02 42.836 0.305 7.63 3.46 11.09
12/17/2021 10:30:00 AM 6.04 42.872 0.3 7.64 3.25 11.17
12/17/2021 10:45:00 AM 6.06 42.908 0.3 7.66 3.35 11.27
12/17/2021 11:00:00 AM 6.09 42.962 0.301 7.65 4.31 11.36
12/17/2021 11:15:00 AM 6.12 43.016 0.31 7.65 4.33 11.45
12/17/2021 11:30:00 AM 6.16 43.088 0.304 7.69 3.17 11.52
12/17/2021 11:45:00 AM 6.2 43.16 0.29 7.69 4.7 11.61
12/17/2021 12:00:00 PM 6.24 43.232 0.308 7.71 3.33 11.69
12/17/2021 12:15:00 PM 6.28 43.304 0.302 7.63 3.48 11.76
12/17/2021 12:30:00 PM 6.33 43.394 0.312 7.72 3.98 11.83
12/17/2021 12:45:00 PM 6.39 43.502 0.307 7.74 4.07 11.89
12/17/2021 1:00:00 PM 6.45 43.61 0.312 7.75 4.95 11.96
12/17/2021 1:15:00 PM 6.52 43.736 0.312 7.74 3.96 11.99
12/17/2021 1:30:00 PM 6.59 43.862 0.309 7.77 4.8 12.03
12/17/2021 1:45:00 PM 6.64 43.952 0.305 7.78 3.41 12.04
12/17/2021 2:00:00 PM 6.69 44.042 0.31 7.78 4.91 12.06
12/17/2021 2:15:00 PM 6.72 44.096 0.311 7.78 3.49 12.06
12/17/2021 2:30:00 PM 6.74 44.132 0.309 7.79 3.42 12.05
12/17/2021 2:45:00 PM 6.75 44.15 0.304 7.79 3.48 12.05
12/17/2021 3:00:00 PM 6.75 44.15 0.302 7.8 3.34 12.02
12/17/2021 3:15:00 PM 6.75 44.15 0.303 7.8 3.48 12
12/17/2021 3:30:00 PM 6.73 44.114 0.302 7.79 4.86 11.98
12/17/2021 3:45:00 PM 6.71 44.078 0.308 7.78 4.54 11.96
12/17/2021 4:00:00 PM 6.68 44.024 0.304 7.79 3.34 11.89
12/17/2021 4:15:00 PM 6.64 43.952 0.304 7.79 3.14 11.84
12/17/2021 4:30:00 PM 6.61 43.898 0.251 7.77 4.23 11.8
12/17/2021 4:45:00 PM 6.57 43.826 0.195 7.78 3.22 11.74
12/17/2021 5:00:00 PM 6.53 43.754 0.312 7.78 4.47 11.68
12/17/2021 5:15:00 PM 6.49 43.682 0.319 7.76 4.61 11.61
12/17/2021 5:30:00 PM 6.44 43.592 0.31 7.77 4.85 11.56
12/17/2021 5:45:00 PM 6.4 43.52 0.313 7.79 3.16 11.49
12/17/2021 6:00:00 PM 6.36 43.448 0.247 7.77 5.69 11.42
12/17/2021 6:15:00 PM 6.33 43.394 0.314 7.76 4.53 11.38
12/17/2021 6:30:00 PM 6.3 43.34 0.306 7.75 3.21 11.33
12/17/2021 6:45:00 PM 6.26 43.268 0.31 7.73 6.12 11.29
12/17/2021 7:00:00 PM 6.23 43.214 0.302 7.73 3.22 11.24
12/17/2021 7:15:00 PM 6.19 43.142 0.309 7.73 3.36 11.2
12/17/2021 7:30:00 PM 6.14 43.052 0.308 7.69 3.95 11.16
12/17/2021 7:45:00 PM 6.1 42.98 0.31 7.69 5.01 11.11
12/17/2021 8:00:00 PM 6.06 42.908 0.308 7.69 3.81 11.08
12/17/2021 8:15:00 PM 6.02 42.836 0.308 7.68 3.42 11.04
12/17/2021 8:30:00 PM 5.98 42.764 0.313 7.66 3.78 11.01
12/17/2021 8:45:00 PM 5.94 42.692 0.312 7.66 4.76 10.99
12/17/2021 9:00:00 PM 5.91 42.638 0.284 7.66 4.1 10.96
12/17/2021 9:15:00 PM 5.88 42.584 0.305 7.64 3.59 10.93
12/17/2021 9:30:00 PM 5.86 42.548 0.305 7.65 3.12 10.89
12/17/2021 9:45:00 PM 5.82 42.476 0.304 7.64 3.31 10.89
12/17/2021 10:00:00 PM 5.8 42.44 0.303 7.64 3.18 10.88
12/17/2021 10:15:00 PM 5.77 42.386 0.305 7.64 3.39 10.88
12/17/2021 10:30:00 PM 5.74 42.332 0.309 7.63 4.44 10.86
12/17/2021 10:45:00 PM 5.71 42.278 0.305 7.63 3.45 10.86
12/17/2021 11:00:00 PM 5.68 42.224 0.305 7.63 3.29 10.87
12/17/2021 11:15:00 PM 5.65 42.17 0.306 7.63 3.21 10.86
12/17/2021 11:30:00 PM 5.62 42.116 0.306 7.63 3.29 10.87
12/17/2021 11:45:00 PM 5.59 42.062 0.308 7.62 3.17 10.89
12/18/2021 12:00:00 AM 5.56 42.008 0.308 7.62 3.19 10.88
12/18/2021 12:15:00 AM 5.53 41.954 0.309 7.62 3.15 10.89
12/18/2021 12:30:00 AM 5.5 41.9 0.31 7.62 3.36 10.89
12/18/2021 12:45:00 AM 5.47 41.846 0.31 7.62 3.49 10.88
12/18/2021 1:00:00 AM 5.44 41.792 0.31 7.61 3.47 10.89
12/18/2021 1:15:00 AM 5.42 41.756 0.214 7.61 4.42 10.92
12/18/2021 1:30:00 AM 5.4 41.72 0.312 7.62 3.25 10.92
12/18/2021 1:45:00 AM 5.37 41.666 0.324 7.6 3.59 10.92
12/18/2021 2:00:00 AM 5.35 41.63 0.318 7.62 2.99 10.92
12/18/2021 2:15:00 AM 5.33 41.594 0.321 7.62 3.02 10.92
12/18/2021 2:30:00 AM 5.32 41.576 0.331 7.62 3.18 10.95
12/18/2021 2:45:00 AM 5.31 41.558 0.329 7.63 3.39 10.94
12/18/2021 3:00:00 AM 5.29 41.522 0.33 7.63 3.84 10.94
12/18/2021 3:15:00 AM 5.28 41.504 0.328 7.63 3.49 10.94
12/18/2021 3:30:00 AM 5.27 41.486 0.325 7.63 3.4 10.95
12/18/2021 3:45:00 AM 5.27 41.486 0.326 7.62 3.13 10.93
12/18/2021 4:00:00 AM 5.27 41.486 0.325 7.62 3.07 10.94
12/18/2021 4:15:00 AM 5.26 41.468 0.324 7.62 3.16 10.96
12/18/2021 4:30:00 AM 5.26 41.468 0.335 7.62 3.13 10.94
12/18/2021 4:45:00 AM 5.25 41.45 0.329 7.63 3.37 10.93
12/18/2021 5:00:00 AM 5.24 41.432 0.334 7.6 4.41 10.96
12/18/2021 5:15:00 AM 5.23 41.414 0.322 7.62 3.42 10.95
12/18/2021 5:30:00 AM 5.22 41.396 0.331 7.61 3.62 10.94
12/18/2021 5:45:00 AM 5.22 41.396 0.332 7.62 4.38 10.94
12/18/2021 6:00:00 AM 5.22 41.396 0.327 7.62 3.9 10.92
12/18/2021 6:15:00 AM 5.2 41.36 0.329 7.62 4.09 10.95
12/18/2021 6:30:00 AM 5.19 41.342 0.333 7.62 5.03 10.94
12/18/2021 6:45:00 AM 5.19 41.342 0.331 7.56 3.54 10.94
12/18/2021 7:00:00 AM 5.18 41.324 0.332 7.63 3.57 10.95
12/18/2021 7:15:00 AM 5.18 41.324 0.334 7.63 3.65 10.94
12/18/2021 7:30:00 AM 5.18 41.324 0.335 7.63 3.49 10.95
12/18/2021 7:45:00 AM 5.17 41.306 0.335 7.63 3.61 10.97
12/18/2021 8:00:00 AM 5.17 41.306 0.334 7.63 3.44 10.97
12/18/2021 8:15:00 AM 5.16 41.288 0.333 7.63 3.47 11
12/18/2021 8:30:00 AM 5.16 41.288 0.332 7.64 3.22 11
12/18/2021 8:45:00 AM 5.17 41.306 0.342 7.64 3.21 11.05
12/18/2021 9:00:00 AM 5.17 41.306 0.332 7.64 3.07 11.09
12/18/2021 9:15:00 AM 5.17 41.306 0.335 7.65 2.99 11.1
12/18/2021 9:30:00 AM 5.17 41.306 0.334 7.65 3.01 11.14
12/18/2021 9:45:00 AM 5.17 41.306 0.334 7.66 2.85 11.19
12/18/2021 10:00:00 AM 5.17 41.306 0.336 7.66 2.99 11.22
12/18/2021 10:15:00 AM 5.16 41.288 0.337 7.67 2.92 11.26
12/18/2021 10:30:00 AM 5.16 41.288 0.336 7.67 2.93 11.28
12/18/2021 10:45:00 AM 5.16 41.288 0.336 7.68 3.03 11.35
12/18/2021 11:00:00 AM 5.17 41.306 0.335 7.68 3.03 11.36
12/18/2021 11:15:00 AM 5.17 41.306 0.335 7.69 3.02 11.42
12/18/2021 11:30:00 AM 5.18 41.324 0.336 7.69 3.11 11.46
12/18/2021 11:45:00 AM 5.18 41.324 0.335 7.69 3.28 11.5
12/18/2021 12:00:00 PM 5.18 41.324 0.335 7.69 3.28 11.51
12/18/2021 12:15:00 PM 5.19 41.342 0.344 7.7 3.45 11.55
12/18/2021 12:30:00 PM 5.2 41.36 0.345 7.7 3.42 11.59
12/18/2021 12:45:00 PM 5.21 41.378 0.334 7.7 3.55 11.6
12/18/2021 1:00:00 PM 5.21 41.378 0.343 7.7 3.66 11.61
12/18/2021 1:15:00 PM 5.22 41.396 0.335 7.7 3.65 11.62
12/18/2021 1:30:00 PM 5.22 41.396 0.333 7.7 4.49 11.63
12/18/2021 1:45:00 PM 5.22 41.396 0.34 7.7 3.45 11.67
12/18/2021 2:00:00 PM 5.23 41.414 0.339 7.69 4.42 11.68
12/18/2021 2:15:00 PM 5.22 41.396 0.33 7.71 3.45 11.68
12/18/2021 2:30:00 PM 5.23 41.414 0.329 7.71 3.38 11.7
12/18/2021 2:45:00 PM 5.22 41.396 0.224 7.71 3.89 11.7
12/18/2021 3:00:00 PM 5.22 41.396 0.337 7.7 4.41 11.69
12/18/2021 3:15:00 PM 5.22 41.396 0.333 7.71 3.35 11.67
12/18/2021 3:30:00 PM 5.22 41.396 0.329 7.72 4.08 11.66
12/18/2021 3:45:00 PM 5.22 41.396 0.33 7.72 3.93 11.63
12/18/2021 4:00:00 PM 5.22 41.396 0.328 7.58 3.96 11.59
12/18/2021 4:15:00 PM 5.22 41.396 0.328 7.71 4.45 11.57
12/18/2021 4:30:00 PM 5.21 41.378 0.326 7.7 4.24 11.55
12/18/2021 4:45:00 PM 5.21 41.378 0.328 7.71 4.27 11.53
12/18/2021 5:00:00 PM 5.21 41.378 0.328 7.7 5.4 11.5
12/18/2021 5:15:00 PM 5.2 41.36 0.327 7.7 3.6 11.47
12/18/2021 5:30:00 PM 5.19 41.342 0.333 7.7 3.5 11.46
12/18/2021 5:45:00 PM 5.19 41.342 0.334 7.7 3.51 11.42
12/18/2021 6:00:00 PM 5.19 41.342 0.332 7.7 3.54 11.4
12/18/2021 6:15:00 PM 5.18 41.324 0.342 7.69 3.72 11.38
12/18/2021 6:30:00 PM 5.18 41.324 0.347 7.69 4.51 11.35
12/18/2021 6:45:00 PM 5.17 41.306 0.34 7.69 4.53 11.32
12/18/2021 7:00:00 PM 5.17 41.306 0.34 7.68 3.86 11.29
12/18/2021 7:15:00 PM 5.16 41.288 0.332 7.67 4.03 11.26
12/18/2021 7:30:00 PM 5.14 41.252 0.327 7.67 4.19 11.25
12/18/2021 7:45:00 PM 5.13 41.234 0.326 7.65 4.44 11.23
12/18/2021 8:00:00 PM 5.12 41.216 0.32 7.63 5.5 11.23
12/18/2021 8:15:00 PM 5.1 41.18 0.31 7.65 4.7 11.22
12/18/2021 8:30:00 PM 5.09 41.162 0.308 7.64 4.97 11.21
12/18/2021 8:45:00 PM 5.08 41.144 0.318 7.64 5.08 11.22
12/18/2021 9:00:00 PM 5.07 41.126 0.301 7.63 4.96 11.22
12/18/2021 9:15:00 PM 5.07 41.126 0.187 7.6 6.14 11.22
12/18/2021 9:30:00 PM 5.06 41.108 0.292 7.62 5.82 11.23
12/18/2021 9:45:00 PM 5.06 41.108 0.292 7.62 5.44 11.23
12/18/2021 10:00:00 PM 5.06 41.108 0.294 7.61 6.47 11.24
12/18/2021 10:15:00 PM 5.05 41.09 0.284 7.63 5.5 11.24
12/18/2021 10:30:00 PM 5.06 41.108 0.295 7.61 7.09 11.24
12/18/2021 10:45:00 PM 5.05 41.09 0.282 7.61 5.7 11.24
12/18/2021 11:00:00 PM 5.04 41.072 0.283 7.61 6.16 11.26
12/18/2021 11:15:00 PM 5.02 41.036 0.276 7.6 6.47 11.25
12/18/2021 11:30:00 PM 5.01 41.018 0.277 7.6 6.67 11.25
12/18/2021 11:45:00 PM 4.98 40.964 0.282 7.6 6.44 11.27
12/19/2021 12:00:00 AM 4.97 40.946 0.268 7.6 6.43 11.27
12/19/2021 12:15:00 AM 4.95 40.91 0.273 7.6 6.57 11.27
12/19/2021 12:30:00 AM 4.92 40.856 0.268 7.6 6.87 11.29
12/19/2021 12:45:00 AM 4.9 40.82 0.266 7.59 6.81 11.27
12/19/2021 1:00:00 AM 4.87 40.766 0.265 7.59 7.18 11.28
12/19/2021 1:15:00 AM 4.84 40.712 0.268 7.59 7.05 11.31
12/19/2021 1:30:00 AM 4.81 40.658 0.266 7.59 6.87 11.3
12/19/2021 1:45:00 AM 4.77 40.586 0.264 7.59 6.7 11.33
12/19/2021 2:00:00 AM 4.73 40.514 0.262 7.59 6.36 11.34
12/19/2021 2:15:00 AM 4.7 40.46 0.26 7.59 6.33 11.35
12/19/2021 2:30:00 AM 4.66 40.388 0.259 7.58 6.54 11.35
12/19/2021 2:45:00 AM 4.62 40.316 0.256 7.58 6.24 11.36
12/19/2021 3:00:00 AM 4.58 40.244 0.254 7.58 6.65 11.39
12/19/2021 3:15:00 AM 4.54 40.172 0.252 7.58 6.98 11.4
12/19/2021 3:30:00 AM 4.5 40.1 0.253 7.58 7.12 11.41
12/19/2021 3:45:00 AM 4.46 40.028 0.253 7.57 7.21 11.43
12/19/2021 4:00:00 AM 4.41 39.938 0.252 7.57 6.95 11.46
12/19/2021 4:15:00 AM 4.37 39.866 0.251 7.57 6.66 11.47
12/19/2021 4:30:00 AM 4.32 39.776 0.249 7.56 6.81 11.49
12/19/2021 4:45:00 AM 4.27 39.686 0.245 7.56 6.49 11.51
12/19/2021 5:00:00 AM 4.22 39.596 0.244 7.56 6.95 11.54
12/19/2021 5:15:00 AM 4.17 39.506 0.243 7.51 6.58 11.55
12/19/2021 5:30:00 AM 4.12 39.416 0.252 7.45 7.31 11.58
12/19/2021 5:45:00 AM 4.07 39.326 0.248 7.55 6.63 11.6
12/19/2021 6:00:00 AM 4.02 39.236 0.234 7.54 7.03 11.59
12/19/2021 6:15:00 AM 3.97 39.146 0.236 7.53 6.96 11.62
12/19/2021 6:30:00 AM 3.91 39.038 0.243 7.52 8.18 11.65
12/19/2021 6:45:00 AM 3.87 38.966 0.23 7.52 6.79 11.67
12/19/2021 7:00:00 AM 3.81 38.858 0.232 7.51 6.38 11.7
12/19/2021 7:15:00 AM 3.76 38.768 0.228 7.51 6.23 11.68
12/19/2021 7:30:00 AM 3.72 38.696 0.228 7.5 6.53 11.72
12/19/2021 7:45:00 AM 3.68 38.624 0.239 7.5 6.15 11.72
12/19/2021 8:00:00 AM 3.64 38.552 0.229 7.5 6.07 11.75
12/19/2021 8:15:00 AM 3.62 38.516 0.229 7.5 6.1 11.76
12/19/2021 8:30:00 AM 3.58 38.444 0.229 7.51 5.87 11.78
12/19/2021 8:45:00 AM 3.54 38.372 0.238 7.51 6.27 11.81
12/19/2021 9:00:00 AM 3.52 38.336 0.231 7.51 5.96 11.85
12/19/2021 9:15:00 AM 3.51 38.318 0.233 7.51 5.87 11.9
12/19/2021 9:30:00 AM 3.49 38.282 0.231 7.52 5.69 11.93
12/19/2021 9:45:00 AM 3.48 38.264 0.232 7.53 5.78 11.97
12/19/2021 10:00:00 AM 3.48 38.264 0.231 7.54 5.81 12.04
12/19/2021 10:15:00 AM 3.46 38.228 0.23 7.54 5.57 12.07
12/19/2021 10:30:00 AM 3.46 38.228 0.224 7.51 7.37 12.14
12/19/2021 10:45:00 AM 3.46 38.228 0.227 7.55 5.6 12.18
12/19/2021 11:00:00 AM 3.46 38.228 0.221 7.57 5.64 12.24
12/19/2021 11:15:00 AM 3.48 38.264 0.23 7.57 5.67 12.31
12/19/2021 11:30:00 AM 3.48 38.264 0.262 7.53 6.92 12.36
12/19/2021 11:45:00 AM 3.5 38.3 0.218 7.59 5.64 12.43
12/19/2021 12:00:00 PM 3.51 38.318 0.248 7.57 6.16 12.48
12/19/2021 12:15:00 PM 3.54 38.372 0.231 7.61 5.5 12.55
12/19/2021 12:30:00 PM 3.56 38.408 0.217 7.62 5.27 12.61
12/19/2021 12:45:00 PM 3.58 38.444 0.22 7.63 5.09 12.66
12/19/2021 1:00:00 PM 3.61 38.498 0.236 7.63 5.11 12.7
12/19/2021 1:15:00 PM 3.64 38.552 0.242 7.65 5.3 12.76
12/19/2021 1:30:00 PM 3.65 38.57 0.241 7.65 5.29 12.78
12/19/2021 1:45:00 PM 3.65 38.57 0.241 7.62 6.28 12.81
12/19/2021 2:00:00 PM 3.66 38.588 0.242 7.68 6.01 12.81
12/19/2021 2:15:00 PM 3.65 38.57 0.247 7.64 5.68 12.85
12/19/2021 2:30:00 PM 3.65 38.57 0.245 7.65 6.23 12.87
12/19/2021 2:45:00 PM 3.65 38.57 0.243 7.67 4.93 12.85
12/19/2021 3:00:00 PM 3.66 38.588 0.244 7.68 4.74 12.84
12/19/2021 3:15:00 PM 3.66 38.588 0.244 7.7 5 12.85
12/19/2021 3:30:00 PM 3.66 38.588 0.244 7.7 4.85 12.83
12/19/2021 3:45:00 PM 3.65 38.57 0.245 7.72 4.89 12.8
12/19/2021 4:00:00 PM 3.64 38.552 0.245 7.72 4.79 12.79
12/19/2021 4:15:00 PM 3.61 38.498 0.246 7.71 4.61 12.75
12/19/2021 4:30:00 PM 3.59 38.462 0.246 7.71 4.65 12.7
12/19/2021 4:45:00 PM 3.57 38.426 0.253 7.69 4.45 12.65
12/19/2021 5:00:00 PM 3.54 38.372 0.262 7.7 4.74 12.61
12/19/2021 5:15:00 PM 3.5 38.3 0.259 7.69 4.87 12.56
12/19/2021 5:30:00 PM 3.47 38.246 0.262 7.69 4.4 12.52
12/19/2021 5:45:00 PM 3.46 38.228 0.262 7.68 4.8 12.46
12/19/2021 6:00:00 PM 3.41 38.138 0.262 7.68 4.57 12.43
12/19/2021 6:15:00 PM 3.39 38.102 0.263 7.67 4.64 12.39
12/19/2021 6:30:00 PM 3.39 38.102 0.28 7.58 5.88 12.35
12/19/2021 6:45:00 PM 3.35 38.03 0.273 7.65 4.46 12.32
12/19/2021 7:00:00 PM 3.33 37.994 0.264 7.66 4.55 12.28
12/19/2021 7:15:00 PM 3.32 37.976 0.27 7.64 5.17 12.23
12/19/2021 7:30:00 PM 3.32 37.976 0.262 7.63 4.64 12.19
12/19/2021 7:45:00 PM 3.27 37.886 0.258 7.63 4.95 12.16
12/19/2021 8:00:00 PM 3.23 37.814 0.262 7.61 4.34 12.13
12/19/2021 8:15:00 PM 3.19 37.742 0.271 7.6 5.44 12.11
12/19/2021 8:30:00 PM 3.17 37.706 0.258 7.62 4.62 12.09
12/19/2021 8:45:00 PM 3.15 37.67 0.265 7.61 4.28 12.07
12/19/2021 9:00:00 PM 3.13 37.634 0.267 7.6 4.31 12.07
12/19/2021 9:15:00 PM 3.11 37.598 0.272 7.6 5.18 12.06
12/19/2021 9:30:00 PM 3.1 37.58 0.274 7.59 4.9 12.05
12/19/2021 9:45:00 PM 3.07 37.526 0.276 7.58 4.7 12.03
12/19/2021 10:00:00 PM 3.07 37.526 0.269 7.59 4.28 12.03
12/19/2021 10:15:00 PM 3.03 37.454 0.281 7.59 4.87 12.04
12/19/2021 10:30:00 PM 3.01 37.418 0.278 7.58 6.02 12.03
12/19/2021 10:45:00 PM 2.98 37.364 0.28 7.58 4.22 12.03
12/19/2021 11:00:00 PM 2.96 37.328 0.288 7.6 4.3 12.02
12/19/2021 11:15:00 PM 2.94 37.292 0.264 7.58 4.2 12.04
12/19/2021 11:30:00 PM 2.91 37.238 0.18 7.55 5.14 12.03
12/19/2021 11:45:00 PM 2.91 37.238 0.284 7.56 4.98 12.01
12/20/2021 12:00:00 AM 2.88 37.184 0.275 7.59 5.02 12.02
12/20/2021 12:15:00 AM 2.85 37.13 0.274 7.59 4.61 12.02
12/20/2021 12:30:00 AM 2.83 37.094 0.275 7.59 4.1 12.01
12/20/2021 12:45:00 AM 2.8 37.04 0.277 7.59 4.04 12.02
12/20/2021 1:00:00 AM 2.76 36.968 0.281 7.6 3.88 12.03
12/20/2021 1:15:00 AM 2.72 36.896 0.281 7.59 4.28 12.03
12/20/2021 1:30:00 AM 2.67 36.806 0.299 7.5 6.62 12.05
12/20/2021 1:45:00 AM 2.62 36.716 0.282 7.59 4.03 12.05
12/20/2021 2:00:00 AM 2.57 36.626 0.278 7.59 4.2 12.05
12/20/2021 2:15:00 AM 2.53 36.554 0.284 7.59 4.05 12.06
12/20/2021 2:30:00 AM 2.49 36.482 0.277 7.58 3.95 12.09
12/20/2021 2:45:00 AM 2.44 36.392 0.285 7.55 5.9 12.09
12/20/2021 3:00:00 AM 2.42 36.356 0.27 7.57 4.27 12.09
12/20/2021 3:15:00 AM 2.36 36.248 0.276 7.57 4.19 12.09
12/20/2021 3:30:00 AM 2.33 36.194 0.29 7.56 4.94 12.11
12/20/2021 3:45:00 AM 2.3 36.14 0.29 7.55 4.19 12.12
12/20/2021 4:00:00 AM 2.26 36.068 0.281 7.56 4.25 12.12
12/20/2021 4:15:00 AM 2.23 36.014 0.298 7.53 4.06 12.13
12/20/2021 4:30:00 AM 2.19 35.942 0.285 7.57 5.06 12.14
12/20/2021 4:45:00 AM 2.15 35.87 0.287 7.56 4.18 12.15
12/20/2021 5:00:00 AM 2.1 35.78 0.301 7.58 4.72 12.16
12/20/2021 5:15:00 AM 2.06 35.708 0.272 7.58 4.03 12.18
12/20/2021 5:30:00 AM 2.01 35.618 0.288 7.56 5.46 12.2
12/20/2021 5:45:00 AM 1.96 35.528 0.282 7.58 4.48 12.22
12/20/2021 6:00:00 AM 1.91 35.438 0.276 7.59 3.91 12.22
12/20/2021 6:15:00 AM 1.86 35.348 0.3 7.58 4.21 12.23
12/20/2021 6:30:00 AM 1.82 35.276 0.299 7.58 4.04 12.25
12/20/2021 6:45:00 AM 1.76 35.168 0.299 7.6 3.71 12.28
12/20/2021 7:00:00 AM 1.72 35.096 0.306 7.6 3.92 12.29
12/20/2021 7:15:00 AM 1.7 35.06 0.301 7.6 3.63 12.3
12/20/2021 7:30:00 AM 1.67 35.006 0.301 7.6 3.66 12.3
12/20/2021 7:45:00 AM 1.64 34.952 0.301 7.61 3.65 12.32
12/20/2021 8:00:00 AM 1.64 34.952 0.31 7.62 4.08 12.35
12/20/2021 8:15:00 AM 1.64 34.952 0.327 7.62 3.73 12.36
12/20/2021 8:30:00 AM 1.65 34.97 0.316 7.62 3.87 12.41
12/20/2021 8:45:00 AM 1.65 34.97 0.307 7.63 3.75 12.43
12/20/2021 9:00:00 AM 1.66 34.988 0.304 7.63 3.82 12.46
12/20/2021 9:15:00 AM 1.66 34.988 0.3 7.64 3.95 12.5
12/20/2021 9:30:00 AM 1.72 35.096 0.313 7.64 4.09 12.56
12/20/2021 9:45:00 AM 1.76 35.168 0.303 7.66 3.97 12.58
12/20/2021 10:00:00 AM 1.8 35.24 0.3 7.66 3.83 12.64
12/20/2021 10:15:00 AM 1.85 35.33 0.297 7.66 3.66 12.67
12/20/2021 10:30:00 AM 1.92 35.456 0.301 7.67 3.63 12.72
12/20/2021 10:45:00 AM 2.01 35.618 0.303 7.67 3.69 12.77
12/20/2021 11:00:00 AM 2.07 35.726 0.299 7.68 3.68 12.81
12/20/2021 11:15:00 AM 2.13 35.834 0.299 7.68 4.1 12.84
12/20/2021 11:30:00 AM 2.21 35.978 0.321 7.67 5.28 12.86
12/20/2021 11:45:00 AM 2.32 36.176 0.301 7.69 4.18 12.92
12/20/2021 12:00:00 PM 2.43 36.374 0.299 7.69 4.11 12.94
12/20/2021 12:15:00 PM 2.56 36.608 0.307 7.7 4.4 13
12/20/2021 12:30:00 PM 2.65 36.77 0.303 7.72 3.59 13.01
12/20/2021 12:45:00 PM 2.75 36.95 0.314 7.69 4.19 13.03
12/20/2021 1:00:00 PM 2.85 37.13 0.316 7.72 3.75 13.04
12/20/2021 1:15:00 PM 2.95 37.31 0.311 7.74 3.68 13.05
12/20/2021 1:30:00 PM 3.03 37.454 0.317 7.74 3.67 13.06
12/20/2021 1:45:00 PM 3.09 37.562 0.226 7.75 3.9 13.06
12/20/2021 2:00:00 PM 3.15 37.67 0.317 7.74 3.86 13.09
12/20/2021 2:15:00 PM 3.25 37.85 0.313 7.76 4.13 13.08
12/20/2021 2:30:00 PM 3.32 37.976 0.308 7.7 3.5 13.1
12/20/2021 2:45:00 PM 3.37 38.066 0.308 7.77 3.51 13.07
12/20/2021 3:00:00 PM 3.41 38.138 0.308 7.78 3.52 13.03
12/20/2021 3:15:00 PM 3.44 38.192 0.302 7.78 3.72 13
12/20/2021 3:30:00 PM 3.47 38.246 0.306 7.75 5.03 12.97
12/20/2021 3:45:00 PM 3.5 38.3 0.307 7.76 3.93 12.92
12/20/2021 4:00:00 PM 3.51 38.318 0.304 7.78 3.45 12.86
12/20/2021 4:15:00 PM 3.5 38.3 0.306 7.76 3.45 12.82
12/20/2021 4:30:00 PM 3.49 38.282 0.214 7.76 3.84 12.75
12/20/2021 4:45:00 PM 3.47 38.246 0.302 7.77 3.49 12.69
12/20/2021 5:00:00 PM 3.45 38.21 0.306 7.75 3.72 12.64
12/20/2021 5:15:00 PM 3.43 38.174 0.304 7.76 3.42 12.58
12/20/2021 5:30:00 PM 3.4 38.12 0.305 7.76 3.47 12.52
12/20/2021 5:45:00 PM 3.37 38.066 0.305 7.76 3.24 12.45
12/20/2021 6:00:00 PM 3.35 38.03 0.305 7.75 3.75 12.41
12/20/2021 6:15:00 PM 3.32 37.976 0.305 7.74 3.53 12.36
12/20/2021 6:30:00 PM 3.29 37.922 0.305 7.73 3.6 12.31
12/20/2021 6:45:00 PM 3.26 37.868 0.305 7.73 3.23 12.29
12/20/2021 7:00:00 PM 3.23 37.814 0.307 7.73 3.39 12.25
12/20/2021 7:15:00 PM 3.2 37.76 0.307 7.72 3.32 12.2
12/20/2021 7:30:00 PM 3.17 37.706 0.306 7.72 3.22 12.16
12/20/2021 7:45:00 PM 3.14 37.652 0.306 7.71 3.18 12.13
12/20/2021 8:00:00 PM 3.11 37.598 0.307 7.71 3.15 12.12
12/20/2021 8:15:00 PM 3.07 37.526 0.307 7.7 3.3 12.08
12/20/2021 8:30:00 PM 3.04 37.472 0.306 7.69 3.03 12.04
12/20/2021 8:45:00 PM 3 37.4 0.306 7.69 3.14 12.02
12/20/2021 9:00:00 PM 2.97 37.346 0.307 7.68 3.32 11.99
12/20/2021 9:15:00 PM 2.94 37.292 0.308 7.68 3.67 11.98
12/20/2021 9:30:00 PM 2.91 37.238 0.307 7.67 3.53 11.96
12/20/2021 9:45:00 PM 2.89 37.202 0.306 7.66 3.57 11.95
12/20/2021 10:00:00 PM 2.86 37.148 0.311 7.67 3.69 11.94
12/20/2021 10:15:00 PM 2.84 37.112 0.315 7.65 3.72 11.93
12/20/2021 10:30:00 PM 2.81 37.058 0.316 7.65 3.78 11.93
12/20/2021 10:45:00 PM 2.78 37.004 0.314 7.63 4.47 11.93
12/20/2021 11:00:00 PM 2.76 36.968 0.309 7.63 3.37 11.93
12/20/2021 11:15:00 PM 2.73 36.914 0.309 7.65 3.24 11.92
12/20/2021 11:30:00 PM 2.7 36.86 0.312 7.65 3.23 11.92
12/20/2021 11:45:00 PM 2.66 36.788 0.313 7.64 3.16 11.94
12/21/2021 12:00:00 AM 2.63 36.734 0.317 7.64 3.86 11.94
12/21/2021 12:15:00 AM 2.6 36.68 0.31 7.64 3.12 11.94
12/21/2021 12:30:00 AM 2.56 36.608 0.32 7.61 5.33 11.94
12/21/2021 12:45:00 AM 2.53 36.554 0.316 7.62 4.54 11.96
12/21/2021 1:00:00 AM 2.5 36.5 0.315 7.63 3.38 11.95
12/21/2021 1:15:00 AM 2.46 36.428 0.32 7.61 5.41 11.97
12/21/2021 1:30:00 AM 2.43 36.374 0.317 7.63 3.3 11.97
12/21/2021 1:45:00 AM 2.4 36.32 0.314 7.63 3.4 11.99
12/21/2021 2:00:00 AM 2.38 36.284 0.315 7.63 3.36 11.98
12/21/2021 2:15:00 AM 2.35 36.23 0.218 7.63 4.09 11.99
12/21/2021 2:30:00 AM 2.35 36.23 0.334 7.64 3.26 11.98
12/21/2021 2:45:00 AM 2.32 36.176 0.318 7.63 3.23 12.02
12/21/2021 3:00:00 AM 2.31 36.158 0.314 7.63 3.21 12.01
12/21/2021 3:15:00 AM 2.3 36.14 0.334 7.63 3.8 12.01
12/21/2021 3:30:00 AM 2.29 36.122 0.313 7.63 3.15 12.01
12/21/2021 3:45:00 AM 2.28 36.104 0.318 7.63 3.3 12.01
12/21/2021 4:00:00 AM 2.27 36.086 0.311 7.62 3.3 12.02
12/21/2021 4:15:00 AM 2.28 36.104 0.319 7.62 3.84 12.01
12/21/2021 4:30:00 AM 2.28 36.104 0.33 7.62 3.47 12.01
12/21/2021 4:45:00 AM 2.28 36.104 0.311 7.61 3.28 12.01
12/21/2021 5:00:00 AM 2.29 36.122 0.319 7.6 4.19 12
12/21/2021 5:15:00 AM 2.29 36.122 0.318 7.62 3.25 12.02
12/21/2021 5:30:00 AM 2.3 36.14 0.316 7.62 4.69 12.01
12/21/2021 5:45:00 AM 2.31 36.158 0.309 7.62 3.74 12.01
12/21/2021 6:00:00 AM 2.32 36.176 0.328 7.6 5.55 12.02
12/21/2021 6:15:00 AM 2.33 36.194 0.321 7.61 4.01 12.02
12/21/2021 6:30:00 AM 2.35 36.23 0.325 7.61 3.25 12
12/21/2021 6:45:00 AM 2.36 36.248 0.325 7.62 3.52 12
12/21/2021 7:00:00 AM 2.36 36.248 0.32 7.61 3.29 12
12/21/2021 7:15:00 AM 2.37 36.266 0.316 7.63 3.22 11.97
12/21/2021 7:30:00 AM 2.36 36.248 0.32 7.62 3.32 11.98
12/21/2021 7:45:00 AM 2.37 36.266 0.32 7.62 3.18 11.98
12/21/2021 8:00:00 AM 2.37 36.266 0.331 7.62 3.76 12.01
12/21/2021 8:15:00 AM 2.38 36.284 0.313 7.63 3.53 12.02
12/21/2021 8:30:00 AM 2.39 36.302 0.324 7.63 3.62 12.05
12/21/2021 8:45:00 AM 2.41 36.338 0.331 7.64 4.11 12.09
12/21/2021 9:00:00 AM 2.43 36.374 0.314 7.64 5.09 12.13
12/21/2021 9:15:00 AM 2.46 36.428 0.318 7.64 4.31 12.16
12/21/2021 9:30:00 AM 2.49 36.482 0.319 7.66 5.1 12.19
12/21/2021 9:45:00 AM 2.52 36.536 0.318 7.65 5.21 12.24
12/21/2021 10:00:00 AM 2.57 36.626 0.332 7.66 4.88 12.29
12/21/2021 10:15:00 AM 2.61 36.698 0.319 7.66 4.65 12.33
12/21/2021 10:30:00 AM 2.66 36.788 0.318 7.67 4.94 12.37
12/21/2021 10:45:00 AM 2.71 36.878 0.332 7.68 5.48 12.41
12/21/2021 11:00:00 AM 2.78 37.004 0.312 7.67 4.59 12.44
12/21/2021 11:15:00 AM 2.85 37.13 0.318 7.69 4.4 12.5
12/21/2021 11:30:00 AM 2.94 37.292 0.32 7.65 5.13 12.54
12/21/2021 11:45:00 AM 3.02 37.436 0.319 7.69 4.68 12.58
12/21/2021 12:00:00 PM 3.09 37.562 0.332 7.7 4.28 12.61
12/21/2021 12:15:00 PM 3.18 37.724 0.315 7.71 4.38 12.66
12/21/2021 12:30:00 PM 3.25 37.85 0.318 7.72 3.88 12.69
12/21/2021 12:45:00 PM 3.32 37.976 0.327 7.72 5.22 12.73
12/21/2021 1:00:00 PM 3.39 38.102 0.328 7.75 5.01 12.74
12/21/2021 1:15:00 PM 3.46 38.228 0.346 7.73 4.42 12.77
12/21/2021 1:30:00 PM 3.53 38.354 0.315 7.74 3.86 12.78
12/21/2021 1:45:00 PM 3.62 38.516 0.326 7.75 3.87 12.78
12/21/2021 2:00:00 PM 3.69 38.642 0.323 7.76 3.84 12.77
12/21/2021 2:15:00 PM 3.75 38.75 0.327 7.76 3.82 12.75
12/21/2021 2:30:00 PM 3.81 38.858 0.347 7.74 4.72 12.76
12/21/2021 2:45:00 PM 3.85 38.93 0.31 7.77 3.86 12.73
12/21/2021 3:00:00 PM 3.89 39.002 0.321 7.68 3.48 12.71
12/21/2021 3:15:00 PM 3.9 39.02 0.322 7.77 3.19 12.68
12/21/2021 3:30:00 PM 3.9 39.02 0.325 7.78 3.35 12.65
12/21/2021 3:45:00 PM 3.9 39.02 0.322 7.77 3.19 12.62
12/21/2021 4:00:00 PM 3.89 39.002 0.324 7.76 3.92 12.58
12/21/2021 4:15:00 PM 3.87 38.966 0.328 7.78 4.16 12.54
12/21/2021 4:30:00 PM 3.85 38.93 0.326 7.76 3.08 12.48
12/21/2021 4:45:00 PM 3.82 38.876 0.312 7.77 3.09 12.43
12/21/2021 5:00:00 PM 3.79 38.822 0.318 7.76 3.3 12.37
12/21/2021 5:15:00 PM 3.76 38.768 0.319 7.75 3.11 12.32
12/21/2021 5:30:00 PM 3.74 38.732 0.318 7.75 3.12 12.26
12/21/2021 5:45:00 PM 3.71 38.678 0.326 7.74 4.21 12.22
12/21/2021 6:00:00 PM 3.68 38.624 0.318 7.73 3.24 12.17
12/21/2021 6:15:00 PM 3.65 38.57 0.32 7.73 3.21 12.13
12/21/2021 6:30:00 PM 3.61 38.498 0.316 7.73 3.26 12.1
12/21/2021 6:45:00 PM 3.58 38.444 0.327 7.71 4.47 12.06
12/21/2021 7:00:00 PM 3.55 38.39 0.325 7.71 4.5 12.02
12/21/2021 7:15:00 PM 3.52 38.336 0.324 7.7 4.24 11.98
12/21/2021 7:30:00 PM 3.46 38.228 0.322 7.7 4.17 11.96
12/21/2021 7:45:00 PM 3.41 38.138 0.324 7.71 3.17 11.93
12/21/2021 8:00:00 PM 3.36 38.048 0.318 7.68 6.7 11.92
12/21/2021 8:15:00 PM 3.31 37.958 0.29 7.68 4.87 11.9
12/21/2021 8:30:00 PM 3.26 37.868 0.317 7.67 3.33 11.87
12/21/2021 8:45:00 PM 3.22 37.796 0.326 7.67 3.42 11.85
12/21/2021 9:00:00 PM 3.19 37.742 0.316 7.68 3.27 11.83
12/21/2021 9:15:00 PM 3.16 37.688 0.231 7.66 3.79 11.82
12/21/2021 9:30:00 PM 3.13 37.634 0.327 7.64 3.48 11.8
12/21/2021 9:45:00 PM 3.1 37.58 0.242 7.63 3.7 11.78
12/21/2021 10:00:00 PM 3.07 37.526 0.317 7.66 3.06 11.77
12/21/2021 10:15:00 PM 3.05 37.49 0.321 7.66 3.26 11.77
12/21/2021 10:30:00 PM 3.03 37.454 0.317 7.65 3.2 11.78
12/21/2021 10:45:00 PM 3 37.4 0.316 7.65 3.21 11.76
12/21/2021 11:00:00 PM 2.98 37.364 0.316 7.65 3.16 11.76
12/21/2021 11:15:00 PM 2.95 37.31 0.318 7.64 3.31 11.77
12/21/2021 11:30:00 PM 2.92 37.256 0.328 7.65 3.1 11.77
12/21/2021 11:45:00 PM 2.89 37.202 0.309 7.64 3.25 11.78
12/22/2021 12:00:00 AM 2.85 37.13 0.312 7.65 3.04 11.79
12/22/2021 12:15:00 AM 2.82 37.076 0.313 7.64 2.98 11.78
12/22/2021 12:30:00 AM 2.79 37.022 0.326 7.64 3.09 11.81
12/22/2021 12:45:00 AM 2.76 36.968 0.328 7.63 3.19 11.79
12/22/2021 1:00:00 AM 2.73 36.914 0.309 7.64 3.14 11.81
12/22/2021 1:15:00 AM 2.68 36.824 0.313 7.64 3.05 11.81
12/22/2021 1:30:00 AM 2.67 36.806 0.33 7.63 3.37 11.82
12/22/2021 1:45:00 AM 2.63 36.734 0.313 7.64 3.36 11.83
12/22/2021 2:00:00 AM 2.61 36.698 0.325 7.62 4.15 11.84
12/22/2021 2:15:00 AM 2.59 36.662 0.324 7.63 3.22 11.83
12/22/2021 2:30:00 AM 2.55 36.59 0.305 7.52 3.24 11.85
12/22/2021 2:45:00 AM 2.54 36.572 0.319 7.62 3.05 11.84
12/22/2021 3:00:00 AM 2.5 36.5 0.318 7.62 3.01 11.85
12/22/2021 3:15:00 AM 2.47 36.446 0.326 7.63 3.22 11.86
12/22/2021 3:30:00 AM 2.46 36.428 0.326 7.59 3.9 11.85
12/22/2021 3:45:00 AM 2.43 36.374 0.27 7.62 4.33 11.87
12/22/2021 4:00:00 AM 2.41 36.338 0.313 7.61 3.12 11.86
12/22/2021 4:15:00 AM 2.39 36.302 0.325 7.62 4.11 11.86
12/22/2021 4:30:00 AM 2.37 36.266 0.315 7.63 3.1 11.86
12/22/2021 4:45:00 AM 2.35 36.23 0.306 7.62 3.07 11.84
12/22/2021 5:00:00 AM 2.35 36.23 0.309 7.61 3.2 11.86
12/22/2021 5:15:00 AM 2.34 36.212 0.312 7.61 3.36 11.87
12/22/2021 5:30:00 AM 2.33 36.194 0.314 7.61 3.38 11.86
12/22/2021 5:45:00 AM 2.33 36.194 0.342 7.59 4.81 11.87
12/22/2021 6:00:00 AM 2.33 36.194 0.311 7.61 3.31 11.87
12/22/2021 6:15:00 AM 2.33 36.194 0.297 7.57 3.4 11.88
12/22/2021 6:30:00 AM 2.34 36.212 0.322 7.59 5.43 11.86
12/22/2021 6:45:00 AM 2.33 36.194 0.32 7.6 4.81 11.86
12/22/2021 7:00:00 AM 2.33 36.194 0.321 7.59 3.55 11.87
12/22/2021 7:15:00 AM 2.35 36.23 0.321 7.6 3.73 11.85
12/22/2021 7:30:00 AM 2.35 36.23 0.284 7.61 5.14 11.86
12/22/2021 7:45:00 AM 2.36 36.248 0.317 7.6 3.37 11.86
12/22/2021 8:00:00 AM 2.37 36.266 0.32 7.59 3.26 11.86
12/22/2021 8:15:00 AM 2.39 36.302 0.313 7.61 3.25 11.87
12/22/2021 8:30:00 AM 2.4 36.32 0.312 7.61 3.04 11.88
12/22/2021 8:45:00 AM 2.43 36.374 0.316 7.61 3.04 11.88
12/22/2021 9:00:00 AM 2.46 36.428 0.318 7.61 4.44 11.9
12/22/2021 9:15:00 AM 2.48 36.464 0.31 7.62 3.14 11.92
12/22/2021 9:30:00 AM 2.52 36.536 0.323 7.62 4.36 11.96
12/22/2021 9:45:00 AM 2.54 36.572 0.312 7.63 3.3 11.95
12/22/2021 10:00:00 AM 2.57 36.626 0.312 7.63 3.25 11.98
12/22/2021 10:15:00 AM 2.59 36.662 0.313 7.64 3.25 12
12/22/2021 10:30:00 AM 2.62 36.716 0.314 7.64 4.2 12.02
12/22/2021 10:45:00 AM 2.64 36.752 0.312 7.63 3.37 12.03
12/22/2021 11:00:00 AM 2.67 36.806 0.312 7.65 3.29 12.05
12/22/2021 11:15:00 AM 2.72 36.896 0.313 7.65 3.42 12.1
12/22/2021 11:30:00 AM 2.76 36.968 0.313 7.65 3.45 12.14
12/22/2021 11:45:00 AM 2.77 36.986 0.312 7.66 3.61 12.13
12/22/2021 12:00:00 PM 2.8 37.04 0.321 7.65 4.15 12.22
12/22/2021 12:15:00 PM 2.84 37.112 0.32 7.65 4.51 12.27
12/22/2021 12:30:00 PM 2.85 37.13 0.313 7.66 3.39 12.3
12/22/2021 12:45:00 PM 2.89 37.202 0.311 7.68 3.53 12.31
12/22/2021 1:00:00 PM 2.96 37.328 0.312 7.69 3.2 12.36
12/22/2021 1:15:00 PM 2.97 37.346 0.319 7.69 3.16 12.39
12/22/2021 1:30:00 PM 2.99 37.382 0.313 7.7 3.27 12.43
12/22/2021 1:45:00 PM 3.03 37.454 0.321 7.69 3.9 12.47
12/22/2021 2:00:00 PM 3.04 37.472 0.314 7.71 3.16 12.48
12/22/2021 2:15:00 PM 3.07 37.526 0.314 7.69 3.33 12.52
12/22/2021 2:30:00 PM 3.08 37.544 0.316 7.72 3.25 12.51
12/22/2021 2:45:00 PM 3.07 37.526 0.314 7.73 4.06 12.51
12/22/2021 3:00:00 PM 3.07 37.526 0.309 7.73 4.25 12.53
12/22/2021 3:15:00 PM 3.07 37.526 0.305 7.72 3.23 12.51
12/22/2021 3:30:00 PM 3.06 37.508 0.332 7.73 3.06 12.49
12/22/2021 3:45:00 PM 3.04 37.472 0.306 7.73 3.59 12.46
12/22/2021 4:00:00 PM 3.02 37.436 0.327 7.73 3.08 12.45
12/22/2021 4:15:00 PM 3 37.4 0.302 7.73 3.13 12.44
12/22/2021 4:30:00 PM 2.99 37.382 0.309 7.72 4.2 12.41
12/22/2021 4:45:00 PM 2.98 37.364 0.329 7.72 3.08 12.36
12/22/2021 5:00:00 PM 2.96 37.328 0.315 7.71 3.17 12.34
12/22/2021 5:15:00 PM 2.94 37.292 0.295 7.73 5.12 12.32
12/22/2021 5:30:00 PM 2.92 37.256 0.312 7.7 3.43 12.29
12/22/2021 5:45:00 PM 2.89 37.202 0.312 7.72 3.56 12.25
12/22/2021 6:00:00 PM 2.86 37.148 0.334 7.7 3.66 12.23
12/22/2021 6:15:00 PM 2.84 37.112 0.302 7.69 3.93 12.19
12/22/2021 6:30:00 PM 2.82 37.076 0.33 7.7 5.33 12.16
12/22/2021 6:45:00 PM 2.8 37.04 0.304 7.69 3.71 12.14
12/22/2021 7:00:00 PM 2.77 36.986 0.313 7.69 3.13 12.1
12/22/2021 7:15:00 PM 2.73 36.914 0.333 7.68 4.2 12.1
12/22/2021 7:30:00 PM 2.71 36.878 0.304 7.67 4.12 12.07
12/22/2021 7:45:00 PM 2.7 36.86 0.312 7.68 3.18 12.06
12/22/2021 8:00:00 PM 2.67 36.806 0.317 7.64 3.99 12.05
12/22/2021 8:15:00 PM 2.64 36.752 0.311 7.56 3.07 12.03
12/22/2021 8:30:00 PM 2.61 36.698 0.312 7.58 4.27 12.02
12/22/2021 8:45:00 PM 2.59 36.662 0.312 7.65 4.22 12.01
12/22/2021 9:00:00 PM 2.56 36.608 0.331 7.64 3.2 12.01
12/22/2021 9:15:00 PM 2.53 36.554 0.299 7.65 3.87 12.01
12/22/2021 9:30:00 PM 2.49 36.482 0.312 7.64 3.88 12.01
12/22/2021 9:45:00 PM 2.45 36.41 0.334 7.64 4.34 12.01
12/22/2021 10:00:00 PM 2.42 36.356 0.305 7.64 3.35 12.02
12/22/2021 10:15:00 PM 2.4 36.32 0.305 7.63 3.9 12.01
12/22/2021 10:30:00 PM 2.38 36.284 0.311 7.61 3.72 12.01
12/22/2021 10:45:00 PM 2.35 36.23 0.312 7.62 4.24 12.01
12/22/2021 11:00:00 PM 2.33 36.194 0.315 7.62 4.98 12.01
12/22/2021 11:15:00 PM 2.31 36.158 0.322 7.6 4.64 12.02
12/22/2021 11:30:00 PM 2.28 36.104 0.322 7.61 5.38 12.01
12/22/2021 11:45:00 PM 2.26 36.068 0.344 7.63 5.21 12.02
12/23/2021 12:00:00 AM 2.24 36.032 0.305 7.62 4.03 12.02
12/23/2021 12:15:00 AM 2.23 36.014 0.323 7.61 4.32 12.04
12/23/2021 12:30:00 AM 2.22 35.996 0.347 7.63 3.84 12.03
12/23/2021 12:45:00 AM 2.21 35.978 0.324 7.62 4.24 12.03
12/23/2021 1:00:00 AM 2.19 35.942 0.341 7.62 4.19 12.04
12/23/2021 1:15:00 AM 2.19 35.942 0.312 7.6 3.79 12.04
12/23/2021 1:30:00 AM 2.17 35.906 0.358 7.59 21.72 12.04
12/23/2021 1:45:00 AM 2.16 35.888 0.254 7.62 18.64 12.07
12/23/2021 2:00:00 AM 2.13 35.834 0.254 7.62 7.04 12.07
12/23/2021 2:15:00 AM 2.09 35.762 0.253 7.62 7.33 12.07
12/23/2021 2:30:00 AM 2.07 35.726 0.252 7.62 6.98 12.08
12/23/2021 2:45:00 AM 2.05 35.69 0.253 7.62 6.07 12.09
12/23/2021 3:00:00 AM 2.04 35.672 0.255 7.63 7.06 12.08
12/23/2021 3:15:00 AM 2.02 35.636 0.258 7.62 11.05 12.09
12/23/2021 3:30:00 AM 2 35.6 0.263 7.62 6.16 12.1
12/23/2021 3:45:00 AM 1.98 35.564 0.261 7.62 5.9 12.1
12/23/2021 4:00:00 AM 1.99 35.582 0.268 7.62 5.05 12.1
12/23/2021 4:15:00 AM 1.99 35.582 0.268 7.62 4.84 12.1
12/23/2021 4:30:00 AM 1.98 35.564 0.267 7.62 4.69 12.11
12/23/2021 4:45:00 AM 1.97 35.546 0.256 7.64 4.45 12.08
12/23/2021 5:00:00 AM 1.95 35.51 0.255 7.61 4.2 12.1
12/23/2021 5:15:00 AM 1.93 35.474 0.252 7.63 4.07 12.11
12/23/2021 5:30:00 AM 1.92 35.456 0.261 7.62 4.24 12.11
12/23/2021 5:45:00 AM 1.92 35.456 0.255 7.64 4.01 12.12
12/23/2021 6:00:00 AM 1.89 35.402 0.264 7.64 4 12.12
12/23/2021 6:15:00 AM 1.88 35.384 0.258 7.61 3.97 12.13
12/23/2021 6:30:00 AM 1.87 35.366 0.256 7.64 4.14 12.13
12/23/2021 6:45:00 AM 1.88 35.384 0.269 7.62 4.4 12.12
12/23/2021 7:00:00 AM 1.87 35.366 0.272 7.62 4.13 12.13
12/23/2021 7:15:00 AM 1.88 35.384 0.265 7.62 4.28 12.13
12/23/2021 7:30:00 AM 1.88 35.384 0.274 7.62 4.36 12.13
12/23/2021 7:45:00 AM 1.88 35.384 0.271 7.63 4.52 12.13
12/23/2021 8:00:00 AM 1.88 35.384 0.283 7.63 4.44 12.14
12/23/2021 8:15:00 AM 1.89 35.402 0.28 7.65 4.72 12.15
12/23/2021 8:30:00 AM 1.9 35.42 0.29 7.61 4.77 12.17
12/23/2021 8:45:00 AM 1.93 35.474 0.289 7.63 5.09 12.19
12/23/2021 9:00:00 AM 1.94 35.492 0.281 7.64 5.19 12.23
12/23/2021 9:15:00 AM 1.97 35.546 0.287 7.64 5.43 12.28
12/23/2021 9:30:00 AM 2 35.6 0.274 7.65 5.2 12.31
12/23/2021 9:45:00 AM 2.03 35.654 0.289 7.65 5.62 12.37
12/23/2021 10:00:00 AM 2.07 35.726 0.289 7.65 5.32 12.41
12/23/2021 10:15:00 AM 2.12 35.816 0.281 7.67 5.56 12.47
12/23/2021 10:30:00 AM 2.15 35.87 0.291 7.66 5.69 12.51
12/23/2021 10:45:00 AM 2.2 35.96 0.278 7.67 5.65 12.56
12/23/2021 11:00:00 AM 2.23 36.014 0.274 7.7 5.22 12.6
12/23/2021 11:15:00 AM 2.28 36.104 0.291 7.68 5.21 12.63
12/23/2021 11:30:00 AM 2.36 36.248 0.29 7.7 5.78 12.67
12/23/2021 11:45:00 AM 2.44 36.392 0.29 7.68 5.94 12.73
12/23/2021 12:00:00 PM 2.53 36.554 0.293 7.71 5.76 12.76
12/23/2021 12:15:00 PM 2.63 36.734 0.281 7.73 5.79 12.8
12/23/2021 12:30:00 PM 2.66 36.788 0.295 7.7 5.98 12.82
12/23/2021 12:45:00 PM 2.7 36.86 0.291 7.74 6.1 12.83
12/23/2021 1:00:00 PM 2.75 36.95 0.292 7.73 6.28 12.84
12/23/2021 1:15:00 PM 2.82 37.076 0.293 7.75 6.75 12.86
12/23/2021 1:30:00 PM 2.82 37.076 0.293 7.75 6.29 12.86
12/23/2021 1:45:00 PM 2.85 37.13 0.294 7.73 6.65 12.86
12/23/2021 2:00:00 PM 2.91 37.238 0.291 7.76 6.91 12.87
12/23/2021 2:15:00 PM 2.94 37.292 0.293 7.77 6.79 12.87
12/23/2021 2:30:00 PM 2.97 37.346 0.279 7.77 6.9 12.86
12/23/2021 2:45:00 PM 3.01 37.418 0.299 7.74 6.74 12.86
12/23/2021 3:00:00 PM 3.04 37.472 0.292 7.75 6.69 12.85
12/23/2021 3:15:00 PM 3.05 37.49 0.281 7.75 6.88 12.83
12/23/2021 3:30:00 PM 3.07 37.526 0.284 7.75 7.05 12.79
12/23/2021 3:45:00 PM 3.06 37.508 0.289 7.75 6.8 12.77
12/23/2021 4:00:00 PM 3.07 37.526 0.293 7.78 7.04 12.75
12/23/2021 4:15:00 PM 3.07 37.526 0.293 7.78 7.18 12.71
12/23/2021 4:30:00 PM 3.06 37.508 0.294 7.78 7.28 12.66
12/23/2021 4:45:00 PM 3.04 37.472 0.29 7.77 7.41 12.61
12/23/2021 5:00:00 PM 3.02 37.436 0.295 7.73 7.49 12.57
12/23/2021 5:15:00 PM 3.01 37.418 0.292 7.77 7.15 12.53
12/23/2021 5:30:00 PM 2.99 37.382 0.287 7.76 7.21 12.48
12/23/2021 5:45:00 PM 2.98 37.364 0.274 7.74 7.11 12.44
12/23/2021 6:00:00 PM 2.97 37.346 0.294 7.75 7.42 12.4
12/23/2021 6:15:00 PM 2.95 37.31 0.293 7.75 7.81 12.36
12/23/2021 6:30:00 PM 2.95 37.31 0.294 7.74 7.86 12.32
12/23/2021 6:45:00 PM 2.93 37.274 0.297 7.74 8.18 12.29
12/23/2021 7:00:00 PM 2.92 37.256 0.286 7.74 8.32 12.26
12/23/2021 7:15:00 PM 2.9 37.22 0.292 7.63 8 12.24
12/23/2021 7:30:00 PM 2.88 37.184 0.296 7.73 8.03 12.19
12/23/2021 7:45:00 PM 2.86 37.148 0.281 7.72 8.23 12.16
12/23/2021 8:00:00 PM 2.84 37.112 0.297 7.72 8.06 12.13
12/23/2021 8:15:00 PM 2.82 37.076 0.296 7.71 8.31 12.12
12/23/2021 8:30:00 PM 2.8 37.04 0.296 7.71 8.12 12.09
12/23/2021 8:45:00 PM 2.77 36.986 0.296 7.7 8.2 12.05
12/23/2021 9:00:00 PM 2.73 36.914 0.293 7.7 8.1 12.01
12/23/2021 9:15:00 PM 2.69 36.842 0.302 7.66 8.27 12.01
12/23/2021 9:30:00 PM 2.69 36.842 0.295 7.7 8.19 12
12/23/2021 9:45:00 PM 2.68 36.824 0.297 7.68 8.37 11.99
12/23/2021 10:00:00 PM 2.67 36.806 0.292 7.69 8.22 11.97
12/23/2021 10:15:00 PM 2.66 36.788 0.294 7.68 8.44 11.95
12/23/2021 10:30:00 PM 2.65 36.77 0.294 7.69 8.62 11.93
12/23/2021 10:45:00 PM 2.65 36.77 0.287 7.68 8.2 11.92
12/23/2021 11:00:00 PM 2.66 36.788 0.294 7.68 8.52 11.9
12/23/2021 11:15:00 PM 2.66 36.788 0.296 7.68 8.96 11.91
12/23/2021 11:30:00 PM 2.67 36.806 0.29 7.68 8.92 11.9
12/23/2021 11:45:00 PM 2.66 36.788 0.3 7.68 8.66 11.89
12/24/2021 12:00:00 AM 2.67 36.806 0.299 7.68 8.67 11.89
12/24/2021 12:15:00 AM 2.68 36.824 0.296 7.68 8.56 11.88
12/24/2021 12:30:00 AM 2.67 36.806 0.293 7.68 8.6 11.88
12/24/2021 12:45:00 AM 2.67 36.806 0.298 7.68 8.67 11.88
12/24/2021 1:00:00 AM 2.67 36.806 0.297 7.67 8.51 11.85
12/24/2021 1:15:00 AM 2.65 36.77 0.294 7.67 8.7 11.86
12/24/2021 1:30:00 AM 2.64 36.752 0.283 7.67 8.74 11.88
12/24/2021 1:45:00 AM 2.62 36.716 0.281 7.66 8.79 11.86
12/24/2021 2:00:00 AM 2.59 36.662 0.294 7.66 8.84 11.86
12/24/2021 2:15:00 AM 2.55 36.59 0.293 7.66 8.32 11.89
12/24/2021 2:30:00 AM 2.53 36.554 0.292 7.66 8.4 11.88
12/24/2021 2:45:00 AM 2.52 36.536 0.292 7.66 10.41 11.87
12/24/2021 3:00:00 AM 2.49 36.482 0.283 7.66 10.75 11.88
12/24/2021 3:15:00 AM 2.47 36.446 0.285 7.66 10.29 11.89
12/24/2021 3:30:00 AM 2.45 36.41 0.293 7.66 10.35 11.89
12/24/2021 3:45:00 AM 2.46 36.428 0.294 7.66 8.44 11.89
12/24/2021 4:00:00 AM 2.46 36.428 0.294 7.66 8.68 11.89
12/24/2021 4:15:00 AM 2.47 36.446 0.279 7.61 8.11 11.89
12/24/2021 4:30:00 AM 2.48 36.464 0.276 7.66 8.58 11.9
12/24/2021 4:45:00 AM 2.49 36.482 0.291 7.66 9.65 11.9
12/24/2021 5:00:00 AM 2.48 36.464 0.295 7.66 9.19 11.9
12/24/2021 5:15:00 AM 2.49 36.482 0.298 7.64 9.43 11.9
12/24/2021 5:30:00 AM 2.49 36.482 0.285 7.66 8.46 11.9
12/24/2021 5:45:00 AM 2.49 36.482 0.297 7.63 8.67 11.88
12/24/2021 6:00:00 AM 2.48 36.464 0.293 7.66 8.67 11.9
12/24/2021 6:15:00 AM 2.47 36.446 0.297 7.66 8.49 11.91
12/24/2021 6:30:00 AM 2.47 36.446 0.295 7.66 8.78 11.92
12/24/2021 6:45:00 AM 2.48 36.464 0.295 7.66 9.17 11.89
12/24/2021 7:00:00 AM 2.48 36.464 0.278 7.66 8.56 11.88
12/24/2021 7:15:00 AM 2.49 36.482 0.298 7.66 9.2 11.89
12/24/2021 7:30:00 AM 2.5 36.5 0.287 7.66 9.29 11.89
12/24/2021 7:45:00 AM 2.5 36.5 0.299 7.66 9.26 11.89
12/24/2021 8:00:00 AM 2.52 36.536 0.287 7.66 9.66 11.9
12/24/2021 8:15:00 AM 2.54 36.572 0.298 7.66 9.81 11.91
12/24/2021 8:30:00 AM 2.55 36.59 0.298 7.67 9.5 11.93
12/24/2021 8:45:00 AM 2.58 36.644 0.292 7.67 9.55 11.95
12/24/2021 9:00:00 AM 2.61 36.698 0.293 7.67 10.02 11.97
12/24/2021 9:15:00 AM 2.64 36.752 0.301 7.67 10.2 12.01
12/24/2021 9:30:00 AM 2.68 36.824 0.296 7.68 10.07 12.03
12/24/2021 9:45:00 AM 2.71 36.878 0.29 7.68 9.9 12.07
12/24/2021 10:00:00 AM 2.74 36.932 0.3 7.65 10.3 12.08
12/24/2021 10:15:00 AM 2.76 36.968 0.293 7.69 10.58 12.1
12/24/2021 10:30:00 AM 2.8 37.04 0.292 7.69 10.77 12.13
12/24/2021 10:45:00 AM 2.83 37.094 0.299 7.69 11.02 12.16
12/24/2021 11:00:00 AM 2.86 37.148 0.297 7.7 10.71 12.19
12/24/2021 11:15:00 AM 2.89 37.202 0.292 7.7 10.76 12.22
12/24/2021 11:30:00 AM 2.94 37.292 0.298 7.69 10.65 12.25
12/24/2021 11:45:00 AM 3 37.4 0.289 7.71 10.68 12.28
12/24/2021 12:00:00 PM 3.06 37.508 0.301 7.7 10.43 12.34
12/24/2021 12:15:00 PM 3.1 37.58 0.298 7.72 10.31 12.36
12/24/2021 12:30:00 PM 3.15 37.67 0.299 7.73 10.44 12.39
12/24/2021 12:45:00 PM 3.21 37.778 0.297 7.73 10.93 12.4
12/24/2021 1:00:00 PM 3.28 37.904 0.296 7.74 11.39 12.45
12/24/2021 1:15:00 PM 3.36 38.048 0.299 7.74 11.04 12.48
12/24/2021 1:30:00 PM 3.42 38.156 0.291 7.75 10.99 12.48
12/24/2021 1:45:00 PM 3.46 38.228 0.286 7.75 11.47 12.49
12/24/2021 2:00:00 PM 3.52 38.336 0.283 7.76 11.7 12.5
12/24/2021 2:15:00 PM 3.56 38.408 0.299 7.76 11.84 12.53
12/24/2021 2:30:00 PM 3.59 38.462 0.283 7.76 12.07 12.53
12/24/2021 2:45:00 PM 3.63 38.534 0.283 7.77 11.53 12.51
12/24/2021 3:00:00 PM 3.67 38.606 0.288 7.77 11.3 12.51
12/24/2021 3:15:00 PM 3.69 38.642 0.289 7.77 11.37 12.51
12/24/2021 3:30:00 PM 3.7 38.66 0.284 7.77 11.64 12.49
12/24/2021 3:45:00 PM 3.71 38.678 0.297 7.77 11.45 12.47
12/24/2021 4:00:00 PM 3.7 38.66 0.289 7.77 11.54 12.45
12/24/2021 4:15:00 PM 3.7 38.66 0.288 7.76 11.64 12.41
12/24/2021 4:30:00 PM 3.71 38.678 0.287 7.77 11.95 12.34
12/24/2021 4:45:00 PM 3.69 38.642 0.298 7.77 11.39 12.32
12/24/2021 5:00:00 PM 3.69 38.642 0.298 7.76 11.75 12.24
12/24/2021 5:15:00 PM 3.69 38.642 0.287 7.76 11.45 12.22
12/24/2021 5:30:00 PM 3.68 38.624 0.284 7.76 11.78 12.17
12/24/2021 5:45:00 PM 3.67 38.606 0.291 7.75 12.01 12.12
12/24/2021 6:00:00 PM 3.66 38.588 0.282 7.75 11.94 12.08
12/24/2021 6:15:00 PM 3.65 38.57 0.287 7.74 12.32 12.03
12/24/2021 6:30:00 PM 3.65 38.57 0.287 7.74 12.47 12.01
12/24/2021 6:45:00 PM 3.65 38.57 0.3 7.73 12.46 11.94
12/24/2021 7:00:00 PM 3.64 38.552 0.301 7.72 12.23 11.92
12/24/2021 7:15:00 PM 3.62 38.516 0.291 7.7 12.21 11.9
12/24/2021 7:30:00 PM 3.62 38.516 0.287 7.72 12.03 11.87
12/24/2021 7:45:00 PM 3.6 38.48 0.282 7.72 12.15 11.83
12/24/2021 8:00:00 PM 3.58 38.444 0.283 7.71 12.6 11.83
12/24/2021 8:15:00 PM 3.57 38.426 0.285 7.71 12.81 11.79
12/24/2021 8:30:00 PM 3.55 38.39 0.283 7.7 12.98 11.76
12/24/2021 8:45:00 PM 3.53 38.354 0.282 7.7 12.92 11.73
12/24/2021 9:00:00 PM 3.52 38.336 0.3 7.69 13.04 11.71
12/24/2021 9:15:00 PM 3.52 38.336 0.283 7.69 12.93 11.68
12/24/2021 9:30:00 PM 3.51 38.318 0.284 7.69 12.86 11.66
12/24/2021 9:45:00 PM 3.51 38.318 0.285 7.68 13 11.63
12/24/2021 10:00:00 PM 3.51 38.318 0.286 7.68 12.92 11.62
12/24/2021 10:15:00 PM 3.51 38.318 0.287 7.68 12.98 11.61
12/24/2021 10:30:00 PM 3.51 38.318 0.289 7.67 13.22 11.57
12/24/2021 10:45:00 PM 3.52 38.336 0.291 7.67 13.42 11.54
12/24/2021 11:00:00 PM 3.52 38.336 0.286 7.67 13.61 11.55
12/24/2021 11:15:00 PM 3.52 38.336 0.286 7.66 13.83 11.54
12/24/2021 11:30:00 PM 3.53 38.354 0.284 7.66 13.94 11.55
12/24/2021 11:45:00 PM 3.54 38.372 0.286 7.65 14.01 11.53
12/25/2021 12:00:00 AM 3.54 38.372 0.286 7.65 14.04 11.5
12/25/2021 12:15:00 AM 3.55 38.39 0.284 7.65 14.03 11.52
12/25/2021 12:30:00 AM 3.56 38.408 0.285 7.65 14.18 11.51
12/25/2021 12:45:00 AM 3.56 38.408 0.285 7.65 14.25 11.47
12/25/2021 1:00:00 AM 3.57 38.426 0.283 7.65 14.38 11.47
12/25/2021 1:15:00 AM 3.56 38.408 0.283 7.64 14.52 11.5
12/25/2021 1:30:00 AM 3.57 38.426 0.28 7.65 14.73 11.47
12/25/2021 1:45:00 AM 3.58 38.444 0.285 7.6 14.75 11.46
12/25/2021 2:00:00 AM 3.58 38.444 0.283 7.65 14.81 11.46
12/25/2021 2:15:00 AM 3.59 38.462 0.281 7.65 14.69 11.44
12/25/2021 2:30:00 AM 3.59 38.462 0.281 7.65 14.87 11.46
12/25/2021 2:45:00 AM 3.6 38.48 0.282 7.64 14.84 11.43
12/25/2021 3:00:00 AM 3.61 38.498 0.283 7.63 15 11.4
12/25/2021 3:15:00 AM 3.61 38.498 0.283 7.64 15.21 11.41
12/25/2021 3:30:00 AM 3.63 38.534 0.286 7.64 15.57 11.41
12/25/2021 3:45:00 AM 3.64 38.552 0.29 7.64 15.66 11.4
12/25/2021 4:00:00 AM 3.65 38.57 0.29 7.64 16.45 11.41
12/25/2021 4:15:00 AM 3.66 38.588 0.294 7.62 16.6 11.38
12/25/2021 4:30:00 AM 3.67 38.606 0.291 7.63 16.44 11.37
12/25/2021 4:45:00 AM 3.68 38.624 0.29 7.64 16.45 11.37
12/25/2021 5:00:00 AM 3.69 38.642 0.288 7.63 16.73 11.37
12/25/2021 5:15:00 AM 3.69 38.642 0.286 7.64 17.3 11.36
12/25/2021 5:30:00 AM 3.71 38.678 0.29 7.64 16.9 11.33
12/25/2021 5:45:00 AM 3.71 38.678 0.293 7.63 17.3 11.35
12/25/2021 6:00:00 AM 3.71 38.678 0.285 7.64 17.65 11.35
12/25/2021 6:15:00 AM 3.72 38.696 0.287 7.63 17.98 11.34
12/25/2021 6:30:00 AM 3.72 38.696 0.287 7.63 18.19 11.34
12/25/2021 6:45:00 AM 3.72 38.696 0.289 7.63 18.03 11.33
12/25/2021 7:00:00 AM 3.72 38.696 0.283 7.64 17.92 11.35
12/25/2021 7:15:00 AM 3.73 38.714 0.284 7.64 19.14 11.32
12/25/2021 7:30:00 AM 3.74 38.732 0.287 7.62 19.39 11.32
12/25/2021 7:45:00 AM 3.75 38.75 0.29 7.64 19.7 11.31
12/25/2021 8:00:00 AM 3.75 38.75 0.291 7.64 20.21 11.32
12/25/2021 8:15:00 AM 3.76 38.768 0.291 7.63 20.77 11.31
12/25/2021 8:30:00 AM 3.78 38.804 0.291 7.63 21.11 11.31
12/25/2021 8:45:00 AM 3.79 38.822 0.291 7.63 20.8 11.33
12/25/2021 9:00:00 AM 3.8 38.84 0.292 7.63 19.99 11.34
12/25/2021 9:15:00 AM 3.81 38.858 0.293 7.63 20.16 11.35
12/25/2021 9:30:00 AM 3.82 38.876 0.292 7.63 20.32 11.36
12/25/2021 9:45:00 AM 3.83 38.894 0.29 7.64 20.69 11.38
12/25/2021 10:00:00 AM 3.83 38.894 0.285 7.62 20.43 11.41
12/25/2021 10:15:00 AM 3.83 38.894 0.282 7.64 20.31 11.42
12/25/2021 10:30:00 AM 3.84 38.912 0.28 7.64 20.51 11.46
12/25/2021 10:45:00 AM 3.85 38.93 0.282 7.63 20.36 11.44
12/25/2021 11:00:00 AM 3.86 38.948 0.282 7.64 20.08 11.52
12/25/2021 11:15:00 AM 3.87 38.966 0.282 7.64 20.74 11.52
12/25/2021 11:30:00 AM 3.89 39.002 0.281 7.65 20.91 11.61
12/25/2021 11:45:00 AM 3.9 39.02 0.282 7.65 21.24 11.64
12/25/2021 12:00:00 PM 3.92 39.056 0.284 7.65 21.21 11.69
12/25/2021 12:15:00 PM 3.93 39.074 0.285 7.63 21.32 11.72
12/25/2021 12:30:00 PM 3.93 39.074 0.286 7.66 21.86 11.75
12/25/2021 12:45:00 PM 3.93 39.074 0.286 7.65 21.9 11.77
12/25/2021 1:00:00 PM 3.91 39.038 0.283 7.66 22.4 11.82
12/25/2021 1:15:00 PM 3.88 38.984 0.278 7.66 22.72 11.85
12/25/2021 1:30:00 PM 3.84 38.912 0.273 7.64 25.87 11.92
12/25/2021 1:45:00 PM 3.8 38.84 0.265 7.66 31.1 11.94
12/25/2021 2:00:00 PM 3.79 38.822 0.258 7.66 36.3 11.95
12/25/2021 2:15:00 PM 3.77 38.786 0.252 7.63 39.75 12
12/25/2021 2:30:00 PM 3.76 38.768 0.243 7.67 50.24 12.05
12/25/2021 2:45:00 PM 3.74 38.732 0.237 7.66 52.97 12.1
12/25/2021 3:00:00 PM 3.71 38.678 0.23 7.66 59.23 12.15
12/25/2021 3:15:00 PM 3.67 38.606 0.224 7.63 57.88 12.15
12/25/2021 3:30:00 PM 3.63 38.534 0.216 7.65 66.97 12.17
12/25/2021 3:45:00 PM 3.59 38.462 0.211 7.63 78.2 12.21
12/25/2021 4:00:00 PM 3.56 38.408 0.205 7.64 79.27 12.19
12/25/2021 4:15:00 PM 3.53 38.354 0.2 7.63 89.37 12.2
12/25/2021 4:30:00 PM 3.5 38.3 0.194 7.63 107.93 12.22
12/25/2021 4:45:00 PM 3.48 38.264 0.191 7.58 118.68 12.25
12/25/2021 5:00:00 PM 3.46 38.228 0.186 7.59 123.91 12.26
12/25/2021 5:15:00 PM 3.44 38.192 0.184 7.61 125.62 12.24
12/25/2021 5:30:00 PM 3.42 38.156 0.181 7.61 129.77 12.24
12/25/2021 5:45:00 PM 3.41 38.138 0.179 7.59 128.48 12.2
12/25/2021 6:00:00 PM 3.4 38.12 0.179 7.54 129.75 12.21
12/25/2021 6:15:00 PM 3.4 38.12 0.176 7.58 137.47 12.18
12/25/2021 6:30:00 PM 3.4 38.12 0.175 7.58 162.83 12.15
12/25/2021 6:45:00 PM 3.39 38.102 0.175 7.57 168.91 12.14
12/25/2021 7:00:00 PM 3.39 38.102 0.175 7.56 170.94 12.09
12/25/2021 7:15:00 PM 3.4 38.12 0.174 7.56 176.74 12.08
12/25/2021 7:30:00 PM 3.41 38.138 0.173 7.55 188.32 12.06
12/25/2021 7:45:00 PM 3.42 38.156 0.173 7.52 191.9 12.05
12/25/2021 8:00:00 PM 3.44 38.192 0.17 7.54 193.09 12.04
12/25/2021 8:15:00 PM 3.46 38.228 0.17 7.52 196.99 12.03
12/25/2021 8:30:00 PM 3.48 38.264 0.168 7.52 213.76 12.02
12/25/2021 8:45:00 PM 3.49 38.282 0.167 7.53 216.62 11.99
12/25/2021 9:00:00 PM 3.5 38.3 0.167 7.5 186.54 11.99
12/25/2021 9:15:00 PM 3.52 38.336 0.165 7.52 193.07 11.98
12/25/2021 9:30:00 PM 3.53 38.354 0.164 7.52 190.84 11.97
12/25/2021 9:45:00 PM 3.55 38.39 0.166 7.47 192.12 11.96
12/25/2021 10:00:00 PM 3.55 38.39 0.164 7.51 190.38 11.94
12/25/2021 10:15:00 PM 3.56 38.408 0.163 7.51 196.29 11.93
12/25/2021 10:30:00 PM 3.57 38.426 0.164 7.48 202.5 11.92
12/25/2021 10:45:00 PM 3.58 38.444 0.163 7.5 207.38 11.89
12/25/2021 11:00:00 PM 3.6 38.48 0.162 7.51 202.65 11.88
12/25/2021 11:15:00 PM 3.61 38.498 0.166 7.49 207.33 11.88
12/25/2021 11:30:00 PM 3.63 38.534 0.162 7.49 211.45 11.86
12/25/2021 11:45:00 PM 3.65 38.57 0.161 7.48 216.16 11.84
12/26/2021 12:00:00 AM 3.66 38.588 0.161 7.48 211.9 11.83
12/26/2021 12:15:00 AM 3.68 38.624 0.176 7.48 217.94 11.81
12/26/2021 12:30:00 AM 3.7 38.66 0.172 7.47 213.86 11.8
12/26/2021 12:45:00 AM 3.71 38.678 0.171 7.48 223.32 11.78
12/26/2021 1:00:00 AM 3.72 38.696 0.17 7.49 228.42 11.79
12/26/2021 1:15:00 AM 3.73 38.714 0.17 7.49 228.58 11.76
12/26/2021 1:30:00 AM 3.75 38.75 0.177 7.47 224.14 11.77
12/26/2021 1:45:00 AM 3.76 38.768 0.175 7.48 224.74 11.74
12/26/2021 2:00:00 AM 3.77 38.786 0.175 7.46 224.73 11.74
12/26/2021 2:15:00 AM 3.77 38.786 0.172 7.5 222.35 11.73
12/26/2021 2:30:00 AM 3.78 38.804 0.17 7.5 230 11.72
12/26/2021 2:45:00 AM 3.78 38.804 0.173 7.5 232.37 11.71
12/26/2021 3:00:00 AM 3.78 38.804 0.172 7.49 231.28 11.72
12/26/2021 3:15:00 AM 3.78 38.804 0.173 7.48 245.52 11.7
12/26/2021 3:30:00 AM 3.78 38.804 0.17 7.5 238.32 11.71
12/26/2021 3:45:00 AM 3.77 38.786 0.176 7.5 234.37 11.68
12/26/2021 4:00:00 AM 3.77 38.786 0.173 7.5 234.82 11.69
12/26/2021 4:15:00 AM 3.76 38.768 0.169 7.47 231.22 11.69
12/26/2021 4:30:00 AM 3.76 38.768 0.172 7.49 232.15 11.69
12/26/2021 4:45:00 AM 3.75 38.75 0.168 7.49 241.32 11.7
12/26/2021 5:00:00 AM 3.74 38.732 0.168 7.49 235.01 11.71
12/26/2021 5:15:00 AM 3.74 38.732 0.171 7.5 236.26 11.7
12/26/2021 5:30:00 AM 3.72 38.696 0.172 7.5 232.82 11.68
12/26/2021 5:45:00 AM 3.72 38.696 0.173 7.48 233.92 11.71
12/26/2021 6:00:00 AM 3.71 38.678 0.183 7.49 235.81 11.71
12/26/2021 6:15:00 AM 3.71 38.678 0.18 7.51 238.21 11.69
12/26/2021 6:30:00 AM 3.71 38.678 0.186 7.5 236.54 11.69
12/26/2021 6:45:00 AM 3.71 38.678 0.183 7.48 234.93 11.7
12/26/2021 7:00:00 AM 3.7 38.66 0.18 7.51 244.44 11.69
12/26/2021 7:15:00 AM 3.71 38.678 0.179 7.48 246.15 11.69
12/26/2021 7:30:00 AM 3.7 38.66 0.18 7.5 243.23 11.71
12/26/2021 7:45:00 AM 3.69 38.642 0.18 7.49 124.32 11.68
12/26/2021 8:00:00 AM 3.69 38.642 0.179 7.5 127.78 11.69
12/26/2021 8:15:00 AM 3.69 38.642 0.18 7.46 124.79 11.7
12/26/2021 8:30:00 AM 3.69 38.642 0.18 7.51 125.33 11.7
12/26/2021 8:45:00 AM 3.69 38.642 0.184 7.51 123.57 11.71
12/26/2021 9:00:00 AM 3.7 38.66 0.185 7.5 125.29 11.74
12/26/2021 9:15:00 AM 3.71 38.678 0.185 7.51 120.79 11.77
12/26/2021 9:30:00 AM 3.72 38.696 0.18 7.52 125.1 11.81
12/26/2021 9:45:00 AM 3.73 38.714 0.176 7.52 126.42 11.81
12/26/2021 10:00:00 AM 3.75 38.75 0.174 7.52 124.09 11.83
12/26/2021 10:15:00 AM 3.77 38.786 0.181 7.51 123.28 11.87
12/26/2021 10:30:00 AM 3.78 38.804 0.178 7.49 122.8 11.88
12/26/2021 10:45:00 AM 3.78 38.804 0.176 7.53 127.7 11.89
12/26/2021 11:00:00 AM 3.79 38.822 0.18 7.54 130.12 11.94
12/26/2021 11:15:00 AM 3.8 38.84 0.191 7.54 127.05 11.98
12/26/2021 11:30:00 AM 3.81 38.858 0.191 7.55 128.99 12
12/26/2021 11:45:00 AM 3.82 38.876 0.193 7.57 128.71 12.03
12/26/2021 12:00:00 PM 3.84 38.912 0.193 7.58 128.51 12.06
12/26/2021 12:15:00 PM 3.86 38.948 0.192 7.58 130.35 12.09
12/26/2021 12:30:00 PM 3.89 39.002 0.192 7.58 131.64 12.11
12/26/2021 12:45:00 PM 3.94 39.092 0.184 7.56 130.12 12.13
12/26/2021 1:00:00 PM 3.96 39.128 0.196 7.56 128.47 12.16
12/26/2021 1:15:00 PM 3.99 39.182 0.192 7.59 128.88 12.17
12/26/2021 1:30:00 PM 4.01 39.218 0.195 7.6 129.5 12.17
12/26/2021 1:45:00 PM 4.03 39.254 0.195 7.6 132.54 12.19
12/26/2021 2:00:00 PM 4.05 39.29 0.194 7.61 133.71 12.21
12/26/2021 2:15:00 PM 4.08 39.344 0.184 7.59 132.38 12.22
12/26/2021 2:30:00 PM 4.09 39.362 0.194 7.61 135.22 12.22
12/26/2021 2:45:00 PM 4.11 39.398 0.192 7.61 134.89 12.22
12/26/2021 3:00:00 PM 4.14 39.452 0.191 7.61 132.69 12.22
12/26/2021 3:15:00 PM 4.16 39.488 0.193 7.61 140.53 12.22
12/26/2021 3:30:00 PM 4.17 39.506 0.197 7.62 139.99 12.19
12/26/2021 3:45:00 PM 4.18 39.524 0.191 7.59 147.62 12.17
12/26/2021 4:00:00 PM 4.19 39.542 0.19 7.62 143.05 12.15
12/26/2021 4:15:00 PM 4.19 39.542 0.193 7.62 143.66 12.13
12/26/2021 4:30:00 PM 4.19 39.542 0.205 7.63 139.06 12.11
12/26/2021 4:45:00 PM 4.18 39.524 0.204 7.62 141.51 12.06
12/26/2021 5:00:00 PM 4.17 39.506 0.203 7.62 143.22 12.03
12/26/2021 5:15:00 PM 4.16 39.488 0.207 7.61 145.33 11.98
12/26/2021 5:30:00 PM 4.15 39.47 0.206 7.59 140.13 11.97
12/26/2021 5:45:00 PM 4.14 39.452 0.2 7.6 142.42 11.93
12/26/2021 6:00:00 PM 4.13 39.434 0.207 7.58 136.22 11.9
12/26/2021 6:15:00 PM 4.12 39.416 0.194 7.58 134.44 11.88
12/26/2021 6:30:00 PM 4.1 39.38 0.207 7.59 136.67 11.85
12/26/2021 6:45:00 PM 4.09 39.362 0.205 7.57 139.04 11.83
12/26/2021 7:00:00 PM 4.07 39.326 0.196 7.58 134.95 11.82
12/26/2021 7:15:00 PM 4.06 39.308 0.203 7.57 130.33 11.79
12/26/2021 7:30:00 PM 4.04 39.272 0.206 7.59 129.08 11.78
12/26/2021 7:45:00 PM 4.03 39.254 0.209 7.55 122.91 11.75
12/26/2021 8:00:00 PM 4.02 39.236 0.205 7.58 119.61 11.74
12/26/2021 8:15:00 PM 4.01 39.218 0.205 7.58 113.11 11.71
12/26/2021 8:30:00 PM 4 39.2 0.208 7.59 119.21 11.7
12/26/2021 8:45:00 PM 3.98 39.164 0.215 7.59 116.85 11.71
12/26/2021 9:00:00 PM 3.96 39.128 0.215 7.57 125.3 11.69
12/26/2021 9:15:00 PM 3.94 39.092 0.214 7.59 121.33 11.68
12/26/2021 9:30:00 PM 3.92 39.056 0.217 7.58 124.37 11.66
12/26/2021 9:45:00 PM 3.9 39.02 0.219 7.59 116.55 11.66
12/26/2021 10:00:00 PM 3.88 38.984 0.209 7.57 111.44 11.68
12/26/2021 10:15:00 PM 3.86 38.948 0.221 7.6 109 11.67
12/26/2021 10:30:00 PM 3.86 38.948 0.22 7.58 106.67 11.66
12/26/2021 10:45:00 PM 3.85 38.93 0.211 7.6 103.96 11.66
12/26/2021 11:00:00 PM 3.84 38.912 0.218 7.59 105.71 11.66
12/26/2021 11:15:00 PM 3.82 38.876 0.214 7.59 103 11.66
12/26/2021 11:30:00 PM 3.82 38.876 0.204 7.58 96.34 11.65
12/26/2021 11:45:00 PM 3.81 38.858 0.203 7.57 89.76 11.65
12/27/2021 12:00:00 AM 3.79 38.822 0.201 7.57 84.32 11.65
12/27/2021 12:15:00 AM 3.77 38.786 0.2 7.57 81.43 11.64
12/27/2021 12:30:00 AM 3.74 38.732 0.201 7.57 77.2 11.65
12/27/2021 12:45:00 AM 3.72 38.696 0.211 7.57 73.08 11.66
12/27/2021 1:00:00 AM 3.71 38.678 0.212 7.57 68.39 11.65
12/27/2021 1:15:00 AM 3.69 38.642 0.214 7.57 65.5 11.64
12/27/2021 1:30:00 AM 3.67 38.606 0.219 7.57 66.19 11.65
12/27/2021 1:45:00 AM 3.65 38.57 0.219 7.58 60.08 11.66
12/27/2021 2:00:00 AM 3.63 38.534 0.212 7.58 58.14 11.64
12/27/2021 2:15:00 AM 3.6 38.48 0.211 7.58 57.91 11.66
12/27/2021 2:30:00 AM 3.58 38.444 0.212 7.58 59.33 11.67
12/27/2021 2:45:00 AM 3.56 38.408 0.214 7.57 54.31 11.66
12/27/2021 3:00:00 AM 3.55 38.39 0.214 7.59 52.9 11.67
12/27/2021 3:15:00 AM 3.54 38.372 0.215 7.58 51.8 11.67
12/27/2021 3:30:00 AM 3.52 38.336 0.216 7.59 47.78 11.66
12/27/2021 3:45:00 AM 3.5 38.3 0.216 7.59 45.89 11.65
12/27/2021 4:00:00 AM 3.48 38.264 0.215 7.58 42.04 11.67
12/27/2021 4:15:00 AM 3.46 38.228 0.215 7.59 42.34 11.68
12/27/2021 4:30:00 AM 3.43 38.174 0.214 7.59 39.66 11.7
12/27/2021 4:45:00 AM 3.4 38.12 0.215 7.59 39.17 11.69
12/27/2021 5:00:00 AM 3.38 38.084 0.217 7.59 39.03 11.7
12/27/2021 5:15:00 AM 3.35 38.03 0.218 7.59 36.76 11.72
12/27/2021 5:30:00 AM 3.32 37.976 0.221 7.59 34.11 11.71
12/27/2021 5:45:00 AM 3.3 37.94 0.222 7.59 34.64 11.72
12/27/2021 6:00:00 AM 3.27 37.886 0.222 7.59 32.02 11.72
12/27/2021 6:15:00 AM 3.25 37.85 0.222 7.6 33.17 11.73
12/27/2021 6:30:00 AM 3.23 37.814 0.222 7.6 33.33 11.73
12/27/2021 6:45:00 AM 3.22 37.796 0.222 7.6 33.23 11.73
12/27/2021 7:00:00 AM 3.21 37.778 0.223 7.6 29.87 11.74
12/27/2021 7:15:00 AM 3.2 37.76 0.224 7.58 30.49 11.74
12/27/2021 7:30:00 AM 3.19 37.742 0.224 7.58 29.09 11.75
12/27/2021 7:45:00 AM 3.18 37.724 0.224 7.59 29.18 11.76
12/27/2021 8:00:00 AM 3.18 37.724 0.223 7.59 29.49 11.77
12/27/2021 8:15:00 AM 3.17 37.706 0.222 7.59 28.27 11.76
12/27/2021 8:30:00 AM 3.17 37.706 0.223 7.59 28.84 11.76
12/27/2021 8:45:00 AM 3.15 37.67 0.223 7.59 28.28 11.77
12/27/2021 9:00:00 AM 3.15 37.67 0.223 7.59 28.99 11.79
12/27/2021 9:15:00 AM 3.14 37.652 0.224 7.57 29.04 11.8
12/27/2021 9:30:00 AM 3.13 37.634 0.225 7.6 28.47 11.83
12/27/2021 9:45:00 AM 3.12 37.616 0.226 7.58 27.48 11.85
12/27/2021 10:00:00 AM 3.1 37.58 0.227 7.6 26.25 11.89
12/27/2021 10:15:00 AM 3.09 37.562 0.228 7.61 25.99 11.91
12/27/2021 10:30:00 AM 3.1 37.58 0.228 7.61 28.17 11.97
12/27/2021 10:45:00 AM 3.11 37.598 0.229 7.6 26.14 12
12/27/2021 11:00:00 AM 3.13 37.634 0.229 7.61 24.65 12.04
12/27/2021 11:15:00 AM 3.13 37.634 0.229 7.62 22.4 12.06
12/27/2021 11:30:00 AM 3.14 37.652 0.229 7.64 22.24 12.09
12/27/2021 11:45:00 AM 3.15 37.67 0.23 7.63 21.11 12.12
12/27/2021 12:00:00 PM 3.16 37.688 0.231 7.65 21.11 12.13
12/27/2021 12:15:00 PM 3.16 37.688 0.233 7.66 19.73 12.13
12/27/2021 12:30:00 PM 3.12 37.616 0.234 7.66 19.84 12.16
12/27/2021 12:45:00 PM 3.12 37.616 0.235 7.67 19.91 12.18
12/27/2021 1:00:00 PM 3.17 37.706 0.235 7.67 19.6 12.23
12/27/2021 1:15:00 PM 3.19 37.742 0.236 7.68 18.67 12.24
12/27/2021 1:30:00 PM 3.18 37.724 0.238 7.67 17.84 12.26
12/27/2021 1:45:00 PM 3.19 37.742 0.238 7.69 17.98 12.29
12/27/2021 2:00:00 PM 3.21 37.778 0.238 7.69 18.02 12.3
12/27/2021 2:15:00 PM 3.23 37.814 0.238 7.68 18.12 12.3
12/27/2021 2:30:00 PM 3.25 37.85 0.238 7.68 17.44 12.3
12/27/2021 2:45:00 PM 3.25 37.85 0.237 7.7 17.62 12.28
12/27/2021 3:00:00 PM 3.25 37.85 0.236 7.7 17.5 12.26
12/27/2021 3:15:00 PM 3.25 37.85 0.235 7.7 17.13 12.24
12/27/2021 3:30:00 PM 3.26 37.868 0.234 7.69 17.36 12.23
12/27/2021 3:45:00 PM 3.26 37.868 0.232 7.69 18.31 12.22
12/27/2021 4:00:00 PM 3.28 37.904 0.231 7.69 17.77 12.19
12/27/2021 4:15:00 PM 3.28 37.904 0.229 7.68 17.66 12.18
12/27/2021 4:30:00 PM 3.28 37.904 0.227 7.68 17.22 12.15
12/27/2021 4:45:00 PM 3.28 37.904 0.225 7.66 18.35 12.12
12/27/2021 5:00:00 PM 3.29 37.922 0.225 7.66 19.59 12.09
12/27/2021 5:15:00 PM 3.29 37.922 0.226 7.66 18.19 12.05
12/27/2021 5:30:00 PM 3.29 37.922 0.227 7.66 18.51 12.03
12/27/2021 5:45:00 PM 3.27 37.886 0.229 7.66 17.57 12
12/27/2021 6:00:00 PM 3.26 37.868 0.231 7.66 17.69 11.98
12/27/2021 6:15:00 PM 3.27 37.886 0.234 7.66 16.36 11.95
12/27/2021 6:30:00 PM 3.27 37.886 0.235 7.62 15.93 11.94
12/27/2021 6:45:00 PM 3.27 37.886 0.237 7.67 16.57 11.9
12/27/2021 7:00:00 PM 3.27 37.886 0.238 7.67 15.93 11.89
12/27/2021 7:15:00 PM 3.23 37.814 0.238 7.66 15.09 11.89
12/27/2021 7:30:00 PM 3.22 37.796 0.238 7.66 15.77 11.87
12/27/2021 7:45:00 PM 3.22 37.796 0.238 7.66 15.77 11.86
12/27/2021 8:00:00 PM 3.21 37.778 0.239 7.66 16.28 11.84
12/27/2021 8:15:00 PM 3.2 37.76 0.239 7.66 16.51 11.82
12/27/2021 8:30:00 PM 3.2 37.76 0.24 7.65 16.32 11.82
12/27/2021 8:45:00 PM 3.2 37.76 0.24 7.65 16.16 11.8
12/27/2021 9:00:00 PM 3.21 37.778 0.243 7.65 15.89 11.78
12/27/2021 9:15:00 PM 3.22 37.796 0.256 7.65 15.53 11.77
12/27/2021 9:30:00 PM 3.23 37.814 0.273 7.64 15.4 11.74
12/27/2021 9:45:00 PM 3.23 37.814 0.282 7.64 16.25 11.71
12/27/2021 10:00:00 PM 3.24 37.832 0.282 7.64 18.71 11.7
12/27/2021 10:15:00 PM 3.24 37.832 0.275 7.64 14.04 11.7
12/27/2021 10:30:00 PM 3.25 37.85 0.266 7.64 13.57 11.7
12/27/2021 10:45:00 PM 3.25 37.85 0.259 7.64 13.82 11.7
12/27/2021 11:00:00 PM 3.26 37.868 0.253 7.64 12.92 11.68
12/27/2021 11:15:00 PM 3.26 37.868 0.249 7.64 13.79 11.67
12/27/2021 11:30:00 PM 3.26 37.868 0.247 7.64 15.71 11.68
12/27/2021 11:45:00 PM 3.26 37.868 0.246 7.64 13.12 11.68
12/28/2021 12:00:00 AM 3.26 37.868 0.245 7.65 12.39 11.68
12/28/2021 12:15:00 AM 3.26 37.868 0.244 7.64 13.71 11.68
12/28/2021 12:30:00 AM 3.26 37.868 0.244 7.64 13.6 11.67
12/28/2021 12:45:00 AM 3.27 37.886 0.243 7.64 12.73 11.68
12/28/2021 1:00:00 AM 3.27 37.886 0.243 7.64 13.34 11.68
12/28/2021 1:15:00 AM 3.28 37.904 0.243 7.63 13.71 11.66
12/28/2021 1:30:00 AM 3.29 37.922 0.243 7.64 10.2 11.68
12/28/2021 1:45:00 AM 3.3 37.94 0.244 7.64 11.45 11.65
12/28/2021 2:00:00 AM 3.3 37.94 0.244 7.64 11.99 11.66
12/28/2021 2:15:00 AM 3.32 37.976 0.245 7.64 11.65 11.66
12/28/2021 2:30:00 AM 3.32 37.976 0.247 7.64 11.26 11.64
12/28/2021 2:45:00 AM 3.33 37.994 0.248 7.64 12.67 11.63
12/28/2021 3:00:00 AM 3.34 38.012 0.251 7.64 11.58 11.64
12/28/2021 3:15:00 AM 3.35 38.03 0.252 7.64 11.4 11.64
12/28/2021 3:30:00 AM 3.36 38.048 0.253 7.64 10.86 11.65
12/28/2021 3:45:00 AM 3.36 38.048 0.254 7.65 12.31 11.64
12/28/2021 4:00:00 AM 3.37 38.066 0.256 7.64 12.35 11.64
12/28/2021 4:15:00 AM 3.38 38.084 0.258 7.64 12.42 11.64
12/28/2021 4:30:00 AM 3.39 38.102 0.26 7.65 12.1 11.62
12/28/2021 4:45:00 AM 3.39 38.102 0.261 7.64 12.26 11.63
12/28/2021 5:00:00 AM 3.38 38.084 0.263 7.64 11.72 11.63
12/28/2021 5:15:00 AM 3.37 38.066 0.264 7.65 11.46 11.61
12/28/2021 5:30:00 AM 3.35 38.03 0.265 7.63 10.63 11.61
12/28/2021 5:45:00 AM 3.33 37.994 0.266 7.65 10.45 11.62
12/28/2021 6:00:00 AM 3.31 37.958 0.267 7.65 9.54 11.61
12/28/2021 6:15:00 AM 3.3 37.94 0.267 7.61 9.97 11.62
12/28/2021 6:30:00 AM 3.3 37.94 0.268 7.64 9.2 11.62
12/28/2021 6:45:00 AM 3.29 37.922 0.267 7.64 9.33 11.62
12/28/2021 7:00:00 AM 3.3 37.94 0.267 7.64 9.65 11.62
12/28/2021 7:15:00 AM 3.3 37.94 0.266 7.63 9.64 11.62
12/28/2021 7:30:00 AM 3.3 37.94 0.265 7.64 9.35 11.62
12/28/2021 7:45:00 AM 3.29 37.922 0.265 7.64 8.62 11.65
12/28/2021 8:00:00 AM 3.28 37.904 0.265 7.61 9.54 11.65
12/28/2021 8:15:00 AM 3.26 37.868 0.265 7.64 8.96 11.67
12/28/2021 8:30:00 AM 3.27 37.886 0.266 7.64 8.65 11.7
12/28/2021 8:45:00 AM 3.28 37.904 0.266 7.65 8.29 11.73
12/28/2021 9:00:00 AM 3.28 37.904 0.266 7.65 7.88 11.75
12/28/2021 9:15:00 AM 3.29 37.922 0.265 7.65 7.87 11.8
12/28/2021 9:30:00 AM 3.32 37.976 0.264 7.66 7.47 11.84
12/28/2021 9:45:00 AM 3.34 38.012 0.262 7.64 7.36 11.88
12/28/2021 10:00:00 AM 3.36 38.048 0.261 7.66 7.68 11.94
12/28/2021 10:15:00 AM 3.39 38.102 0.26 7.66 5.95 11.98
12/28/2021 10:30:00 AM 3.4 38.12 0.257 7.67 5.88 12.02
12/28/2021 10:45:00 AM 3.45 38.21 0.281 7.66 5.86 12.05
12/28/2021 11:00:00 AM 3.51 38.318 0.255 7.67 5.52 12.1
12/28/2021 11:15:00 AM 3.57 38.426 0.255 7.67 5.53 12.14
12/28/2021 11:30:00 AM 3.63 38.534 0.262 7.68 5.39 12.16
12/28/2021 11:45:00 AM 3.7 38.66 0.263 7.68 5.33 12.19
12/28/2021 12:00:00 PM 3.78 38.804 0.262 7.67 5.28 12.23
12/28/2021 12:15:00 PM 3.86 38.948 0.261 7.69 5.45 12.26
12/28/2021 12:30:00 PM 3.93 39.074 0.26 7.7 5.4 12.28
12/28/2021 12:45:00 PM 4.02 39.236 0.259 7.7 5.47 12.32
12/28/2021 1:00:00 PM 4.08 39.344 0.256 7.71 5.42 12.33
12/28/2021 1:15:00 PM 4.13 39.434 0.261 7.71 5.14 12.36
12/28/2021 1:30:00 PM 4.17 39.506 0.263 7.72 5.07 12.36
12/28/2021 1:45:00 PM 4.21 39.578 0.265 7.73 4.94 12.35
12/28/2021 2:00:00 PM 4.23 39.614 0.265 7.73 4.86 12.35
12/28/2021 2:15:00 PM 4.25 39.65 0.265 7.73 4.47 12.33
12/28/2021 2:30:00 PM 4.27 39.686 0.265 7.73 4.45 12.29
12/28/2021 2:45:00 PM 4.29 39.722 0.265 7.7 4.21 12.28
12/28/2021 3:00:00 PM 4.32 39.776 0.258 7.73 4.08 12.25
12/28/2021 3:15:00 PM 4.35 39.83 0.256 7.73 4.09 12.21
12/28/2021 3:30:00 PM 4.37 39.866 0.256 7.7 3.77 12.16
12/28/2021 3:45:00 PM 4.37 39.866 0.254 7.7 3.66 12.13
12/28/2021 4:00:00 PM 4.37 39.866 0.253 7.72 3.77 12.1
12/28/2021 4:15:00 PM 4.37 39.866 0.251 7.71 3.52 12.05
12/28/2021 4:30:00 PM 4.35 39.83 0.249 7.71 3.67 11.99
12/28/2021 4:45:00 PM 4.34 39.812 0.247 7.7 3.57 11.95
12/28/2021 5:00:00 PM 4.31 39.758 0.202 7.7 3.56 11.91
12/28/2021 5:15:00 PM 4.3 39.74 0.233 7.66 5.08 11.88
12/28/2021 5:30:00 PM 4.29 39.722 0.249 7.66 4.74 11.81
12/28/2021 5:45:00 PM 4.27 39.686 0.223 7.66 9.57 11.77
12/28/2021 6:00:00 PM 4.27 39.686 0.252 7.66 4.56 11.76
12/28/2021 6:15:00 PM 4.27 39.686 0.244 7.65 5.82 11.73
12/28/2021 6:30:00 PM 4.26 39.668 0.24 7.65 3.79 11.71
12/28/2021 6:45:00 PM 4.25 39.65 0.242 7.65 7.55 11.65
12/28/2021 7:00:00 PM 4.22 39.596 0.244 7.65 4.02 11.64
12/28/2021 7:15:00 PM 4.19 39.542 0.251 7.64 3.86 11.6
12/28/2021 7:30:00 PM 4.07 39.326 0.251 7.62 4.18 11.58
12/28/2021 7:45:00 PM 4.01 39.218 0.253 7.64 6.2 11.56
12/28/2021 8:00:00 PM 3.93 39.074 0.249 7.63 3.77 11.55
12/28/2021 8:15:00 PM 3.87 38.966 0.248 7.63 4.43 11.52
12/28/2021 8:30:00 PM 3.81 38.858 0.245 7.61 4.49 11.55
12/28/2021 8:45:00 PM 3.8 38.84 0.243 7.62 3.9 11.53
12/28/2021 9:00:00 PM 3.79 38.822 0.236 7.61 3.99 11.55
12/28/2021 9:15:00 PM 3.77 38.786 0.238 7.61 4.4 11.55
12/28/2021 9:30:00 PM 3.77 38.786 0.243 7.61 3.85 11.51
12/28/2021 9:45:00 PM 3.76 38.768 0.241 7.6 3.61 11.54
12/28/2021 10:00:00 PM 3.74 38.732 0.232 7.6 3.84 11.56
12/28/2021 10:15:00 PM 3.71 38.678 0.228 7.6 3.69 11.56
12/28/2021 10:30:00 PM 3.68 38.624 0.226 7.6 3.66 11.54
12/28/2021 10:45:00 PM 3.64 38.552 0.238 7.61 3.99 11.52
12/28/2021 11:00:00 PM 3.62 38.516 0.237 7.6 3.78 11.58
12/28/2021 11:15:00 PM 3.6 38.48 0.241 7.6 7.27 11.61
12/28/2021 11:30:00 PM 3.59 38.462 0.262 7.59 13.73 11.62
12/28/2021 11:45:00 PM 3.57 38.426 0.28 7.6 4.34 11.61
12/29/2021 12:00:00 AM 3.56 38.408 0.293 7.59 4.33 11.63
12/29/2021 12:15:00 AM 3.55 38.39 0.312 7.58 6.37 11.62
12/29/2021 12:30:00 AM 3.54 38.372 0.295 7.58 4.51 11.62
12/29/2021 12:45:00 AM 3.55 38.39 0.299 7.59 4.63 11.63
12/29/2021 1:00:00 AM 3.54 38.372 0.226 7.59 4.41 11.65
12/29/2021 1:15:00 AM 3.54 38.372 0.295 7.59 5.61 11.66
12/29/2021 1:30:00 AM 3.53 38.354 0.297 7.61 3.82 11.66
12/29/2021 1:45:00 AM 3.53 38.354 0.29 7.59 3.7 11.67
12/29/2021 2:00:00 AM 3.53 38.354 0.285 7.6 5.41 11.67
12/29/2021 2:15:00 AM 3.51 38.318 0.282 7.6 3.83 11.65
12/29/2021 2:30:00 AM 3.51 38.318 0.277 7.58 4.26 11.67
12/29/2021 2:45:00 AM 3.49 38.282 0.277 7.58 4.25 11.67
12/29/2021 3:00:00 AM 3.48 38.264 0.273 7.59 4.33 11.67
12/29/2021 3:15:00 AM 3.47 38.246 0.274 7.59 5.61 11.68
12/29/2021 3:30:00 AM 3.46 38.228 0.271 7.59 7.19 11.67
12/29/2021 3:45:00 AM 3.46 38.228 0.279 7.58 5.12 11.68
12/29/2021 4:00:00 AM 3.46 38.228 0.286 7.58 4.35 11.68
12/29/2021 4:15:00 AM 3.46 38.228 0.275 7.58 4.86 11.66
12/29/2021 4:30:00 AM 3.47 38.246 0.273 7.56 4.61 11.65
12/29/2021 4:45:00 AM 3.48 38.264 0.276 7.58 3.9 11.65
12/29/2021 5:00:00 AM 3.5 38.3 0.276 7.58 4.54 11.64
12/29/2021 5:15:00 AM 3.5 38.3 0.277 7.57 5.76 11.63
12/29/2021 5:30:00 AM 3.51 38.318 0.277 7.58 5.39 11.63
12/29/2021 5:45:00 AM 3.52 38.336 0.271 7.57 4.72 11.62
12/29/2021 6:00:00 AM 3.52 38.336 0.276 7.58 4.97 11.63
12/29/2021 6:15:00 AM 3.53 38.354 0.278 7.58 4.14 11.61
12/29/2021 6:30:00 AM 3.52 38.336 0.278 7.58 4.12 11.61
12/29/2021 6:45:00 AM 3.53 38.354 0.288 7.58 4.05 11.6
12/29/2021 7:00:00 AM 3.53 38.354 0.297 7.58 4.13 11.6
12/29/2021 7:15:00 AM 3.53 38.354 0.3 7.57 4.13 11.6
12/29/2021 7:30:00 AM 3.53 38.354 0.298 7.59 3.97 11.6
12/29/2021 7:45:00 AM 3.53 38.354 0.298 7.58 3.64 11.61
12/29/2021 8:00:00 AM 3.54 38.372 0.293 7.58 3.58 11.62
12/29/2021 8:15:00 AM 3.54 38.372 0.3 7.58 3.57 11.61
12/29/2021 8:30:00 AM 3.54 38.372 0.293 7.59 3.44 11.63
12/29/2021 8:45:00 AM 3.55 38.39 0.294 7.59 3.37 11.63
12/29/2021 9:00:00 AM 3.55 38.39 0.297 7.59 3.64 11.65
12/29/2021 9:15:00 AM 3.57 38.426 0.293 7.6 3.52 11.66
12/29/2021 9:30:00 AM 3.58 38.444 0.302 7.6 3.4 11.67
12/29/2021 9:45:00 AM 3.59 38.462 0.28 7.6 3.65 11.68
12/29/2021 10:00:00 AM 3.6 38.48 0.292 7.6 3.39 11.71
12/29/2021 10:15:00 AM 3.62 38.516 0.289 7.6 3.51 11.74
12/29/2021 10:30:00 AM 3.64 38.552 0.286 7.6 3.49 11.77
12/29/2021 10:45:00 AM 3.66 38.588 0.287 7.61 3.55 11.81
12/29/2021 11:00:00 AM 3.69 38.642 0.25 7.6 3.59 11.84
12/29/2021 11:15:00 AM 3.71 38.678 0.27 7.6 3.61 11.87
12/29/2021 11:30:00 AM 3.74 38.732 0.27 7.6 3.86 11.89
12/29/2021 11:45:00 AM 3.77 38.786 0.26 7.54 4.04 11.92
12/29/2021 12:00:00 PM 3.79 38.822 0.268 7.6 3.76 11.96
12/29/2021 12:15:00 PM 3.82 38.876 0.267 7.62 3.71 11.97
12/29/2021 12:30:00 PM 3.85 38.93 0.268 7.62 3.67 12.01
12/29/2021 12:45:00 PM 3.89 39.002 0.261 7.59 4.51 12.05
12/29/2021 1:00:00 PM 3.93 39.074 0.262 7.62 3.84 12.09
12/29/2021 1:15:00 PM 3.98 39.164 0.264 7.63 3.73 12.13
12/29/2021 1:30:00 PM 4.04 39.272 0.198 7.61 4.15 12.15
12/29/2021 1:45:00 PM 4.1 39.38 0.263 7.63 3.7 12.19
12/29/2021 2:00:00 PM 4.16 39.488 0.266 7.62 6.15 12.21
12/29/2021 2:15:00 PM 4.2 39.56 0.266 7.65 3.64 12.23
12/29/2021 2:30:00 PM 4.25 39.65 0.27 7.64 3.69 12.24
12/29/2021 2:45:00 PM 4.27 39.686 0.265 7.66 3.7 12.23
12/29/2021 3:00:00 PM 4.3 39.74 0.265 7.66 3.91 12.23
12/29/2021 3:15:00 PM 4.32 39.776 0.264 7.66 3.61 12.22
12/29/2021 3:30:00 PM 4.34 39.812 0.263 7.67 3.74 12.21
12/29/2021 3:45:00 PM 4.35 39.83 0.263 7.66 3.66 12.16
12/29/2021 4:00:00 PM 4.36 39.848 0.258 7.65 4.85 12.15
12/29/2021 4:15:00 PM 4.37 39.866 0.266 7.65 4.02 12.14
12/29/2021 4:30:00 PM 4.37 39.866 0.259 7.65 4.38 12.1
12/29/2021 4:45:00 PM 4.38 39.884 0.255 7.64 5.18 12.07
12/29/2021 5:00:00 PM 4.37 39.866 0.261 7.63 4.01 12.03
12/29/2021 5:15:00 PM 4.37 39.866 0.261 7.64 3.92 12
12/29/2021 5:30:00 PM 4.37 39.866 0.258 7.64 4.18 11.96
12/29/2021 5:45:00 PM 4.36 39.848 0.258 7.64 5.3 11.95
12/29/2021 6:00:00 PM 4.35 39.83 0.261 7.63 4.14 11.92
12/29/2021 6:15:00 PM 4.35 39.83 0.258 7.61 4.01 11.89
12/29/2021 6:30:00 PM 4.34 39.812 0.167 7.6 5.05 11.85
12/29/2021 6:45:00 PM 4.33 39.794 0.256 7.6 3.94 11.82
12/29/2021 7:00:00 PM 4.32 39.776 0.252 7.62 6.35 11.8
12/29/2021 7:15:00 PM 4.31 39.758 0.158 7.6 4.08 11.78
12/29/2021 7:30:00 PM 4.31 39.758 0.256 7.6 4.21 11.76
12/29/2021 7:45:00 PM 4.3 39.74 0.253 7.6 4.36 11.74
12/29/2021 8:00:00 PM 4.29 39.722 0.254 7.6 4.6 11.74
12/29/2021 8:15:00 PM 4.29 39.722 0.25 7.6 4.73 11.72
12/29/2021 8:30:00 PM 4.28 39.704 0.25 7.61 4.01 11.7
12/29/2021 8:45:00 PM 4.27 39.686 0.251 7.6 4.03 11.7
12/29/2021 9:00:00 PM 4.27 39.686 0.237 7.6 6.26 11.7
12/29/2021 9:15:00 PM 4.27 39.686 0.25 7.59 4.8 11.68
12/29/2021 9:30:00 PM 4.26 39.668 0.162 7.59 7.66 11.69
12/29/2021 9:45:00 PM 4.25 39.65 0.244 7.59 4.65 11.69
12/29/2021 10:00:00 PM 4.24 39.632 0.24 7.59 4.72 11.68
12/29/2021 10:15:00 PM 4.23 39.614 0.234 7.58 4.64 11.7
12/29/2021 10:30:00 PM 4.22 39.596 0.167 7.55 5.78 11.69
12/29/2021 10:45:00 PM 4.22 39.596 0.236 7.56 5.21 11.69
12/29/2021 11:00:00 PM 4.21 39.578 0.23 7.56 4.97 11.69
12/29/2021 11:15:00 PM 4.2 39.56 0.238 7.56 6.39 11.68
12/29/2021 11:30:00 PM 4.19 39.542 0.231 7.53 6.34 11.7
12/29/2021 11:45:00 PM 4.18 39.524 0.231 7.55 5.77 11.68
12/30/2021 12:00:00 AM 4.18 39.524 0.231 7.55 4.75 11.69
12/30/2021 12:15:00 AM 4.17 39.506 0.232 7.54 5.6 11.68
12/30/2021 12:30:00 AM 4.17 39.506 0.228 7.53 4.98 11.68
12/30/2021 12:45:00 AM 4.16 39.488 0.164 7.54 4.91 11.68
12/30/2021 1:00:00 AM 4.16 39.488 0.233 7.53 4.86 11.68
12/30/2021 1:15:00 AM 4.16 39.488 0.184 7.54 4.87 11.68
12/30/2021 1:30:00 AM 4.16 39.488 0.218 7.53 4.79 11.66
12/30/2021 1:45:00 AM 4.15 39.47 0.22 7.52 6.09 11.66
12/30/2021 2:00:00 AM 4.15 39.47 0.223 7.53 5.78 11.65
12/30/2021 2:15:00 AM 4.15 39.47 0.222 7.54 5.17 11.65
12/30/2021 2:30:00 AM 4.15 39.47 0.223 7.52 5.51 11.64
12/30/2021 2:45:00 AM 4.16 39.488 0.224 7.52 4.97 11.64
12/30/2021 3:00:00 AM 4.16 39.488 0.227 7.53 4.76 11.63
12/30/2021 3:15:00 AM 4.16 39.488 0.227 7.52 4.84 11.63
12/30/2021 3:30:00 AM 4.16 39.488 0.232 7.52 4.82 11.63
12/30/2021 3:45:00 AM 4.17 39.506 0.225 7.5 5.06 11.62
12/30/2021 4:00:00 AM 4.17 39.506 0.229 7.5 4.62 11.62
12/30/2021 4:15:00 AM 4.17 39.506 0.224 7.52 5.22 11.6
12/30/2021 4:30:00 AM 4.17 39.506 0.222 7.52 5.29 11.62
12/30/2021 4:45:00 AM 4.17 39.506 0.217 7.52 5.2 11.61
12/30/2021 5:00:00 AM 4.18 39.524 0.225 7.5 4.71 11.59
12/30/2021 5:15:00 AM 4.18 39.524 0.225 7.52 5.45 11.59
12/30/2021 5:30:00 AM 4.18 39.524 0.222 7.51 11.21 11.59
12/30/2021 5:45:00 AM 4.18 39.524 0.222 7.5 5.94 11.59
12/30/2021 6:00:00 AM 4.18 39.524 0.227 7.52 4.87 11.58
12/30/2021 6:15:00 AM 4.18 39.524 0.228 7.51 4.83 11.58
12/30/2021 6:30:00 AM 4.18 39.524 0.224 7.51 5.15 11.58
12/30/2021 6:45:00 AM 4.19 39.542 0.226 7.52 5.88 11.58
12/30/2021 7:00:00 AM 4.19 39.542 0.227 7.5 4.82 11.57
12/30/2021 7:15:00 AM 4.19 39.542 0.225 7.51 4.61 11.56
12/30/2021 7:30:00 AM 4.19 39.542 0.224 7.52 5.45 11.57
12/30/2021 7:45:00 AM 4.2 39.56 0.229 7.52 4.71 11.55
12/30/2021 8:00:00 AM 4.2 39.56 0.228 7.5 4.45 11.56
12/30/2021 8:15:00 AM 4.21 39.578 0.23 7.51 4.66 11.56
12/30/2021 8:30:00 AM 4.21 39.578 0.229 7.51 4.48 11.56
12/30/2021 8:45:00 AM 4.22 39.596 0.231 7.51 4.83 11.56
12/30/2021 9:00:00 AM 4.23 39.614 0.232 7.52 4.39 11.58
12/30/2021 9:15:00 AM 4.24 39.632 0.135 7.53 5.24 11.6
12/30/2021 9:30:00 AM 4.25 39.65 0.23 7.53 4.6 11.61
12/30/2021 9:45:00 AM 4.27 39.686 0.229 7.53 4.33 11.63
12/30/2021 10:00:00 AM 4.28 39.704 0.233 7.52 6.7 11.64
12/30/2021 10:15:00 AM 4.3 39.74 0.212 7.54 6.1 11.64
12/30/2021 10:30:00 AM 4.32 39.776 0.231 7.51 6.04 11.67
12/30/2021 10:45:00 AM 4.34 39.812 0.234 7.54 5.23 11.7
12/30/2021 11:00:00 AM 4.37 39.866 0.23 7.53 4.1 11.72
12/30/2021 11:15:00 AM 4.4 39.92 0.225 7.54 4.09 11.75
12/30/2021 11:30:00 AM 4.42 39.956 0.226 7.55 3.92 11.78
12/30/2021 11:45:00 AM 4.46 40.028 0.228 7.53 4.06 11.8
12/30/2021 12:00:00 PM 4.5 40.1 0.23 7.55 4.12 11.82
12/30/2021 12:15:00 PM 4.52 40.136 0.223 7.55 5.39 11.85
12/30/2021 12:30:00 PM 4.55 40.19 0.227 7.56 3.78 11.87
12/30/2021 12:45:00 PM 4.59 40.262 0.222 7.57 4.13 11.9
12/30/2021 1:00:00 PM 4.62 40.316 0.228 7.57 4.03 11.91
12/30/2021 1:15:00 PM 4.64 40.352 0.23 7.58 3.97 11.93
12/30/2021 1:30:00 PM 4.68 40.424 0.227 7.59 3.89 11.95
12/30/2021 1:45:00 PM 4.72 40.496 0.23 7.58 3.94 11.96
12/30/2021 2:00:00 PM 4.75 40.55 0.227 7.6 3.99 11.96
12/30/2021 2:15:00 PM 4.79 40.622 0.227 7.59 4.53 11.97
12/30/2021 2:30:00 PM 4.82 40.676 0.23 7.6 4.55 11.98
12/30/2021 2:45:00 PM 4.85 40.73 0.226 7.57 4.88 11.98
12/30/2021 3:00:00 PM 4.87 40.766 0.228 7.61 3.85 11.95
12/30/2021 3:15:00 PM 4.89 40.802 0.23 7.6 3.92 11.94
12/30/2021 3:30:00 PM 4.91 40.838 0.23 7.61 3.81 11.91
12/30/2021 3:45:00 PM 4.91 40.838 0.227 7.58 4.15 11.87
12/30/2021 4:00:00 PM 4.92 40.856 0.232 7.59 3.75 11.84
12/30/2021 4:15:00 PM 4.92 40.856 0.23 7.61 4.09 11.83
12/30/2021 4:30:00 PM 4.93 40.874 0.232 7.6 4.02 11.78
12/30/2021 4:45:00 PM 4.95 40.91 0.23 7.59 3.98 11.74
12/30/2021 5:00:00 PM 4.95 40.91 0.23 7.59 3.88 11.71
12/30/2021 5:15:00 PM 4.95 40.91 0.231 7.59 3.94 11.68
12/30/2021 5:30:00 PM 4.96 40.928 0.228 7.59 3.83 11.65
12/30/2021 5:45:00 PM 4.96 40.928 0.231 7.58 3.8 11.62
12/30/2021 6:00:00 PM 4.97 40.946 0.232 7.58 3.84 11.57
12/30/2021 6:15:00 PM 4.98 40.964 0.231 7.57 4.32 11.55
12/30/2021 6:30:00 PM 4.98 40.964 0.233 7.57 4.25 11.5
12/30/2021 6:45:00 PM 4.99 40.982 0.234 7.58 3.92 11.49
12/30/2021 7:00:00 PM 5 41 0.234 7.57 3.98 11.45
12/30/2021 7:15:00 PM 5.01 41.018 0.236 7.58 4.41 11.44
12/30/2021 7:30:00 PM 5.01 41.018 0.237 7.57 4.1 11.41
12/30/2021 7:45:00 PM 5.01 41.018 0.235 7.56 4.28 11.4
12/30/2021 8:00:00 PM 5.02 41.036 0.234 7.55 4.34 11.37
12/30/2021 8:15:00 PM 5.02 41.036 0.234 7.55 3.92 11.35
12/30/2021 8:30:00 PM 5.02 41.036 0.23 7.56 4.08 11.34
12/30/2021 8:45:00 PM 5.02 41.036 0.233 7.56 4 11.31
12/30/2021 9:00:00 PM 5.03 41.054 0.228 7.55 4.03 11.3
12/30/2021 9:15:00 PM 5.03 41.054 0.229 7.54 5.08 11.3
12/30/2021 9:30:00 PM 5.03 41.054 0.233 7.52 5.05 11.28
12/30/2021 9:45:00 PM 5.03 41.054 0.237 7.53 4.46 11.28
12/30/2021 10:00:00 PM 5.04 41.072 0.161 7.53 4.09 11.26
12/30/2021 10:15:00 PM 5.04 41.072 0.233 7.55 4.04 11.26
12/30/2021 10:30:00 PM 5.04 41.072 0.23 7.52 4.84 11.26
12/30/2021 10:45:00 PM 5.04 41.072 0.231 7.55 3.82 11.24
12/30/2021 11:00:00 PM 5.04 41.072 0.229 7.51 5.29 11.26
12/30/2021 11:15:00 PM 5.04 41.072 0.231 7.53 3.72 11.23
12/30/2021 11:30:00 PM 5.05 41.09 0.231 7.55 3.9 11.23
12/30/2021 11:45:00 PM 5.04 41.072 0.23 7.54 4.36 11.24
12/31/2021 12:00:00 AM 5.04 41.072 0.229 7.53 4.5 11.24
12/31/2021 12:15:00 AM 5.04 41.072 0.226 7.52 5.45 11.25
12/31/2021 12:30:00 AM 5.05 41.09 0.229 7.53 4.16 11.22
12/31/2021 12:45:00 AM 5.04 41.072 0.227 7.54 3.94 11.23
12/31/2021 1:00:00 AM 5.04 41.072 0.225 7.51 5.93 11.23
12/31/2021 1:15:00 AM 5.04 41.072 0.215 7.49 4.98 11.23
12/31/2021 1:30:00 AM 5.04 41.072 0.22 7.51 3.99 11.23
12/31/2021 1:45:00 AM 5.04 41.072 0.222 7.51 4.3 11.23
12/31/2021 2:00:00 AM 5.04 41.072 0.213 7.52 6.05 11.22
12/31/2021 2:15:00 AM 5.04 41.072 0.221 7.53 4.87 11.22
12/31/2021 2:30:00 AM 5.04 41.072 0.222 7.52 5.67 11.23
12/31/2021 2:45:00 AM 5.04 41.072 0.213 7.51 5.46 11.22
12/31/2021 3:00:00 AM 5.04 41.072 0.218 7.53 4.14 11.19
12/31/2021 3:15:00 AM 5.04 41.072 0.212 7.52 3.92 11.2
12/31/2021 3:30:00 AM 5.04 41.072 0.213 7.53 4.23 11.22
12/31/2021 3:45:00 AM 5.04 41.072 0.211 7.53 4.16 11.19
12/31/2021 4:00:00 AM 5.04 41.072 0.209 7.53 4.07 11.2
12/31/2021 4:15:00 AM 5.04 41.072 0.206 7.53 3.98 11.19
12/31/2021 4:30:00 AM 5.04 41.072 0.207 7.54 4.07 11.18
12/31/2021 4:45:00 AM 5.05 41.09 0.205 7.53 4.46 11.17
12/31/2021 5:00:00 AM 5.04 41.072 0.202 7.53 4.55 11.2
12/31/2021 5:15:00 AM 5.04 41.072 0.198 7.53 4.06 11.2
12/31/2021 5:30:00 AM 5.04 41.072 0.195 7.53 4.75 11.18
12/31/2021 5:45:00 AM 5.03 41.054 0.192 7.53 4.37 11.18
12/31/2021 6:00:00 AM 5.04 41.072 0.194 7.53 4.5 11.18
12/31/2021 6:15:00 AM 5.04 41.072 0.193 7.51 4.19 11.19
12/31/2021 6:30:00 AM 5.03 41.054 0.19 7.52 4.67 11.2
12/31/2021 6:45:00 AM 5.04 41.072 0.191 7.53 4.3 11.19
12/31/2021 7:00:00 AM 5.04 41.072 0.19 7.51 4.77 11.18
12/31/2021 7:15:00 AM 5.03 41.054 0.189 7.53 4.48 11.19
12/31/2021 7:30:00 AM 5.03 41.054 0.186 7.54 4.31 11.18
12/31/2021 7:45:00 AM 5.04 41.072 0.184 7.53 4.11 11.18
12/31/2021 8:00:00 AM 5.04 41.072 0.182 7.45 4.52 11.19
12/31/2021 8:15:00 AM 5.04 41.072 0.18 7.52 3.84 11.19
12/31/2021 8:30:00 AM 5.05 41.09 0.175 7.5 6.67 11.2
12/31/2021 8:45:00 AM 5.06 41.108 0.172 7.46 3.99 11.2
12/31/2021 9:00:00 AM 5.08 41.144 0.177 7.54 4.22 11.22
12/31/2021 9:15:00 AM 5.09 41.162 0.174 7.55 4.72 11.26
12/31/2021 9:30:00 AM 5.12 41.216 0.173 7.53 3.88 11.3
12/31/2021 9:45:00 AM 5.14 41.252 0.169 7.56 3.93 11.32
12/31/2021 10:00:00 AM 5.17 41.306 0.168 7.56 3.72 11.37
12/31/2021 10:15:00 AM 5.2 41.36 0.162 7.55 4.37 11.41
12/31/2021 10:30:00 AM 5.23 41.414 0.166 7.55 3.78 11.42
12/31/2021 10:45:00 AM 5.27 41.486 0.167 7.57 3.68 11.46
12/31/2021 11:00:00 AM 5.32 41.576 0.163 7.58 4.93 11.52
12/31/2021 11:15:00 AM 5.38 41.684 0.156 7.58 4.57 11.55
12/31/2021 11:30:00 AM 5.45 41.81 0.162 7.59 3.91 11.58
12/31/2021 11:45:00 AM 5.54 41.972 0.16 7.58 4.35 11.62
12/31/2021 12:00:00 PM 5.63 42.134 0.158 7.59 4 11.67
12/31/2021 12:15:00 PM 5.69 42.242 0.157 7.59 4.49 11.69
12/31/2021 12:30:00 PM 5.8 42.44 0.156 7.57 4.09 11.73
12/31/2021 12:45:00 PM 5.86 42.548 0.153 7.61 3.57 11.75
12/31/2021 1:00:00 PM 5.9 42.62 0.156 7.62 3.72 11.75
12/31/2021 1:15:00 PM 5.93 42.674 0.157 7.62 4.55 11.74
12/31/2021 1:30:00 PM 5.98 42.764 0.15 7.65 4.83 11.76
12/31/2021 1:45:00 PM 6.02 42.836 0.153 7.63 4.89 11.77
12/31/2021 2:00:00 PM 6.03 42.854 0.151 7.64 3.79 11.75
12/31/2021 2:15:00 PM 6.05 42.89 0.151 7.66 3.62 11.73
12/31/2021 2:30:00 PM 6.06 42.908 0.141 7.65 4.2 11.74
12/31/2021 2:45:00 PM 6.09 42.962 0.146 7.64 5.07 11.74
12/31/2021 3:00:00 PM 6.12 43.016 0.145 7.64 4.93 11.73
12/31/2021 3:15:00 PM 6.12 43.016 0.145 7.63 4.89 11.72
12/31/2021 3:30:00 PM 6.12 43.016 0.147 7.66 3.59 11.69
12/31/2021 3:45:00 PM 6.13 43.034 0.147 7.65 4 11.67
12/31/2021 4:00:00 PM 6.13 43.034 0.144 7.65 3.85 11.64
12/31/2021 4:15:00 PM 6.13 43.034 0.141 7.65 3.66 11.61
12/31/2021 4:30:00 PM 6.12 43.016 0.141 7.65 3.57 11.56
12/31/2021 4:45:00 PM 6.11 42.998 0.137 7.64 3.67 11.52
12/31/2021 5:00:00 PM 6.11 42.998 0.132 7.63 3.74 11.47
12/31/2021 5:15:00 PM 6.1 42.98 0.137 7.64 3.93 11.44
12/31/2021 5:30:00 PM 6.1 42.98 0.134 7.63 4.1 11.41
12/31/2021 5:45:00 PM 6.1 42.98 0.132 7.63 3.64 11.34
12/31/2021 6:00:00 PM 6.09 42.962 0.137 7.63 3.76 11.32
12/31/2021 6:15:00 PM 6.08 42.944 0.132 7.62 3.8 11.29
12/31/2021 6:30:00 PM 6.07 42.926 0.129 7.61 3.67 11.26
12/31/2021 6:45:00 PM 6.04 42.872 0.128 7.62 3.81 11.2
12/31/2021 7:00:00 PM 6.01 42.818 0.134 7.61 3.69 11.19
12/31/2021 7:15:00 PM 5.99 42.782 0.135 7.61 3.91 11.16
12/31/2021 7:30:00 PM 5.97 42.746 0.135 7.6 3.86 11.14
12/31/2021 7:45:00 PM 5.93 42.674 0.136 7.6 3.89 11.11
12/31/2021 8:00:00 PM 5.91 42.638 0.138 7.59 3.87 11.07
12/31/2021 8:15:00 PM 5.89 42.602 0.137 7.59 3.99 11.05
12/31/2021 8:30:00 PM 5.84 42.512 0.137 7.58 3.69 11.04
12/31/2021 8:45:00 PM 5.82 42.476 0.138 7.58 3.85 11.02
12/31/2021 9:00:00 PM 5.78 42.404 0.137 7.58 4.53 11.03
12/31/2021 9:15:00 PM 5.76 42.368 0.137 7.58 4.15 11.01
12/31/2021 9:30:00 PM 5.73 42.314 0.134 7.57 3.93 10.99
12/31/2021 9:45:00 PM 5.72 42.296 0.137 7.55 3.95 11
12/31/2021 10:00:00 PM 5.7 42.26 0.136 7.57 4.11 10.98
12/31/2021 10:15:00 PM 5.69 42.242 0.137 7.57 4.06 10.98
12/31/2021 10:30:00 PM 5.68 42.224 0.136 7.56 4.03 10.95
12/31/2021 10:45:00 PM 5.67 42.206 0.137 7.54 4.37 10.96
12/31/2021 11:00:00 PM 5.66 42.188 0.136 7.55 4.21 10.98
12/31/2021 11:15:00 PM 5.64 42.152 0.137 7.55 3.95 10.97
12/31/2021 11:30:00 PM 5.63 42.134 0.136 7.55 3.86 10.96
12/31/2021 11:45:00 PM 5.63 42.134 0.137 7.54 3.94 10.96
1/1/2022 12:00:00 AM 5.61 42.098 0.135 7.54 3.77 10.97
1/1/2022 12:15:00 AM 5.61 42.098 0.139 7.55 3.83 10.95
1/1/2022 12:30:00 AM 5.58 42.044 0.128 7.53 4.52 10.98
1/1/2022 12:45:00 AM 5.57 42.026 0.137 7.56 4.49 10.97
1/1/2022 1:00:00 AM 5.57 42.026 0.137 7.54 4.35 10.98
1/1/2022 1:15:00 AM 5.56 42.008 0.137 7.54 4.21 10.99
1/1/2022 1:30:00 AM 5.57 42.026 0.136 7.52 4.31 10.97
1/1/2022 1:45:00 AM 5.57 42.026 0.138 7.55 4.33 10.97
1/1/2022 2:00:00 AM 5.58 42.044 0.136 7.55 4 10.98
1/1/2022 2:15:00 AM 5.59 42.062 0.139 7.55 4.11 10.96
1/1/2022 2:30:00 AM 5.59 42.062 0.137 7.54 4.52 10.95
1/1/2022 2:45:00 AM 5.59 42.062 0.136 7.55 4.19 10.94
1/1/2022 3:00:00 AM 5.6 42.08 0.137 7.54 4.01 10.94
1/1/2022 3:15:00 AM 5.61 42.098 0.138 7.54 4.07 10.95
1/1/2022 3:30:00 AM 5.62 42.116 0.137 7.55 4.03 10.93
1/1/2022 3:45:00 AM 5.63 42.134 0.138 7.55 4.28 10.92
1/1/2022 4:00:00 AM 5.63 42.134 0.137 7.49 4.48 10.93
1/1/2022 4:15:00 AM 5.64 42.152 0.128 7.52 5.26 10.92
1/1/2022 4:30:00 AM 5.65 42.17 0.136 7.55 4.43 10.91
1/1/2022 4:45:00 AM 5.66 42.188 0.138 7.55 4.3 10.88
1/1/2022 5:00:00 AM 5.67 42.206 0.137 7.54 4.16 10.88
1/1/2022 5:15:00 AM 5.69 42.242 0.137 7.54 4.34 10.86
1/1/2022 5:30:00 AM 5.71 42.278 0.129 7.53 6.46 10.87
1/1/2022 5:45:00 AM 5.73 42.314 0.138 7.53 5 10.86
1/1/2022 6:00:00 AM 5.75 42.35 0.139 7.53 5.36 10.83
1/1/2022 6:15:00 AM 5.76 42.368 0.136 7.54 5.17 10.83
1/1/2022 6:30:00 AM 5.78 42.404 0.132 7.52 5.93 10.83
1/1/2022 6:45:00 AM 5.79 42.422 0.136 7.5 7.03 10.82
1/1/2022 7:00:00 AM 5.8 42.44 0.133 7.5 5.62 10.83
1/1/2022 7:15:00 AM 5.8 42.44 0.131 7.51 5.97 10.83
1/1/2022 7:30:00 AM 5.8 42.44 0.135 7.54 4.93 10.83
1/1/2022 7:45:00 AM 5.81 42.458 0.136 7.54 4.95 10.84
1/1/2022 8:00:00 AM 5.81 42.458 0.134 7.52 4.87 10.83
1/1/2022 8:15:00 AM 5.82 42.476 0.136 7.54 4.53 10.83
1/1/2022 8:30:00 AM 5.84 42.512 0.127 7.52 4.82 10.84
1/1/2022 8:45:00 AM 5.85 42.53 0.133 7.54 4.03 10.86
1/1/2022 9:00:00 AM 5.86 42.548 0.133 7.53 4.32 10.86
1/1/2022 9:15:00 AM 5.87 42.566 0.136 7.53 4.18 10.88
1/1/2022 9:30:00 AM 5.89 42.602 0.13 7.53 5.26 10.9
1/1/2022 9:45:00 AM 5.9 42.62 0.13 7.53 5.59 10.93
1/1/2022 10:00:00 AM 5.92 42.656 0.13 7.54 5.29 10.94
1/1/2022 10:15:00 AM 5.94 42.692 0.131 7.54 5.16 10.98
1/1/2022 10:30:00 AM 5.97 42.746 0.133 7.55 3.91 11.01
1/1/2022 10:45:00 AM 5.98 42.764 0.134 7.56 3.93 11.05
1/1/2022 11:00:00 AM 6.01 42.818 0.134 7.57 4.06 11.08
1/1/2022 11:15:00 AM 6.03 42.854 0.137 7.57 4.46 11.11
1/1/2022 11:30:00 AM 6.05 42.89 0.135 7.58 4.5 11.15
1/1/2022 11:45:00 AM 6.07 42.926 0.128 7.54 3.97 11.16
1/1/2022 12:00:00 PM 6.1 42.98 0.133 7.59 5.45 11.2
1/1/2022 12:15:00 PM 6.14 43.052 0.132 7.6 4.55 11.23
1/1/2022 12:30:00 PM 6.18 43.124 0.133 7.59 4.69 11.26
1/1/2022 12:45:00 PM 6.21 43.178 0.131 7.61 4.2 11.29
1/1/2022 1:00:00 PM 6.24 43.232 0.126 7.51 5.27 11.3
1/1/2022 1:15:00 PM 6.27 43.286 0.132 7.61 3.9 11.3
1/1/2022 1:30:00 PM 6.3 43.34 0.13 7.62 4.05 11.34
1/1/2022 1:45:00 PM 6.32 43.376 0.13 7.62 3.85 11.33
1/1/2022 2:00:00 PM 6.35 43.43 0.131 7.62 3.88 11.33
1/1/2022 2:15:00 PM 6.38 43.484 0.127 7.62 4.95 11.36
1/1/2022 2:30:00 PM 6.41 43.538 0.129 7.62 3.86 11.36
1/1/2022 2:45:00 PM 6.44 43.592 0.126 7.62 3.92 11.35
1/1/2022 3:00:00 PM 6.46 43.628 0.125 7.6 5.96 11.34
1/1/2022 3:15:00 PM 6.47 43.646 0.123 7.61 5 11.32
1/1/2022 3:30:00 PM 6.48 43.664 0.124 7.58 4.34 11.3
1/1/2022 3:45:00 PM 6.49 43.682 0.127 7.61 3.98 11.27
1/1/2022 4:00:00 PM 6.51 43.718 0.13 7.61 4.03 11.23
1/1/2022 4:15:00 PM 6.51 43.718 0.124 7.59 5.19 11.22
1/1/2022 4:30:00 PM 6.51 43.718 0.123 7.52 4.72 11.2
1/1/2022 4:45:00 PM 6.52 43.736 0.122 7.59 4.43 11.17
1/1/2022 5:00:00 PM 6.52 43.736 0.125 7.6 4.31 11.12
1/1/2022 5:15:00 PM 6.53 43.754 0.124 7.6 4.22 11.08
1/1/2022 5:30:00 PM 6.52 43.736 0.126 7.59 4.18 11.04
1/1/2022 5:45:00 PM 6.53 43.754 0.124 7.58 4.06 11.02
1/1/2022 6:00:00 PM 6.53 43.754 0.123 7.58 4.25 10.99
1/1/2022 6:15:00 PM 6.53 43.754 0.121 7.58 4.3 10.94
1/1/2022 6:30:00 PM 6.53 43.754 0.119 7.58 4.36 10.92
1/1/2022 6:45:00 PM 6.53 43.754 0.118 7.57 4.5 10.91
1/1/2022 7:00:00 PM 6.52 43.736 0.115 7.57 4.45 10.87
1/1/2022 7:15:00 PM 6.53 43.754 0.113 7.57 4.16 10.83
1/1/2022 7:30:00 PM 6.54 43.772 0.112 7.56 4.24 10.81
1/1/2022 7:45:00 PM 6.54 43.772 0.11 7.56 4.45 10.79
1/1/2022 8:00:00 PM 6.53 43.754 0.108 7.56 4.77 10.77
1/1/2022 8:15:00 PM 6.52 43.736 0.107 7.56 4.36 10.76
1/1/2022 8:30:00 PM 6.51 43.718 0.104 7.56 4.49 10.75
1/1/2022 8:45:00 PM 6.5 43.7 0.102 7.54 5.41 10.76
1/1/2022 9:00:00 PM 6.5 43.7 0.105 7.56 4.28 10.72
1/1/2022 9:15:00 PM 6.49 43.682 0.107 7.56 4.64 10.71
1/1/2022 9:30:00 PM 6.49 43.682 0.105 7.56 4.82 10.7
1/1/2022 9:45:00 PM 6.48 43.664 0.107 7.54 4.91 10.7
1/1/2022 10:00:00 PM 6.46 43.628 0.105 7.55 4.57 10.68
1/1/2022 10:15:00 PM 6.45 43.61 0.104 7.55 4.72 10.68
1/1/2022 10:30:00 PM 6.44 43.592 0.102 7.55 4.42 10.67
1/1/2022 10:45:00 PM 6.42 43.556 0.1 7.56 4.87 10.67
1/1/2022 11:00:00 PM 6.4 43.52 0.099 7.55 4.68 10.66
1/1/2022 11:15:00 PM 6.38 43.484 0.103 7.54 4.57 10.68
1/1/2022 11:30:00 PM 6.35 43.43 0.101 7.54 4.63 10.7
1/1/2022 11:45:00 PM 6.33 43.394 0.099 7.56 5.04 10.69
1/2/2022 12:00:00 AM 6.3 43.34 0.099 7.52 6.67 10.7
1/2/2022 12:15:00 AM 6.27 43.286 0.098 7.54 5.11 10.71
1/2/2022 12:30:00 AM 6.25 43.25 0.095 7.54 4.67 10.7
1/2/2022 12:45:00 AM 6.22 43.196 0.094 7.53 4.87 10.7
1/2/2022 1:00:00 AM 6.2 43.16 0.096 7.51 6.24 10.71
1/2/2022 1:15:00 AM 6.19 43.142 0.1 7.53 4.41 10.69
1/2/2022 1:30:00 AM 6.16 43.088 0.097 7.54 4.56 10.69
1/2/2022 1:45:00 AM 6.14 43.052 0.094 7.52 6.21 10.71
1/2/2022 2:00:00 AM 6.12 43.016 0.093 7.52 5.4 10.69
1/2/2022 2:15:00 AM 6.1 42.98 0.095 7.52 6.64 10.69
1/2/2022 2:30:00 AM 6.08 42.944 0.096 7.51 6.04 10.67
1/2/2022 2:45:00 AM 6.04 42.872 0.096 7.5 5.86 10.68
1/2/2022 3:00:00 AM 6.01 42.818 0.094 7.47 6.46 10.7
1/2/2022 3:15:00 AM 5.98 42.764 0.093 7.5 5.93 10.7
1/2/2022 3:30:00 AM 5.95 42.71 0.093 7.49 5.32 10.71
1/2/2022 3:45:00 AM 5.91 42.638 0.095 7.49 5.69 10.72
1/2/2022 4:00:00 AM 5.88 42.584 0.093 7.48 5.31 10.73
1/2/2022 4:15:00 AM 5.86 42.548 0.091 7.48 5.45 10.74
1/2/2022 4:30:00 AM 5.82 42.476 0.093 7.47 6.64 10.76
1/2/2022 4:45:00 AM 5.79 42.422 0.093 7.5 6.08 10.74
1/2/2022 5:00:00 AM 5.75 42.35 0.096 7.51 5.93 10.76
1/2/2022 5:15:00 AM 5.72 42.296 0.09 7.51 6.21 10.8
1/2/2022 5:30:00 AM 5.68 42.224 0.092 7.51 5.58 10.8
1/2/2022 5:45:00 AM 5.65 42.17 0.092 7.51 6.62 10.8
1/2/2022 6:00:00 AM 5.61 42.098 0.089 7.51 6.64 10.83
1/2/2022 6:15:00 AM 5.57 42.026 0.086 7.51 6.88 10.83
1/2/2022 6:30:00 AM 5.53 41.954 0.091 7.51 6.61 10.85
1/2/2022 6:45:00 AM 5.48 41.864 0.089 7.51 5.96 10.88
1/2/2022 7:00:00 AM 5.44 41.792 0.085 7.52 6.31 10.89
1/2/2022 7:15:00 AM 5.4 41.72 0.084 7.51 6.58 10.91
1/2/2022 7:30:00 AM 5.36 41.648 0.083 7.52 6.01 10.94
1/2/2022 7:45:00 AM 5.32 41.576 0.081 7.51 6.4 10.96
1/2/2022 8:00:00 AM 5.29 41.522 0.084 7.52 6.68 10.96
1/2/2022 8:15:00 AM 5.25 41.45 0.085 7.51 6.21 11
1/2/2022 8:30:00 AM 5.21 41.378 0.08 7.52 6.17 11.03
1/2/2022 8:45:00 AM 5.18 41.324 0.081 7.52 5.93 11.03
1/2/2022 9:00:00 AM 5.14 41.252 0.084 7.52 5.66 11.04
1/2/2022 9:15:00 AM 5.11 41.198 0.08 7.51 6 11.09
1/2/2022 9:30:00 AM 5.08 41.144 0.083 7.52 6.03 11.12
1/2/2022 9:45:00 AM 5.04 41.072 0.081 7.46 5.88 11.15
1/2/2022 10:00:00 AM 5 41 0.078 7.52 5.85 11.17
1/2/2022 10:15:00 AM 4.97 40.946 0.077 7.52 5.47 11.22
1/2/2022 10:30:00 AM 4.93 40.874 0.077 7.51 6.19 11.27
1/2/2022 10:45:00 AM 4.9 40.82 0.077 7.54 5.67 11.28
1/2/2022 11:00:00 AM 4.86 40.748 0.077 7.5 5.63 11.35
1/2/2022 11:15:00 AM 4.83 40.694 0.08 7.55 5.66 11.35
1/2/2022 11:30:00 AM 4.82 40.676 0.081 7.54 6.73 11.4
1/2/2022 11:45:00 AM 4.78 40.604 0.074 7.55 5.65 11.46
1/2/2022 12:00:00 PM 4.76 40.568 0.08 7.54 5.41 11.49
1/2/2022 12:15:00 PM 4.75 40.55 0.075 7.55 5.99 11.54
1/2/2022 12:30:00 PM 4.74 40.532 0.076 7.57 5.67 11.6
1/2/2022 12:45:00 PM 4.71 40.478 0.074 7.54 6.98 11.67
1/2/2022 1:00:00 PM 4.7 40.46 0.076 7.56 5.49 11.7
1/2/2022 1:15:00 PM 4.68 40.424 0.075 7.58 5.53 11.73
1/2/2022 1:30:00 PM 4.67 40.406 0.073 7.58 5.79 11.76
1/2/2022 1:45:00 PM 4.65 40.37 0.074 7.58 5.22 11.8
1/2/2022 2:00:00 PM 4.63 40.334 0.075 7.59 5.51 11.82
1/2/2022 2:15:00 PM 4.61 40.298 0.073 7.59 6.12 11.85
1/2/2022 2:30:00 PM 4.58 40.244 0.07 7.6 5.4 11.87
1/2/2022 2:45:00 PM 4.55 40.19 0.069 7.6 6.22 11.89
1/2/2022 3:00:00 PM 4.51 40.118 0.07 7.61 5.55 11.89
1/2/2022 3:15:00 PM 4.48 40.064 0.073 7.61 5.28 11.89
1/2/2022 3:30:00 PM 4.44 39.992 0.072 7.6 5.12 11.89
1/2/2022 3:45:00 PM 4.39 39.902 0.07 7.61 4.85 11.88
1/2/2022 4:00:00 PM 4.33 39.794 0.074 7.6 5.25 11.88
1/2/2022 4:15:00 PM 4.3 39.74 0.072 7.59 5.08 11.88
1/2/2022 4:30:00 PM 4.26 39.668 0.07 7.59 5.47 11.86
1/2/2022 4:45:00 PM 4.21 39.578 0.068 7.59 5.6 11.86
1/2/2022 5:00:00 PM 4.16 39.488 0.066 7.59 5.73 11.86
1/2/2022 5:15:00 PM 4.13 39.434 0.064 7.58 5.83 11.84
1/2/2022 5:30:00 PM 4.08 39.344 0.064 7.58 5.85 11.83
1/2/2022 5:45:00 PM 4.05 39.29 0.063 7.56 5.56 11.81
1/2/2022 6:00:00 PM 4.02 39.236 0.062 7.56 5.54 11.8
1/2/2022 6:15:00 PM 3.99 39.182 0.06 7.56 5.88 11.8
1/2/2022 6:30:00 PM 3.96 39.128 0.06 7.53 6.01 11.78
1/2/2022 6:45:00 PM 3.91 39.038 0.058 7.52 5.76 11.79
1/2/2022 7:00:00 PM 3.88 38.984 0.06 7.53 5.48 11.79
1/2/2022 7:15:00 PM 3.85 38.93 0.059 7.5 6.49 11.79
1/2/2022 7:30:00 PM 3.82 38.876 0.058 7.51 6.44 11.77
1/2/2022 7:45:00 PM 3.79 38.822 0.063 7.53 5.51 11.78
1/2/2022 8:00:00 PM 3.77 38.786 0.064 7.53 5.35 11.78
1/2/2022 8:15:00 PM 3.74 38.732 0.062 7.54 5.16 11.77
1/2/2022 8:30:00 PM 3.72 38.696 0.057 7.55 5.19 11.77
1/2/2022 8:45:00 PM 3.69 38.642 0.062 7.55 5.17 11.78
1/2/2022 9:00:00 PM 3.65 38.57 0.061 7.55 5.34 11.78
1/2/2022 9:15:00 PM 3.6 38.48 0.06 7.55 5.56 11.81
1/2/2022 9:30:00 PM 3.57 38.426 0.06 7.54 5.64 11.8
1/2/2022 9:45:00 PM 3.51 38.318 0.057 7.52 5.45 11.82
1/2/2022 10:00:00 PM 3.48 38.264 0.058 7.53 5.57 11.82
1/2/2022 10:15:00 PM 3.44 38.192 0.057 7.52 5.49 11.82
1/2/2022 10:30:00 PM 3.38 38.084 0.06 7.53 5.55 11.84
1/2/2022 10:45:00 PM 3.33 37.994 0.058 7.51 5.74 11.84
1/2/2022 11:00:00 PM 3.29 37.922 0.054 7.48 6.73 11.87
1/2/2022 11:15:00 PM 3.25 37.85 0.055 7.52 5.36 11.86
1/2/2022 11:30:00 PM 3.2 37.76 0.058 7.51 5.2 11.86
1/2/2022 11:45:00 PM 3.15 37.67 0.057 7.48 6.74 11.89
1/3/2022 12:00:00 AM 3.09 37.562 0.055 7.52 5.24 11.89
1/3/2022 12:15:00 AM 3.04 37.472 0.053 7.54 5.63 11.92
1/3/2022 12:30:00 AM 3 37.4 0.057 7.54 5.77 11.94
1/3/2022 12:45:00 AM 2.94 37.292 0.058 7.54 5.36 11.93
1/3/2022 1:00:00 AM 2.89 37.202 0.059 7.53 5.76 11.95
1/3/2022 1:15:00 AM 2.83 37.094 0.055 7.53 5.69 11.97
1/3/2022 1:30:00 AM 2.79 37.022 0.054 7.53 5.29 11.98
1/3/2022 1:45:00 AM 2.73 36.914 0.051 7.52 5.74 12
1/3/2022 2:00:00 AM 2.69 36.842 0.053 7.53 5.93 12
1/3/2022 2:15:00 AM 2.64 36.752 0.052 7.52 6.18 12.03
1/3/2022 2:30:00 AM 2.58 36.644 0.051 7.52 5.59 12.05
1/3/2022 2:45:00 AM 2.53 36.554 0.054 7.53 5.46 12.06
1/3/2022 3:00:00 AM 2.5 36.5 0.052 7.52 5.44 12.07
1/3/2022 3:15:00 AM 2.45 36.41 0.053 7.53 5.33 12.09
1/3/2022 3:30:00 AM 2.42 36.356 0.052 7.54 5.54 12.08
1/3/2022 3:45:00 AM 2.39 36.302 0.052 7.54 4.95 12.1
1/3/2022 4:00:00 AM 2.34 36.212 0.053 7.53 5.47 12.13
1/3/2022 4:15:00 AM 2.31 36.158 0.05 7.53 5.19 12.13
1/3/2022 4:30:00 AM 2.27 36.086 0.054 7.54 5.68 12.15
1/3/2022 4:45:00 AM 2.24 36.032 0.05 7.52 5.17 12.16
1/3/2022 5:00:00 AM 2.19 35.942 0.048 7.42 5.17 12.19
1/3/2022 5:15:00 AM 2.16 35.888 0.048 7.5 5.95 12.2
1/3/2022 5:30:00 AM 2.12 35.816 0.048 7.51 6.51 12.2
1/3/2022 5:45:00 AM 2.09 35.762 0.048 7.51 6.92 12.22
1/3/2022 6:00:00 AM 2.05 35.69 0.048 7.51 6.39 12.25
1/3/2022 6:15:00 AM 2.01 35.618 0.048 7.52 7.07 12.27
1/3/2022 6:30:00 AM 1.96 35.528 0.047 7.52 6.34 12.28
1/3/2022 6:45:00 AM 1.93 35.474 0.048 7.5 6.93 12.28
1/3/2022 7:00:00 AM 1.89 35.402 0.05 7.54 6.05 12.28
1/3/2022 7:15:00 AM 1.89 35.402 0.05 7.54 5.07 12.29
1/3/2022 7:30:00 AM 1.85 35.33 0.052 7.55 5.29 12.31
1/3/2022 7:45:00 AM 1.81 35.258 0.049 7.54 5.17 12.34
1/3/2022 8:00:00 AM 1.79 35.222 0.051 7.53 6.88 12.36
1/3/2022 8:15:00 AM 1.78 35.204 0.054 7.54 4.66 12.37
1/3/2022 8:30:00 AM 1.77 35.186 0.049 7.56 5.09 12.36
1/3/2022 8:45:00 AM 1.77 35.186 0.049 7.56 5.14 12.39
1/3/2022 9:00:00 AM 1.76 35.168 0.05 7.57 5.01 12.42
1/3/2022 9:15:00 AM 1.76 35.168 0.049 7.58 5.28 12.44
1/3/2022 9:30:00 AM 1.76 35.168 0.051 7.59 4.77 12.47
1/3/2022 9:45:00 AM 1.75 35.15 0.05 7.6 5.1 12.52
1/3/2022 10:00:00 AM 1.75 35.15 0.05 7.6 5.46 12.55
1/3/2022 10:15:00 AM 1.74 35.132 0.047 7.62 5.11 12.59
1/3/2022 10:30:00 AM 1.76 35.168 0.045 7.62 4.94 12.59
1/3/2022 10:45:00 AM 1.76 35.168 0.05 7.63 4.94 12.64
1/3/2022 11:00:00 AM 1.76 35.168 0.048 7.61 5.07 12.67
1/3/2022 11:15:00 AM 1.77 35.186 0.05 7.62 4.88 12.71
1/3/2022 11:30:00 AM 1.78 35.204 0.052 7.61 5.52 12.74
1/3/2022 11:45:00 AM 1.8 35.24 0.05 7.65 4.97 12.77
1/3/2022 12:00:00 PM 1.83 35.294 0.048 7.65 4.78 12.8
1/3/2022 12:15:00 PM 1.88 35.384 0.047 7.66 4.76 12.83
1/3/2022 12:30:00 PM 1.91 35.438 0.047 7.67 4.82 12.87
1/3/2022 12:45:00 PM 1.93 35.474 0.048 7.68 4.74 12.9
1/3/2022 1:00:00 PM 1.95 35.51 0.049 7.67 4.76 12.92
1/3/2022 1:15:00 PM 1.97 35.546 0.043 7.64 5.25 12.94
1/3/2022 1:30:00 PM 1.97 35.546 0.051 7.67 4.87 12.95
1/3/2022 1:45:00 PM 1.98 35.564 0.044 7.68 4.81 12.97
1/3/2022 2:00:00 PM 1.96 35.528 0.044 7.69 4.51 12.98
1/3/2022 2:15:00 PM 1.95 35.51 0.045 7.68 4.99 12.99
1/3/2022 2:30:00 PM 1.92 35.456 0.045 7.69 5.06 13.01
1/3/2022 2:45:00 PM 1.9 35.42 0.044 7.69 5.15 13.03
1/3/2022 3:00:00 PM 1.89 35.402 0.044 7.69 4.91 13.04
1/3/2022 3:15:00 PM 1.88 35.384 0.045 7.67 6.8 13.03
1/3/2022 3:30:00 PM 1.88 35.384 0.045 7.7 5.58 13.02
1/3/2022 3:45:00 PM 1.86 35.348 0.045 7.71 5.7 13.02
1/3/2022 4:00:00 PM 1.82 35.276 0.048 7.7 5.47 13.01
1/3/2022 4:15:00 PM 1.77 35.186 0.043 7.68 5.65 13.02
1/3/2022 4:30:00 PM 1.72 35.096 0.047 7.71 5.25 12.99
1/3/2022 4:45:00 PM 1.67 35.006 0.048 7.71 5.16 12.98
1/3/2022 5:00:00 PM 1.64 34.952 0.046 7.71 5.14 12.95
1/3/2022 5:15:00 PM 1.61 34.898 0.049 7.71 5.23 12.93
1/3/2022 5:30:00 PM 1.57 34.826 0.05 7.69 5.25 12.9
1/3/2022 5:45:00 PM 1.52 34.736 0.044 7.69 5.01 12.87
1/3/2022 6:00:00 PM 1.46 34.628 0.043 7.68 5.24 12.86
1/3/2022 6:15:00 PM 1.42 34.556 0.047 7.65 6.27 12.85
1/3/2022 6:30:00 PM 1.38 34.484 0.044 7.68 5.3 12.83
1/3/2022 6:45:00 PM 1.36 34.448 0.043 7.64 6.36 12.81
1/3/2022 7:00:00 PM 1.35 34.43 0.045 7.67 5.35 12.78
1/3/2022 7:15:00 PM 1.3 34.34 0.04 7.66 6.21 12.78
1/3/2022 7:30:00 PM 1.27 34.286 0.047 7.67 5.71 12.78
1/3/2022 7:45:00 PM 1.25 34.25 0.04 7.66 5.55 12.75
1/3/2022 8:00:00 PM 1.2 34.16 0.04 7.64 5.5 12.77
1/3/2022 8:15:00 PM 1.17 34.106 0.037 7.64 9.32 12.75
1/3/2022 8:30:00 PM 1.14 34.052 0.04 7.63 5.84 12.78
1/3/2022 8:45:00 PM 1.11 33.998 0.038 7.62 5.78 12.77
1/3/2022 9:00:00 PM 1.08 33.944 0.041 7.61 5.17 12.77
1/3/2022 9:15:00 PM 1.06 33.908 0.046 7.6 5.43 12.75
1/3/2022 9:30:00 PM 1.03 33.854 0.042 7.59 5.62 12.76
1/3/2022 9:45:00 PM 1.01 33.818 0.044 7.59 6.22 12.75
1/3/2022 10:00:00 PM 0.98 33.764 0.044 7.59 5.88 12.75
1/3/2022 10:15:00 PM 0.97 33.746 0.044 7.55 7.27 12.74
1/3/2022 10:30:00 PM 0.92 33.656 0.041 7.58 7.1 12.77
1/3/2022 10:45:00 PM 0.91 33.638 0.042 7.61 6.32 12.76
1/3/2022 11:00:00 PM 0.88 33.584 0.044 7.6 6.02 12.74
1/3/2022 11:15:00 PM 0.88 33.584 0.04 7.6 5.78 12.74
1/3/2022 11:30:00 PM 0.84 33.512 0.042 7.6 5.75 12.73
1/3/2022 11:45:00 PM 0.82 33.476 0.038 7.6 6.89 12.74
1/4/2022 12:00:00 AM 0.79 33.422 0.037 7.6 6.64 12.75
1/4/2022 12:15:00 AM 0.78 33.404 0.035 7.59 6.03 12.74
1/4/2022 12:30:00 AM 0.76 33.368 0.04 7.6 6.41 12.75
1/4/2022 12:45:00 AM 0.75 33.35 0.04 7.6 6 12.71
1/4/2022 1:00:00 AM 0.72 33.296 0.036 7.6 5.56 12.73
1/4/2022 1:15:00 AM 0.72 33.296 0.04 7.6 5.64 12.72
1/4/2022 1:30:00 AM 0.7 33.26 0.036 7.6 5.27 12.73
1/4/2022 1:45:00 AM 0.69 33.242 0.043 7.6 5.41 12.73
1/4/2022 2:00:00 AM 0.69 33.242 0.041 7.6 4.87 12.72
1/4/2022 2:15:00 AM 0.69 33.242 0.041 7.61 4.81 12.72
1/4/2022 2:30:00 AM 0.68 33.224 0.038 7.6 4.77 12.72
1/4/2022 2:45:00 AM 0.66 33.188 0.036 7.61 4.8 12.73
1/4/2022 3:00:00 AM 0.66 33.188 0.035 7.6 4.78 12.74
1/4/2022 3:15:00 AM 0.66 33.188 0.035 7.61 4.53 12.71
1/4/2022 3:30:00 AM 0.66 33.188 0.042 7.61 4.59 12.73
1/4/2022 3:45:00 AM 0.68 33.224 0.04 7.59 9.3 12.71
1/4/2022 4:00:00 AM 0.69 33.242 0.042 7.62 4.5 12.71
1/4/2022 4:15:00 AM 0.71 33.278 0.04 7.62 4.68 12.69
1/4/2022 4:30:00 AM 0.72 33.296 0.045 7.63 4.52 12.68
1/4/2022 4:45:00 AM 0.75 33.35 0.041 7.64 4.35 12.67
1/4/2022 5:00:00 AM 0.77 33.386 0.045 7.65 5.1 12.67
1/4/2022 5:15:00 AM 0.79 33.422 0.042 7.64 4.59 12.68
1/4/2022 5:30:00 AM 0.81 33.458 0.039 7.65 4.61 12.67
1/4/2022 5:45:00 AM 0.83 33.494 0.038 7.61 4.78 12.67
1/4/2022 6:00:00 AM 0.85 33.53 0.042 7.63 5.38 12.66
1/4/2022 6:15:00 AM 0.87 33.566 0.042 7.65 4.51 12.65
1/4/2022 6:30:00 AM 0.91 33.638 0.042 7.66 5.02 12.63
1/4/2022 6:45:00 AM 0.93 33.674 0.04 7.64 4.42 12.63
1/4/2022 7:00:00 AM 0.96 33.728 0.043 7.66 4.87 12.61
1/4/2022 7:15:00 AM 0.97 33.746 0.039 7.66 4.16 12.61
1/4/2022 7:30:00 AM 0.99 33.782 0.048 7.66 4.05 12.61
1/4/2022 7:45:00 AM 1.02 33.836 0.041 7.66 3.96 12.6
1/4/2022 8:00:00 AM 1.03 33.854 0.037 7.66 3.85 12.62
1/4/2022 8:15:00 AM 1.04 33.872 0.042 7.67 4.2 12.62
1/4/2022 8:30:00 AM 1.03 33.854 0.04 7.67 3.88 12.64
1/4/2022 8:45:00 AM 1.04 33.872 0.04 7.68 4.24 12.65
1/4/2022 9:00:00 AM 1.05 33.89 0.043 7.68 4.04 12.67
1/4/2022 9:15:00 AM